<?xml version="1.0" encoding="UTF-8" standalone="no" ?>
<gpx xmlns="http://www.topografix.com/GPX/1/1" xmlns:xsi="http://www.w3.org/2001/XMLSchema-instance" xsi:schemaLocation="http://www.topografix.com/GPX/1/1 http://www.topografix.com/GPX/1/1/gpx.xsd" version="1.1" creator="VisuGPX - https://www.visugpx.com">
  <metadata>
    <name>Félines</name>
    <desc><![CDATA[
]]></desc>
  </metadata>
  <trk>
    <name><![CDATA[Félines_1]]></name>
    <extensions>
      <line xmlns="http://www.topografix.com/GPX/gpx_style/0/2">
        <color>0000FF</color>
        <width>4</width>
      </line>
    </extensions>
    <trkseg>
      <trkpt lat="43.33287" lon="2.60285">
        <ele>164.27400207519</ele>
        <time>2017-07-29T06:16:17Z</time>
      </trkpt>
      <trkpt lat="43.33288" lon="2.60278">
        <ele>164.27400207519</ele>
        <time>2017-07-29T06:16:22Z</time>
      </trkpt>
      <trkpt lat="43.33311" lon="2.60248">
        <ele>171.27400207519</ele>
        <time>2017-07-29T06:17:08Z</time>
      </trkpt>
      <trkpt lat="43.33298" lon="2.60244">
        <ele>163.27400207519</ele>
        <time>2017-07-29T06:17:09Z</time>
      </trkpt>
      <trkpt lat="43.33289" lon="2.60239">
        <ele>163.27400207519</ele>
        <time>2017-07-29T06:17:10Z</time>
      </trkpt>
      <trkpt lat="43.33286" lon="2.6022">
        <ele>182.27400207519</ele>
        <time>2017-07-29T06:17:11Z</time>
      </trkpt>
      <trkpt lat="43.33274" lon="2.60212">
        <ele>177.27400207519</ele>
        <time>2017-07-29T06:17:13Z</time>
      </trkpt>
      <trkpt lat="43.33266" lon="2.60209">
        <ele>173.27400207519</ele>
        <time>2017-07-29T06:17:14Z</time>
      </trkpt>
      <trkpt lat="43.33257" lon="2.60203">
        <ele>168.27400207519</ele>
        <time>2017-07-29T06:17:16Z</time>
      </trkpt>
      <trkpt lat="43.33247" lon="2.60201">
        <ele>165.27299499512</ele>
        <time>2017-07-29T06:17:18Z</time>
      </trkpt>
      <trkpt lat="43.3324" lon="2.60199">
        <ele>166.27299499512</ele>
        <time>2017-07-29T06:17:20Z</time>
      </trkpt>
      <trkpt lat="43.33235" lon="2.60193">
        <ele>168.27299499512</ele>
        <time>2017-07-29T06:17:22Z</time>
      </trkpt>
      <trkpt lat="43.33227" lon="2.60188">
        <ele>166.27299499512</ele>
        <time>2017-07-29T06:17:24Z</time>
      </trkpt>
      <trkpt lat="43.33214" lon="2.6018">
        <ele>165.27299499512</ele>
        <time>2017-07-29T06:17:27Z</time>
      </trkpt>
      <trkpt lat="43.33208" lon="2.60174">
        <ele>165.27299499512</ele>
        <time>2017-07-29T06:17:30Z</time>
      </trkpt>
      <trkpt lat="43.33201" lon="2.60171">
        <ele>165.27299499512</ele>
        <time>2017-07-29T06:17:32Z</time>
      </trkpt>
      <trkpt lat="43.33195" lon="2.60169">
        <ele>164.27299499512</ele>
        <time>2017-07-29T06:17:34Z</time>
      </trkpt>
      <trkpt lat="43.33189" lon="2.60169">
        <ele>164.27299499512</ele>
        <time>2017-07-29T06:17:36Z</time>
      </trkpt>
      <trkpt lat="43.33184" lon="2.6017">
        <ele>170.27299499512</ele>
        <time>2017-07-29T06:17:40Z</time>
      </trkpt>
      <trkpt lat="43.33178" lon="2.6017">
        <ele>170.27299499512</ele>
        <time>2017-07-29T06:17:42Z</time>
      </trkpt>
      <trkpt lat="43.33171" lon="2.6017">
        <ele>173.27299499512</ele>
        <time>2017-07-29T06:17:45Z</time>
      </trkpt>
      <trkpt lat="43.33168" lon="2.60165">
        <ele>174.27299499512</ele>
        <time>2017-07-29T06:17:47Z</time>
      </trkpt>
      <trkpt lat="43.33167" lon="2.60158">
        <ele>175.27299499512</ele>
        <time>2017-07-29T06:17:49Z</time>
      </trkpt>
      <trkpt lat="43.33168" lon="2.6015">
        <ele>174.27299499512</ele>
        <time>2017-07-29T06:17:51Z</time>
      </trkpt>
      <trkpt lat="43.33163" lon="2.60142">
        <ele>178.27299499512</ele>
        <time>2017-07-29T06:17:56Z</time>
      </trkpt>
      <trkpt lat="43.33157" lon="2.60138">
        <ele>179.27299499512</ele>
        <time>2017-07-29T06:17:58Z</time>
      </trkpt>
      <trkpt lat="43.33153" lon="2.60135">
        <ele>180.27299499512</ele>
        <time>2017-07-29T06:18:00Z</time>
      </trkpt>
      <trkpt lat="43.33147" lon="2.60133">
        <ele>180.27299499512</ele>
        <time>2017-07-29T06:18:02Z</time>
      </trkpt>
      <trkpt lat="43.33135" lon="2.60126">
        <ele>176.27299499512</ele>
        <time>2017-07-29T06:18:06Z</time>
      </trkpt>
      <trkpt lat="43.3313" lon="2.60123">
        <ele>174.27299499512</ele>
        <time>2017-07-29T06:18:08Z</time>
      </trkpt>
      <trkpt lat="43.33118" lon="2.60113">
        <ele>169.27299499512</ele>
        <time>2017-07-29T06:18:11Z</time>
      </trkpt>
      <trkpt lat="43.33115" lon="2.60108">
        <ele>168.27299499512</ele>
        <time>2017-07-29T06:18:13Z</time>
      </trkpt>
      <trkpt lat="43.33097" lon="2.60032">
        <ele>164.27299499512</ele>
        <time>2017-07-29T06:18:40Z</time>
      </trkpt>
      <trkpt lat="43.33091" lon="2.60029">
        <ele>170.27299499512</ele>
        <time>2017-07-29T06:18:43Z</time>
      </trkpt>
      <trkpt lat="43.33086" lon="2.60019">
        <ele>171.27200317383</ele>
        <time>2017-07-29T06:18:46Z</time>
      </trkpt>
      <trkpt lat="43.33082" lon="2.60016">
        <ele>172.27200317383</ele>
        <time>2017-07-29T06:18:48Z</time>
      </trkpt>
      <trkpt lat="43.33078" lon="2.60012">
        <ele>173.27200317383</ele>
        <time>2017-07-29T06:18:51Z</time>
      </trkpt>
      <trkpt lat="43.33074" lon="2.59998">
        <ele>168.27200317383</ele>
        <time>2017-07-29T06:18:54Z</time>
      </trkpt>
      <trkpt lat="43.33071" lon="2.5999">
        <ele>164.27200317383</ele>
        <time>2017-07-29T06:18:56Z</time>
      </trkpt>
      <trkpt lat="43.33068" lon="2.59984">
        <ele>162.27200317383</ele>
        <time>2017-07-29T06:18:58Z</time>
      </trkpt>
      <trkpt lat="43.33065" lon="2.59979">
        <ele>163.27200317383</ele>
        <time>2017-07-29T06:19:01Z</time>
      </trkpt>
      <trkpt lat="43.33061" lon="2.59971">
        <ele>164.27200317383</ele>
        <time>2017-07-29T06:19:04Z</time>
      </trkpt>
      <trkpt lat="43.33058" lon="2.59965">
        <ele>165.27200317383</ele>
        <time>2017-07-29T06:19:06Z</time>
      </trkpt>
      <trkpt lat="43.33054" lon="2.59957">
        <ele>164.27200317383</ele>
        <time>2017-07-29T06:19:09Z</time>
      </trkpt>
      <trkpt lat="43.33049" lon="2.5995">
        <ele>165.27200317383</ele>
        <time>2017-07-29T06:19:12Z</time>
      </trkpt>
      <trkpt lat="43.33047" lon="2.59944">
        <ele>166.27200317383</ele>
        <time>2017-07-29T06:19:14Z</time>
      </trkpt>
      <trkpt lat="43.33042" lon="2.59939">
        <ele>164.27200317383</ele>
        <time>2017-07-29T06:19:16Z</time>
      </trkpt>
      <trkpt lat="43.33038" lon="2.59933">
        <ele>162.27200317383</ele>
        <time>2017-07-29T06:19:19Z</time>
      </trkpt>
      <trkpt lat="43.33035" lon="2.59928">
        <ele>163.27200317383</ele>
        <time>2017-07-29T06:19:21Z</time>
      </trkpt>
      <trkpt lat="43.33032" lon="2.59921">
        <ele>163.27200317383</ele>
        <time>2017-07-29T06:19:23Z</time>
      </trkpt>
      <trkpt lat="43.33028" lon="2.59915">
        <ele>164.27200317383</ele>
        <time>2017-07-29T06:19:26Z</time>
      </trkpt>
      <trkpt lat="43.33025" lon="2.59909">
        <ele>164.27200317383</ele>
        <time>2017-07-29T06:19:28Z</time>
      </trkpt>
      <trkpt lat="43.33023" lon="2.59904">
        <ele>165.27200317383</ele>
        <time>2017-07-29T06:19:30Z</time>
      </trkpt>
      <trkpt lat="43.33018" lon="2.59897">
        <ele>165.27200317383</ele>
        <time>2017-07-29T06:19:33Z</time>
      </trkpt>
      <trkpt lat="43.33016" lon="2.5989">
        <ele>165.27200317383</ele>
        <time>2017-07-29T06:19:35Z</time>
      </trkpt>
      <trkpt lat="43.33013" lon="2.59885">
        <ele>165.27200317383</ele>
        <time>2017-07-29T06:19:37Z</time>
      </trkpt>
      <trkpt lat="43.3301" lon="2.5988">
        <ele>165.27200317383</ele>
        <time>2017-07-29T06:19:39Z</time>
      </trkpt>
      <trkpt lat="43.33006" lon="2.59874">
        <ele>166.27200317383</ele>
        <time>2017-07-29T06:19:41Z</time>
      </trkpt>
      <trkpt lat="43.33002" lon="2.59869">
        <ele>167.27200317383</ele>
        <time>2017-07-29T06:19:43Z</time>
      </trkpt>
      <trkpt lat="43.32998" lon="2.59864">
        <ele>168.27200317383</ele>
        <time>2017-07-29T06:19:46Z</time>
      </trkpt>
      <trkpt lat="43.32994" lon="2.59857">
        <ele>168.27200317383</ele>
        <time>2017-07-29T06:19:49Z</time>
      </trkpt>
      <trkpt lat="43.32991" lon="2.59851">
        <ele>169.27200317383</ele>
        <time>2017-07-29T06:19:52Z</time>
      </trkpt>
      <trkpt lat="43.32986" lon="2.59844">
        <ele>171.27200317383</ele>
        <time>2017-07-29T06:19:55Z</time>
      </trkpt>
      <trkpt lat="43.32984" lon="2.59838">
        <ele>170.27200317383</ele>
        <time>2017-07-29T06:19:57Z</time>
      </trkpt>
      <trkpt lat="43.3298" lon="2.5983">
        <ele>169.27200317383</ele>
        <time>2017-07-29T06:20:00Z</time>
      </trkpt>
      <trkpt lat="43.32977" lon="2.59823">
        <ele>165.27200317383</ele>
        <time>2017-07-29T06:20:02Z</time>
      </trkpt>
      <trkpt lat="43.32973" lon="2.59818">
        <ele>164.27200317383</ele>
        <time>2017-07-29T06:20:04Z</time>
      </trkpt>
      <trkpt lat="43.3297" lon="2.59811">
        <ele>165.27200317383</ele>
        <time>2017-07-29T06:20:06Z</time>
      </trkpt>
      <trkpt lat="43.32965" lon="2.59804">
        <ele>164.27200317383</ele>
        <time>2017-07-29T06:20:09Z</time>
      </trkpt>
      <trkpt lat="43.32961" lon="2.59797">
        <ele>164.27099609375</ele>
        <time>2017-07-29T06:20:12Z</time>
      </trkpt>
      <trkpt lat="43.32957" lon="2.59789">
        <ele>164.27099609375</ele>
        <time>2017-07-29T06:20:15Z</time>
      </trkpt>
      <trkpt lat="43.32953" lon="2.59782">
        <ele>164.27099609375</ele>
        <time>2017-07-29T06:20:18Z</time>
      </trkpt>
      <trkpt lat="43.3295" lon="2.59776">
        <ele>166.27099609375</ele>
        <time>2017-07-29T06:20:20Z</time>
      </trkpt>
      <trkpt lat="43.32948" lon="2.5977">
        <ele>165.27099609375</ele>
        <time>2017-07-29T06:20:22Z</time>
      </trkpt>
      <trkpt lat="43.32943" lon="2.59765">
        <ele>165.27099609375</ele>
        <time>2017-07-29T06:20:24Z</time>
      </trkpt>
      <trkpt lat="43.3294" lon="2.59758">
        <ele>165.27099609375</ele>
        <time>2017-07-29T06:20:26Z</time>
      </trkpt>
      <trkpt lat="43.32937" lon="2.59754">
        <ele>165.27099609375</ele>
        <time>2017-07-29T06:20:28Z</time>
      </trkpt>
      <trkpt lat="43.32932" lon="2.59744">
        <ele>165.27099609375</ele>
        <time>2017-07-29T06:20:31Z</time>
      </trkpt>
      <trkpt lat="43.3293" lon="2.59739">
        <ele>166.27099609375</ele>
        <time>2017-07-29T06:20:33Z</time>
      </trkpt>
      <trkpt lat="43.32927" lon="2.59732">
        <ele>164.27099609375</ele>
        <time>2017-07-29T06:20:35Z</time>
      </trkpt>
      <trkpt lat="43.32924" lon="2.59727">
        <ele>163.27099609375</ele>
        <time>2017-07-29T06:20:37Z</time>
      </trkpt>
      <trkpt lat="43.32916" lon="2.59715">
        <ele>161.27099609375</ele>
        <time>2017-07-29T06:20:42Z</time>
      </trkpt>
      <trkpt lat="43.32913" lon="2.59707">
        <ele>162.27099609375</ele>
        <time>2017-07-29T06:20:45Z</time>
      </trkpt>
      <trkpt lat="43.3291" lon="2.597">
        <ele>163.27099609375</ele>
        <time>2017-07-29T06:20:47Z</time>
      </trkpt>
      <trkpt lat="43.32911" lon="2.59694">
        <ele>163.27099609375</ele>
        <time>2017-07-29T06:20:49Z</time>
      </trkpt>
      <trkpt lat="43.32913" lon="2.5968">
        <ele>164.27099609375</ele>
        <time>2017-07-29T06:20:53Z</time>
      </trkpt>
      <trkpt lat="43.32913" lon="2.59673">
        <ele>164.27099609375</ele>
        <time>2017-07-29T06:20:55Z</time>
      </trkpt>
      <trkpt lat="43.32915" lon="2.59667">
        <ele>163.27099609375</ele>
        <time>2017-07-29T06:20:57Z</time>
      </trkpt>
      <trkpt lat="43.32916" lon="2.59661">
        <ele>164.27099609375</ele>
        <time>2017-07-29T06:20:59Z</time>
      </trkpt>
      <trkpt lat="43.32916" lon="2.59654">
        <ele>164.27099609375</ele>
        <time>2017-07-29T06:21:01Z</time>
      </trkpt>
      <trkpt lat="43.32917" lon="2.59645">
        <ele>165.27099609375</ele>
        <time>2017-07-29T06:21:03Z</time>
      </trkpt>
      <trkpt lat="43.32918" lon="2.59639">
        <ele>164.27099609375</ele>
        <time>2017-07-29T06:21:05Z</time>
      </trkpt>
      <trkpt lat="43.3292" lon="2.5963">
        <ele>164.27099609375</ele>
        <time>2017-07-29T06:21:08Z</time>
      </trkpt>
      <trkpt lat="43.32922" lon="2.59621">
        <ele>165.27099609375</ele>
        <time>2017-07-29T06:21:11Z</time>
      </trkpt>
      <trkpt lat="43.32924" lon="2.59612">
        <ele>166.27099609375</ele>
        <time>2017-07-29T06:21:14Z</time>
      </trkpt>
      <trkpt lat="43.32926" lon="2.59607">
        <ele>165.27099609375</ele>
        <time>2017-07-29T06:21:16Z</time>
      </trkpt>
      <trkpt lat="43.32928" lon="2.59598">
        <ele>165.27099609375</ele>
        <time>2017-07-29T06:21:19Z</time>
      </trkpt>
      <trkpt lat="43.32929" lon="2.59589">
        <ele>167.27099609375</ele>
        <time>2017-07-29T06:21:23Z</time>
      </trkpt>
      <trkpt lat="43.32929" lon="2.5958">
        <ele>167.27099609375</ele>
        <time>2017-07-29T06:21:25Z</time>
      </trkpt>
      <trkpt lat="43.3293" lon="2.59573">
        <ele>169.27099609375</ele>
        <time>2017-07-29T06:21:28Z</time>
      </trkpt>
      <trkpt lat="43.3293" lon="2.59558">
        <ele>169.27099609375</ele>
        <time>2017-07-29T06:21:32Z</time>
      </trkpt>
      <trkpt lat="43.3293" lon="2.5955">
        <ele>169.27099609375</ele>
        <time>2017-07-29T06:21:34Z</time>
      </trkpt>
      <trkpt lat="43.3293" lon="2.59542">
        <ele>169.27099609375</ele>
        <time>2017-07-29T06:21:37Z</time>
      </trkpt>
      <trkpt lat="43.32929" lon="2.59534">
        <ele>168.27099609375</ele>
        <time>2017-07-29T06:21:39Z</time>
      </trkpt>
      <trkpt lat="43.32928" lon="2.59528">
        <ele>168.27099609375</ele>
        <time>2017-07-29T06:21:41Z</time>
      </trkpt>
      <trkpt lat="43.32927" lon="2.5952">
        <ele>168.27099609375</ele>
        <time>2017-07-29T06:21:43Z</time>
      </trkpt>
      <trkpt lat="43.32927" lon="2.59512">
        <ele>168.27099609375</ele>
        <time>2017-07-29T06:21:45Z</time>
      </trkpt>
      <trkpt lat="43.32926" lon="2.59506">
        <ele>169.27099609375</ele>
        <time>2017-07-29T06:21:47Z</time>
      </trkpt>
      <trkpt lat="43.32926" lon="2.59497">
        <ele>170.27099609375</ele>
        <time>2017-07-29T06:21:50Z</time>
      </trkpt>
      <trkpt lat="43.32925" lon="2.59489">
        <ele>170.27099609375</ele>
        <time>2017-07-29T06:21:52Z</time>
      </trkpt>
      <trkpt lat="43.32925" lon="2.59481">
        <ele>169.27099609375</ele>
        <time>2017-07-29T06:21:54Z</time>
      </trkpt>
      <trkpt lat="43.32923" lon="2.59473">
        <ele>169.27099609375</ele>
        <time>2017-07-29T06:21:56Z</time>
      </trkpt>
      <trkpt lat="43.32922" lon="2.59466">
        <ele>170.27099609375</ele>
        <time>2017-07-29T06:21:58Z</time>
      </trkpt>
      <trkpt lat="43.3292" lon="2.59457">
        <ele>170.27099609375</ele>
        <time>2017-07-29T06:22:00Z</time>
      </trkpt>
      <trkpt lat="43.3292" lon="2.59451">
        <ele>172.27099609375</ele>
        <time>2017-07-29T06:22:02Z</time>
      </trkpt>
      <trkpt lat="43.32918" lon="2.59441">
        <ele>171.27000427246</ele>
        <time>2017-07-29T06:22:05Z</time>
      </trkpt>
      <trkpt lat="43.32917" lon="2.59433">
        <ele>171.27000427246</ele>
        <time>2017-07-29T06:22:08Z</time>
      </trkpt>
      <trkpt lat="43.32916" lon="2.59425">
        <ele>172.27000427246</ele>
        <time>2017-07-29T06:22:11Z</time>
      </trkpt>
      <trkpt lat="43.32915" lon="2.59417">
        <ele>172.27000427246</ele>
        <time>2017-07-29T06:22:13Z</time>
      </trkpt>
      <trkpt lat="43.32913" lon="2.5941">
        <ele>173.27000427246</ele>
        <time>2017-07-29T06:22:15Z</time>
      </trkpt>
      <trkpt lat="43.32911" lon="2.59404">
        <ele>173.27000427246</ele>
        <time>2017-07-29T06:22:17Z</time>
      </trkpt>
      <trkpt lat="43.32909" lon="2.59398">
        <ele>173.27000427246</ele>
        <time>2017-07-29T06:22:19Z</time>
      </trkpt>
      <trkpt lat="43.32907" lon="2.59393">
        <ele>175.27000427246</ele>
        <time>2017-07-29T06:22:21Z</time>
      </trkpt>
      <trkpt lat="43.32905" lon="2.59386">
        <ele>173.27000427246</ele>
        <time>2017-07-29T06:22:24Z</time>
      </trkpt>
      <trkpt lat="43.32903" lon="2.59379">
        <ele>173.27000427246</ele>
        <time>2017-07-29T06:22:26Z</time>
      </trkpt>
      <trkpt lat="43.32903" lon="2.5937">
        <ele>172.27000427246</ele>
        <time>2017-07-29T06:22:29Z</time>
      </trkpt>
      <trkpt lat="43.32902" lon="2.59363">
        <ele>173.27000427246</ele>
        <time>2017-07-29T06:22:31Z</time>
      </trkpt>
      <trkpt lat="43.32902" lon="2.59357">
        <ele>172.27000427246</ele>
        <time>2017-07-29T06:22:33Z</time>
      </trkpt>
      <trkpt lat="43.32903" lon="2.59348">
        <ele>174.27000427246</ele>
        <time>2017-07-29T06:22:36Z</time>
      </trkpt>
      <trkpt lat="43.32903" lon="2.59339">
        <ele>174.27000427246</ele>
        <time>2017-07-29T06:22:39Z</time>
      </trkpt>
      <trkpt lat="43.32901" lon="2.59329">
        <ele>173.27000427246</ele>
        <time>2017-07-29T06:22:42Z</time>
      </trkpt>
      <trkpt lat="43.32901" lon="2.59323">
        <ele>175.27000427246</ele>
        <time>2017-07-29T06:22:44Z</time>
      </trkpt>
      <trkpt lat="43.32899" lon="2.59316">
        <ele>175.27000427246</ele>
        <time>2017-07-29T06:22:46Z</time>
      </trkpt>
      <trkpt lat="43.32898" lon="2.59309">
        <ele>177.27000427246</ele>
        <time>2017-07-29T06:22:48Z</time>
      </trkpt>
      <trkpt lat="43.32898" lon="2.59303">
        <ele>175.27000427246</ele>
        <time>2017-07-29T06:22:50Z</time>
      </trkpt>
      <trkpt lat="43.32896" lon="2.59296">
        <ele>175.27000427246</ele>
        <time>2017-07-29T06:22:52Z</time>
      </trkpt>
      <trkpt lat="43.32896" lon="2.59289">
        <ele>177.27000427246</ele>
        <time>2017-07-29T06:22:54Z</time>
      </trkpt>
      <trkpt lat="43.32896" lon="2.59282">
        <ele>178.27000427246</ele>
        <time>2017-07-29T06:22:56Z</time>
      </trkpt>
      <trkpt lat="43.32896" lon="2.59276">
        <ele>179.27000427246</ele>
        <time>2017-07-29T06:22:58Z</time>
      </trkpt>
      <trkpt lat="43.32896" lon="2.59269">
        <ele>179.27000427246</ele>
        <time>2017-07-29T06:23:00Z</time>
      </trkpt>
      <trkpt lat="43.32896" lon="2.59262">
        <ele>180.27000427246</ele>
        <time>2017-07-29T06:23:02Z</time>
      </trkpt>
      <trkpt lat="43.32896" lon="2.59255">
        <ele>181.27000427246</ele>
        <time>2017-07-29T06:23:05Z</time>
      </trkpt>
      <trkpt lat="43.32896" lon="2.59238">
        <ele>181.27000427246</ele>
        <time>2017-07-29T06:23:10Z</time>
      </trkpt>
      <trkpt lat="43.32896" lon="2.5923">
        <ele>179.27000427246</ele>
        <time>2017-07-29T06:23:13Z</time>
      </trkpt>
      <trkpt lat="43.32897" lon="2.59223">
        <ele>179.27000427246</ele>
        <time>2017-07-29T06:23:16Z</time>
      </trkpt>
      <trkpt lat="43.329" lon="2.59218">
        <ele>179.27000427246</ele>
        <time>2017-07-29T06:23:19Z</time>
      </trkpt>
      <trkpt lat="43.32902" lon="2.59212">
        <ele>180.27000427246</ele>
        <time>2017-07-29T06:23:22Z</time>
      </trkpt>
      <trkpt lat="43.32905" lon="2.59207">
        <ele>180.27000427246</ele>
        <time>2017-07-29T06:23:26Z</time>
      </trkpt>
      <trkpt lat="43.32908" lon="2.59202">
        <ele>179.27000427246</ele>
        <time>2017-07-29T06:23:30Z</time>
      </trkpt>
      <trkpt lat="43.32912" lon="2.59201">
        <ele>179.27000427246</ele>
        <time>2017-07-29T06:23:35Z</time>
      </trkpt>
      <trkpt lat="43.32912" lon="2.59194">
        <ele>179.27000427246</ele>
        <time>2017-07-29T06:23:40Z</time>
      </trkpt>
      <trkpt lat="43.32913" lon="2.59183">
        <ele>179.27000427246</ele>
        <time>2017-07-29T06:23:43Z</time>
      </trkpt>
      <trkpt lat="43.32908" lon="2.59184">
        <ele>179.27000427246</ele>
        <time>2017-07-29T06:23:50Z</time>
      </trkpt>
      <trkpt lat="43.32909" lon="2.5919">
        <ele>178.27000427246</ele>
        <time>2017-07-29T06:23:52Z</time>
      </trkpt>
      <trkpt lat="43.32911" lon="2.59196">
        <ele>178.27000427246</ele>
        <time>2017-07-29T06:24:00Z</time>
      </trkpt>
      <trkpt lat="43.32916" lon="2.59197">
        <ele>186.27000427246</ele>
        <time>2017-07-29T06:24:13Z</time>
      </trkpt>
      <trkpt lat="43.32915" lon="2.59189">
        <ele>189.27000427246</ele>
        <time>2017-07-29T06:24:15Z</time>
      </trkpt>
      <trkpt lat="43.32917" lon="2.59181">
        <ele>191.27000427246</ele>
        <time>2017-07-29T06:24:18Z</time>
      </trkpt>
      <trkpt lat="43.3292" lon="2.59173">
        <ele>192.27000427246</ele>
        <time>2017-07-29T06:24:21Z</time>
      </trkpt>
      <trkpt lat="43.32922" lon="2.59165">
        <ele>192.27000427246</ele>
        <time>2017-07-29T06:24:24Z</time>
      </trkpt>
      <trkpt lat="43.32924" lon="2.59157">
        <ele>193.27000427246</ele>
        <time>2017-07-29T06:24:27Z</time>
      </trkpt>
      <trkpt lat="43.32925" lon="2.59151">
        <ele>194.27000427246</ele>
        <time>2017-07-29T06:24:29Z</time>
      </trkpt>
      <trkpt lat="43.32927" lon="2.59145">
        <ele>196.27000427246</ele>
        <time>2017-07-29T06:24:31Z</time>
      </trkpt>
      <trkpt lat="43.32928" lon="2.59137">
        <ele>197.27000427246</ele>
        <time>2017-07-29T06:24:34Z</time>
      </trkpt>
      <trkpt lat="43.3293" lon="2.5913">
        <ele>197.27000427246</ele>
        <time>2017-07-29T06:24:36Z</time>
      </trkpt>
      <trkpt lat="43.32931" lon="2.59122">
        <ele>198.27000427246</ele>
        <time>2017-07-29T06:24:39Z</time>
      </trkpt>
      <trkpt lat="43.32931" lon="2.59115">
        <ele>201.27000427246</ele>
        <time>2017-07-29T06:24:42Z</time>
      </trkpt>
      <trkpt lat="43.32932" lon="2.59107">
        <ele>202.27000427246</ele>
        <time>2017-07-29T06:24:45Z</time>
      </trkpt>
      <trkpt lat="43.32932" lon="2.59099">
        <ele>204.27000427246</ele>
        <time>2017-07-29T06:24:48Z</time>
      </trkpt>
      <trkpt lat="43.32933" lon="2.59092">
        <ele>204.27000427246</ele>
        <time>2017-07-29T06:24:50Z</time>
      </trkpt>
      <trkpt lat="43.32933" lon="2.59083">
        <ele>203.27000427246</ele>
        <time>2017-07-29T06:24:53Z</time>
      </trkpt>
      <trkpt lat="43.32934" lon="2.59076">
        <ele>203.27000427246</ele>
        <time>2017-07-29T06:24:55Z</time>
      </trkpt>
      <trkpt lat="43.32934" lon="2.59067">
        <ele>200.27000427246</ele>
        <time>2017-07-29T06:24:58Z</time>
      </trkpt>
      <trkpt lat="43.32936" lon="2.59058">
        <ele>200.27000427246</ele>
        <time>2017-07-29T06:25:01Z</time>
      </trkpt>
      <trkpt lat="43.32935" lon="2.59051">
        <ele>203.27000427246</ele>
        <time>2017-07-29T06:25:04Z</time>
      </trkpt>
      <trkpt lat="43.32932" lon="2.59045">
        <ele>203.27000427246</ele>
        <time>2017-07-29T06:25:06Z</time>
      </trkpt>
      <trkpt lat="43.32927" lon="2.59041">
        <ele>201.27000427246</ele>
        <time>2017-07-29T06:25:08Z</time>
      </trkpt>
      <trkpt lat="43.32923" lon="2.59037">
        <ele>203.27000427246</ele>
        <time>2017-07-29T06:25:10Z</time>
      </trkpt>
      <trkpt lat="43.32918" lon="2.59032">
        <ele>203.27000427246</ele>
        <time>2017-07-29T06:25:12Z</time>
      </trkpt>
      <trkpt lat="43.32913" lon="2.59028">
        <ele>202.27000427246</ele>
        <time>2017-07-29T06:25:14Z</time>
      </trkpt>
      <trkpt lat="43.32907" lon="2.59023">
        <ele>203.26899719238</ele>
        <time>2017-07-29T06:25:17Z</time>
      </trkpt>
      <trkpt lat="43.32903" lon="2.59018">
        <ele>201.26899719238</ele>
        <time>2017-07-29T06:25:19Z</time>
      </trkpt>
      <trkpt lat="43.32898" lon="2.59014">
        <ele>203.26899719238</ele>
        <time>2017-07-29T06:25:21Z</time>
      </trkpt>
      <trkpt lat="43.32894" lon="2.59011">
        <ele>204.26899719238</ele>
        <time>2017-07-29T06:25:23Z</time>
      </trkpt>
      <trkpt lat="43.32889" lon="2.59007">
        <ele>204.26899719238</ele>
        <time>2017-07-29T06:25:25Z</time>
      </trkpt>
      <trkpt lat="43.32884" lon="2.59003">
        <ele>204.26899719238</ele>
        <time>2017-07-29T06:25:28Z</time>
      </trkpt>
      <trkpt lat="43.32878" lon="2.58998">
        <ele>204.26899719238</ele>
        <time>2017-07-29T06:25:31Z</time>
      </trkpt>
      <trkpt lat="43.32873" lon="2.58994">
        <ele>205.26899719238</ele>
        <time>2017-07-29T06:25:34Z</time>
      </trkpt>
      <trkpt lat="43.32869" lon="2.5899">
        <ele>205.26899719238</ele>
        <time>2017-07-29T06:25:36Z</time>
      </trkpt>
      <trkpt lat="43.32863" lon="2.58985">
        <ele>205.26899719238</ele>
        <time>2017-07-29T06:25:39Z</time>
      </trkpt>
      <trkpt lat="43.32859" lon="2.58983">
        <ele>205.26899719238</ele>
        <time>2017-07-29T06:25:41Z</time>
      </trkpt>
      <trkpt lat="43.32854" lon="2.5898">
        <ele>206.26899719238</ele>
        <time>2017-07-29T06:25:43Z</time>
      </trkpt>
      <trkpt lat="43.3285" lon="2.58977">
        <ele>205.26899719238</ele>
        <time>2017-07-29T06:25:45Z</time>
      </trkpt>
      <trkpt lat="43.32845" lon="2.58974">
        <ele>205.26899719238</ele>
        <time>2017-07-29T06:25:47Z</time>
      </trkpt>
      <trkpt lat="43.32841" lon="2.58972">
        <ele>206.26899719238</ele>
        <time>2017-07-29T06:25:49Z</time>
      </trkpt>
      <trkpt lat="43.32836" lon="2.58971">
        <ele>206.26899719238</ele>
        <time>2017-07-29T06:25:51Z</time>
      </trkpt>
      <trkpt lat="43.32831" lon="2.58965">
        <ele>207.26899719238</ele>
        <time>2017-07-29T06:25:54Z</time>
      </trkpt>
      <trkpt lat="43.32831" lon="2.58958">
        <ele>208.26899719238</ele>
        <time>2017-07-29T06:25:57Z</time>
      </trkpt>
      <trkpt lat="43.32835" lon="2.58952">
        <ele>210.26899719238</ele>
        <time>2017-07-29T06:26:00Z</time>
      </trkpt>
      <trkpt lat="43.32838" lon="2.58945">
        <ele>211.26899719238</ele>
        <time>2017-07-29T06:26:03Z</time>
      </trkpt>
      <trkpt lat="43.3284" lon="2.58939">
        <ele>214.26899719238</ele>
        <time>2017-07-29T06:26:06Z</time>
      </trkpt>
      <trkpt lat="43.32838" lon="2.5893">
        <ele>215.26899719238</ele>
        <time>2017-07-29T06:26:09Z</time>
      </trkpt>
      <trkpt lat="43.32834" lon="2.58924">
        <ele>216.26899719238</ele>
        <time>2017-07-29T06:26:12Z</time>
      </trkpt>
      <trkpt lat="43.32829" lon="2.5892">
        <ele>215.26899719238</ele>
        <time>2017-07-29T06:26:15Z</time>
      </trkpt>
      <trkpt lat="43.32824" lon="2.58916">
        <ele>215.26899719238</ele>
        <time>2017-07-29T06:26:17Z</time>
      </trkpt>
      <trkpt lat="43.32818" lon="2.58914">
        <ele>217.26899719238</ele>
        <time>2017-07-29T06:26:20Z</time>
      </trkpt>
      <trkpt lat="43.32813" lon="2.58913">
        <ele>217.26899719238</ele>
        <time>2017-07-29T06:26:22Z</time>
      </trkpt>
      <trkpt lat="43.32806" lon="2.58915">
        <ele>218.26899719238</ele>
        <time>2017-07-29T06:26:25Z</time>
      </trkpt>
      <trkpt lat="43.32801" lon="2.58915">
        <ele>218.26899719238</ele>
        <time>2017-07-29T06:26:27Z</time>
      </trkpt>
      <trkpt lat="43.32795" lon="2.58916">
        <ele>218.26899719238</ele>
        <time>2017-07-29T06:26:30Z</time>
      </trkpt>
      <trkpt lat="43.3279" lon="2.58916">
        <ele>217.26899719238</ele>
        <time>2017-07-29T06:26:32Z</time>
      </trkpt>
      <trkpt lat="43.32784" lon="2.58916">
        <ele>216.26899719238</ele>
        <time>2017-07-29T06:26:35Z</time>
      </trkpt>
      <trkpt lat="43.32777" lon="2.58916">
        <ele>216.26899719238</ele>
        <time>2017-07-29T06:26:37Z</time>
      </trkpt>
      <trkpt lat="43.32772" lon="2.58917">
        <ele>217.26899719238</ele>
        <time>2017-07-29T06:26:39Z</time>
      </trkpt>
      <trkpt lat="43.32767" lon="2.58916">
        <ele>216.26899719238</ele>
        <time>2017-07-29T06:26:41Z</time>
      </trkpt>
      <trkpt lat="43.32761" lon="2.58916">
        <ele>216.26899719238</ele>
        <time>2017-07-29T06:26:43Z</time>
      </trkpt>
      <trkpt lat="43.32756" lon="2.58917">
        <ele>216.26899719238</ele>
        <time>2017-07-29T06:26:45Z</time>
      </trkpt>
      <trkpt lat="43.32751" lon="2.58917">
        <ele>214.26899719238</ele>
        <time>2017-07-29T06:26:47Z</time>
      </trkpt>
      <trkpt lat="43.32745" lon="2.58917">
        <ele>215.26899719238</ele>
        <time>2017-07-29T06:26:49Z</time>
      </trkpt>
      <trkpt lat="43.3274" lon="2.58917">
        <ele>215.26899719238</ele>
        <time>2017-07-29T06:26:51Z</time>
      </trkpt>
      <trkpt lat="43.32734" lon="2.58915">
        <ele>215.26899719238</ele>
        <time>2017-07-29T06:26:54Z</time>
      </trkpt>
      <trkpt lat="43.32734" lon="2.58907">
        <ele>217.26899719238</ele>
        <time>2017-07-29T06:26:59Z</time>
      </trkpt>
      <trkpt lat="43.3273" lon="2.58912">
        <ele>214.26899719238</ele>
        <time>2017-07-29T06:27:05Z</time>
      </trkpt>
      <trkpt lat="43.32725" lon="2.58911">
        <ele>212.26899719238</ele>
        <time>2017-07-29T06:27:07Z</time>
      </trkpt>
      <trkpt lat="43.3272" lon="2.58907">
        <ele>213.26899719238</ele>
        <time>2017-07-29T06:27:10Z</time>
      </trkpt>
      <trkpt lat="43.32713" lon="2.58907">
        <ele>214.26800537109</ele>
        <time>2017-07-29T06:27:13Z</time>
      </trkpt>
      <trkpt lat="43.32708" lon="2.58905">
        <ele>214.26800537109</ele>
        <time>2017-07-29T06:27:15Z</time>
      </trkpt>
      <trkpt lat="43.32704" lon="2.58903">
        <ele>212.26800537109</ele>
        <time>2017-07-29T06:27:17Z</time>
      </trkpt>
      <trkpt lat="43.32698" lon="2.58901">
        <ele>211.26800537109</ele>
        <time>2017-07-29T06:27:19Z</time>
      </trkpt>
      <trkpt lat="43.32692" lon="2.58899">
        <ele>210.26800537109</ele>
        <time>2017-07-29T06:27:21Z</time>
      </trkpt>
      <trkpt lat="43.32688" lon="2.58896">
        <ele>209.26800537109</ele>
        <time>2017-07-29T06:27:24Z</time>
      </trkpt>
      <trkpt lat="43.32692" lon="2.589">
        <ele>209.26800537109</ele>
        <time>2017-07-29T06:27:30Z</time>
      </trkpt>
      <trkpt lat="43.32685" lon="2.58903">
        <ele>208.26800537109</ele>
        <time>2017-07-29T06:27:36Z</time>
      </trkpt>
      <trkpt lat="43.32679" lon="2.58904">
        <ele>208.26800537109</ele>
        <time>2017-07-29T06:27:38Z</time>
      </trkpt>
      <trkpt lat="43.32674" lon="2.58905">
        <ele>208.26800537109</ele>
        <time>2017-07-29T06:27:40Z</time>
      </trkpt>
      <trkpt lat="43.32667" lon="2.58906">
        <ele>208.26800537109</ele>
        <time>2017-07-29T06:27:42Z</time>
      </trkpt>
      <trkpt lat="43.32662" lon="2.58905">
        <ele>207.26800537109</ele>
        <time>2017-07-29T06:27:44Z</time>
      </trkpt>
      <trkpt lat="43.32657" lon="2.58905">
        <ele>206.26800537109</ele>
        <time>2017-07-29T06:27:46Z</time>
      </trkpt>
      <trkpt lat="43.32652" lon="2.58903">
        <ele>205.26800537109</ele>
        <time>2017-07-29T06:27:48Z</time>
      </trkpt>
      <trkpt lat="43.3265" lon="2.58897">
        <ele>204.26800537109</ele>
        <time>2017-07-29T06:27:50Z</time>
      </trkpt>
      <trkpt lat="43.32646" lon="2.58892">
        <ele>203.26800537109</ele>
        <time>2017-07-29T06:27:52Z</time>
      </trkpt>
      <trkpt lat="43.3264" lon="2.58888">
        <ele>204.26800537109</ele>
        <time>2017-07-29T06:27:54Z</time>
      </trkpt>
      <trkpt lat="43.32637" lon="2.58884">
        <ele>204.26800537109</ele>
        <time>2017-07-29T06:27:56Z</time>
      </trkpt>
      <trkpt lat="43.32627" lon="2.58882">
        <ele>203.26800537109</ele>
        <time>2017-07-29T06:28:00Z</time>
      </trkpt>
      <trkpt lat="43.32623" lon="2.58876">
        <ele>202.26800537109</ele>
        <time>2017-07-29T06:28:02Z</time>
      </trkpt>
      <trkpt lat="43.32623" lon="2.58869">
        <ele>201.26800537109</ele>
        <time>2017-07-29T06:28:04Z</time>
      </trkpt>
      <trkpt lat="43.32621" lon="2.58862">
        <ele>202.26800537109</ele>
        <time>2017-07-29T06:28:06Z</time>
      </trkpt>
      <trkpt lat="43.32617" lon="2.5886">
        <ele>202.26800537109</ele>
        <time>2017-07-29T06:28:08Z</time>
      </trkpt>
      <trkpt lat="43.32613" lon="2.58857">
        <ele>201.26800537109</ele>
        <time>2017-07-29T06:28:10Z</time>
      </trkpt>
      <trkpt lat="43.3261" lon="2.58851">
        <ele>202.26800537109</ele>
        <time>2017-07-29T06:28:12Z</time>
      </trkpt>
      <trkpt lat="43.32607" lon="2.58845">
        <ele>201.26800537109</ele>
        <time>2017-07-29T06:28:14Z</time>
      </trkpt>
      <trkpt lat="43.32603" lon="2.58841">
        <ele>202.26800537109</ele>
        <time>2017-07-29T06:28:16Z</time>
      </trkpt>
      <trkpt lat="43.32598" lon="2.5884">
        <ele>203.26800537109</ele>
        <time>2017-07-29T06:28:18Z</time>
      </trkpt>
      <trkpt lat="43.32593" lon="2.58836">
        <ele>204.26800537109</ele>
        <time>2017-07-29T06:28:20Z</time>
      </trkpt>
      <trkpt lat="43.32589" lon="2.58833">
        <ele>204.26800537109</ele>
        <time>2017-07-29T06:28:22Z</time>
      </trkpt>
      <trkpt lat="43.32585" lon="2.58827">
        <ele>202.26800537109</ele>
        <time>2017-07-29T06:28:24Z</time>
      </trkpt>
      <trkpt lat="43.32581" lon="2.58821">
        <ele>201.26800537109</ele>
        <time>2017-07-29T06:28:26Z</time>
      </trkpt>
      <trkpt lat="43.32578" lon="2.58814">
        <ele>201.26800537109</ele>
        <time>2017-07-29T06:28:28Z</time>
      </trkpt>
      <trkpt lat="43.32575" lon="2.58809">
        <ele>201.26800537109</ele>
        <time>2017-07-29T06:28:30Z</time>
      </trkpt>
      <trkpt lat="43.32571" lon="2.58802">
        <ele>199.26800537109</ele>
        <time>2017-07-29T06:28:32Z</time>
      </trkpt>
      <trkpt lat="43.32569" lon="2.58795">
        <ele>199.26800537109</ele>
        <time>2017-07-29T06:28:34Z</time>
      </trkpt>
      <trkpt lat="43.32566" lon="2.58788">
        <ele>198.26800537109</ele>
        <time>2017-07-29T06:28:36Z</time>
      </trkpt>
      <trkpt lat="43.32563" lon="2.58781">
        <ele>197.26800537109</ele>
        <time>2017-07-29T06:28:38Z</time>
      </trkpt>
      <trkpt lat="43.32561" lon="2.58774">
        <ele>197.26800537109</ele>
        <time>2017-07-29T06:28:40Z</time>
      </trkpt>
      <trkpt lat="43.32557" lon="2.58769">
        <ele>196.26800537109</ele>
        <time>2017-07-29T06:28:42Z</time>
      </trkpt>
      <trkpt lat="43.32554" lon="2.58763">
        <ele>195.26800537109</ele>
        <time>2017-07-29T06:28:44Z</time>
      </trkpt>
      <trkpt lat="43.32551" lon="2.58756">
        <ele>195.26800537109</ele>
        <time>2017-07-29T06:28:46Z</time>
      </trkpt>
      <trkpt lat="43.32547" lon="2.58752">
        <ele>195.26800537109</ele>
        <time>2017-07-29T06:28:48Z</time>
      </trkpt>
      <trkpt lat="43.32541" lon="2.58746">
        <ele>195.26699829102</ele>
        <time>2017-07-29T06:28:51Z</time>
      </trkpt>
      <trkpt lat="43.32535" lon="2.58744">
        <ele>194.26699829102</ele>
        <time>2017-07-29T06:28:53Z</time>
      </trkpt>
      <trkpt lat="43.32528" lon="2.58745">
        <ele>193.26699829102</ele>
        <time>2017-07-29T06:28:55Z</time>
      </trkpt>
      <trkpt lat="43.32523" lon="2.58742">
        <ele>192.26699829102</ele>
        <time>2017-07-29T06:28:57Z</time>
      </trkpt>
      <trkpt lat="43.32521" lon="2.58737">
        <ele>191.26699829102</ele>
        <time>2017-07-29T06:28:59Z</time>
      </trkpt>
      <trkpt lat="43.32516" lon="2.58733">
        <ele>190.26699829102</ele>
        <time>2017-07-29T06:29:01Z</time>
      </trkpt>
      <trkpt lat="43.32513" lon="2.58727">
        <ele>189.26699829102</ele>
        <time>2017-07-29T06:29:03Z</time>
      </trkpt>
      <trkpt lat="43.32508" lon="2.58723">
        <ele>189.26699829102</ele>
        <time>2017-07-29T06:29:05Z</time>
      </trkpt>
      <trkpt lat="43.32504" lon="2.58719">
        <ele>190.26699829102</ele>
        <time>2017-07-29T06:29:08Z</time>
      </trkpt>
      <trkpt lat="43.325" lon="2.58716">
        <ele>190.26699829102</ele>
        <time>2017-07-29T06:29:13Z</time>
      </trkpt>
      <trkpt lat="43.32494" lon="2.58714">
        <ele>189.26699829102</ele>
        <time>2017-07-29T06:29:17Z</time>
      </trkpt>
      <trkpt lat="43.32499" lon="2.58713">
        <ele>192.26699829102</ele>
        <time>2017-07-29T06:29:27Z</time>
      </trkpt>
      <trkpt lat="43.32504" lon="2.5871">
        <ele>190.26699829102</ele>
        <time>2017-07-29T06:29:31Z</time>
      </trkpt>
      <trkpt lat="43.32504" lon="2.58704">
        <ele>190.26699829102</ele>
        <time>2017-07-29T06:29:44Z</time>
      </trkpt>
      <trkpt lat="43.32499" lon="2.58699">
        <ele>188.26699829102</ele>
        <time>2017-07-29T06:29:48Z</time>
      </trkpt>
      <trkpt lat="43.32499" lon="2.58692">
        <ele>186.26699829102</ele>
        <time>2017-07-29T06:29:52Z</time>
      </trkpt>
      <trkpt lat="43.32503" lon="2.58688">
        <ele>182.26699829102</ele>
        <time>2017-07-29T06:29:57Z</time>
      </trkpt>
      <trkpt lat="43.32504" lon="2.5868">
        <ele>181.26699829102</ele>
        <time>2017-07-29T06:30:00Z</time>
      </trkpt>
      <trkpt lat="43.32503" lon="2.58673">
        <ele>183.26699829102</ele>
        <time>2017-07-29T06:30:11Z</time>
      </trkpt>
      <trkpt lat="43.32499" lon="2.5867">
        <ele>181.26699829102</ele>
        <time>2017-07-29T06:30:13Z</time>
      </trkpt>
      <trkpt lat="43.32493" lon="2.58663">
        <ele>182.26699829102</ele>
        <time>2017-07-29T06:30:17Z</time>
      </trkpt>
      <trkpt lat="43.32497" lon="2.58669">
        <ele>182.26699829102</ele>
        <time>2017-07-29T06:30:29Z</time>
      </trkpt>
      <trkpt lat="43.32503" lon="2.5867">
        <ele>180.26699829102</ele>
        <time>2017-07-29T06:30:31Z</time>
      </trkpt>
      <trkpt lat="43.32508" lon="2.58665">
        <ele>180.26699829102</ele>
        <time>2017-07-29T06:30:34Z</time>
      </trkpt>
      <trkpt lat="43.32513" lon="2.5866">
        <ele>182.26699829102</ele>
        <time>2017-07-29T06:30:37Z</time>
      </trkpt>
      <trkpt lat="43.32514" lon="2.58654">
        <ele>186.26699829102</ele>
        <time>2017-07-29T06:30:44Z</time>
      </trkpt>
      <trkpt lat="43.32514" lon="2.58647">
        <ele>186.26699829102</ele>
        <time>2017-07-29T06:30:48Z</time>
      </trkpt>
      <trkpt lat="43.32516" lon="2.5864">
        <ele>185.26699829102</ele>
        <time>2017-07-29T06:30:50Z</time>
      </trkpt>
      <trkpt lat="43.32522" lon="2.58638">
        <ele>186.26699829102</ele>
        <time>2017-07-29T06:30:52Z</time>
      </trkpt>
      <trkpt lat="43.32525" lon="2.58632">
        <ele>187.26699829102</ele>
        <time>2017-07-29T06:30:54Z</time>
      </trkpt>
      <trkpt lat="43.32531" lon="2.58626">
        <ele>187.26699829102</ele>
        <time>2017-07-29T06:30:57Z</time>
      </trkpt>
      <trkpt lat="43.32532" lon="2.58619">
        <ele>187.26699829102</ele>
        <time>2017-07-29T06:31:01Z</time>
      </trkpt>
      <trkpt lat="43.32527" lon="2.5861">
        <ele>187.26699829102</ele>
        <time>2017-07-29T06:31:04Z</time>
      </trkpt>
      <trkpt lat="43.32526" lon="2.58603">
        <ele>187.26699829102</ele>
        <time>2017-07-29T06:31:06Z</time>
      </trkpt>
      <trkpt lat="43.32526" lon="2.58596">
        <ele>186.26699829102</ele>
        <time>2017-07-29T06:31:08Z</time>
      </trkpt>
      <trkpt lat="43.32526" lon="2.58586">
        <ele>184.26699829102</ele>
        <time>2017-07-29T06:31:11Z</time>
      </trkpt>
      <trkpt lat="43.32522" lon="2.58579">
        <ele>185.26699829102</ele>
        <time>2017-07-29T06:31:14Z</time>
      </trkpt>
      <trkpt lat="43.32517" lon="2.58575">
        <ele>184.26699829102</ele>
        <time>2017-07-29T06:31:17Z</time>
      </trkpt>
      <trkpt lat="43.32515" lon="2.58568">
        <ele>183.26699829102</ele>
        <time>2017-07-29T06:31:19Z</time>
      </trkpt>
      <trkpt lat="43.32515" lon="2.58562">
        <ele>184.26699829102</ele>
        <time>2017-07-29T06:31:21Z</time>
      </trkpt>
      <trkpt lat="43.32519" lon="2.58555">
        <ele>185.26699829102</ele>
        <time>2017-07-29T06:31:24Z</time>
      </trkpt>
      <trkpt lat="43.32522" lon="2.58548">
        <ele>186.26699829102</ele>
        <time>2017-07-29T06:31:27Z</time>
      </trkpt>
      <trkpt lat="43.32526" lon="2.58541">
        <ele>187.26699829102</ele>
        <time>2017-07-29T06:31:30Z</time>
      </trkpt>
      <trkpt lat="43.32529" lon="2.58533">
        <ele>190.26699829102</ele>
        <time>2017-07-29T06:31:33Z</time>
      </trkpt>
      <trkpt lat="43.32533" lon="2.58526">
        <ele>189.26699829102</ele>
        <time>2017-07-29T06:31:36Z</time>
      </trkpt>
      <trkpt lat="43.32537" lon="2.58517">
        <ele>190.26699829102</ele>
        <time>2017-07-29T06:31:39Z</time>
      </trkpt>
      <trkpt lat="43.32539" lon="2.58511">
        <ele>191.26699829102</ele>
        <time>2017-07-29T06:31:41Z</time>
      </trkpt>
      <trkpt lat="43.3254" lon="2.58504">
        <ele>195.26699829102</ele>
        <time>2017-07-29T06:31:44Z</time>
      </trkpt>
      <trkpt lat="43.32543" lon="2.58497">
        <ele>196.26699829102</ele>
        <time>2017-07-29T06:31:47Z</time>
      </trkpt>
      <trkpt lat="43.32548" lon="2.58493">
        <ele>196.26699829102</ele>
        <time>2017-07-29T06:31:50Z</time>
      </trkpt>
      <trkpt lat="43.32553" lon="2.58492">
        <ele>198.26699829102</ele>
        <time>2017-07-29T06:31:53Z</time>
      </trkpt>
      <trkpt lat="43.32558" lon="2.58487">
        <ele>198.26699829102</ele>
        <time>2017-07-29T06:31:57Z</time>
      </trkpt>
      <trkpt lat="43.32562" lon="2.58481">
        <ele>198.26699829102</ele>
        <time>2017-07-29T06:32:01Z</time>
      </trkpt>
      <trkpt lat="43.32567" lon="2.58477">
        <ele>197.26699829102</ele>
        <time>2017-07-29T06:32:04Z</time>
      </trkpt>
      <trkpt lat="43.32572" lon="2.58474">
        <ele>200.26699829102</ele>
        <time>2017-07-29T06:32:07Z</time>
      </trkpt>
      <trkpt lat="43.32576" lon="2.58471">
        <ele>199.26699829102</ele>
        <time>2017-07-29T06:32:10Z</time>
      </trkpt>
      <trkpt lat="43.32581" lon="2.58469">
        <ele>201.26699829102</ele>
        <time>2017-07-29T06:32:13Z</time>
      </trkpt>
      <trkpt lat="43.32586" lon="2.58466">
        <ele>199.26699829102</ele>
        <time>2017-07-29T06:32:17Z</time>
      </trkpt>
      <trkpt lat="43.3259" lon="2.58464">
        <ele>201.26699829102</ele>
        <time>2017-07-29T06:32:20Z</time>
      </trkpt>
      <trkpt lat="43.32597" lon="2.58461">
        <ele>201.26699829102</ele>
        <time>2017-07-29T06:32:23Z</time>
      </trkpt>
      <trkpt lat="43.32602" lon="2.58456">
        <ele>202.26699829102</ele>
        <time>2017-07-29T06:32:26Z</time>
      </trkpt>
      <trkpt lat="43.32605" lon="2.58451">
        <ele>204.26699829102</ele>
        <time>2017-07-29T06:32:28Z</time>
      </trkpt>
      <trkpt lat="43.3261" lon="2.58446">
        <ele>204.26699829102</ele>
        <time>2017-07-29T06:32:32Z</time>
      </trkpt>
      <trkpt lat="43.32614" lon="2.58441">
        <ele>207.26699829102</ele>
        <time>2017-07-29T06:32:35Z</time>
      </trkpt>
      <trkpt lat="43.32619" lon="2.58438">
        <ele>207.26699829102</ele>
        <time>2017-07-29T06:32:38Z</time>
      </trkpt>
      <trkpt lat="43.32624" lon="2.58435">
        <ele>208.26699829102</ele>
        <time>2017-07-29T06:32:41Z</time>
      </trkpt>
      <trkpt lat="43.32628" lon="2.58432">
        <ele>209.26699829102</ele>
        <time>2017-07-29T06:32:44Z</time>
      </trkpt>
      <trkpt lat="43.32633" lon="2.58428">
        <ele>210.26699829102</ele>
        <time>2017-07-29T06:32:47Z</time>
      </trkpt>
      <trkpt lat="43.32637" lon="2.58424">
        <ele>210.26699829102</ele>
        <time>2017-07-29T06:32:51Z</time>
      </trkpt>
      <trkpt lat="43.32642" lon="2.5842">
        <ele>210.26699829102</ele>
        <time>2017-07-29T06:32:54Z</time>
      </trkpt>
      <trkpt lat="43.32647" lon="2.58416">
        <ele>210.26699829102</ele>
        <time>2017-07-29T06:32:58Z</time>
      </trkpt>
      <trkpt lat="43.32652" lon="2.58411">
        <ele>211.26699829102</ele>
        <time>2017-07-29T06:33:01Z</time>
      </trkpt>
      <trkpt lat="43.32656" lon="2.58407">
        <ele>213.26699829102</ele>
        <time>2017-07-29T06:33:04Z</time>
      </trkpt>
      <trkpt lat="43.32661" lon="2.58402">
        <ele>213.26699829102</ele>
        <time>2017-07-29T06:33:07Z</time>
      </trkpt>
      <trkpt lat="43.32665" lon="2.58398">
        <ele>213.26699829102</ele>
        <time>2017-07-29T06:33:10Z</time>
      </trkpt>
      <trkpt lat="43.32669" lon="2.58393">
        <ele>214.26699829102</ele>
        <time>2017-07-29T06:33:13Z</time>
      </trkpt>
      <trkpt lat="43.32673" lon="2.58388">
        <ele>214.26699829102</ele>
        <time>2017-07-29T06:33:16Z</time>
      </trkpt>
      <trkpt lat="43.32678" lon="2.58382">
        <ele>214.26699829102</ele>
        <time>2017-07-29T06:33:19Z</time>
      </trkpt>
      <trkpt lat="43.32681" lon="2.58378">
        <ele>216.26699829102</ele>
        <time>2017-07-29T06:33:21Z</time>
      </trkpt>
      <trkpt lat="43.32686" lon="2.58372">
        <ele>216.26699829102</ele>
        <time>2017-07-29T06:33:24Z</time>
      </trkpt>
      <trkpt lat="43.32689" lon="2.58367">
        <ele>215.26699829102</ele>
        <time>2017-07-29T06:33:26Z</time>
      </trkpt>
      <trkpt lat="43.32693" lon="2.58362">
        <ele>216.26699829102</ele>
        <time>2017-07-29T06:33:29Z</time>
      </trkpt>
      <trkpt lat="43.32697" lon="2.58356">
        <ele>216.26699829102</ele>
        <time>2017-07-29T06:33:32Z</time>
      </trkpt>
      <trkpt lat="43.32703" lon="2.58354">
        <ele>217.26699829102</ele>
        <time>2017-07-29T06:33:35Z</time>
      </trkpt>
      <trkpt lat="43.32706" lon="2.58349">
        <ele>216.26699829102</ele>
        <time>2017-07-29T06:33:38Z</time>
      </trkpt>
      <trkpt lat="43.32708" lon="2.58341">
        <ele>217.26699829102</ele>
        <time>2017-07-29T06:33:41Z</time>
      </trkpt>
      <trkpt lat="43.3271" lon="2.58334">
        <ele>218.26699829102</ele>
        <time>2017-07-29T06:33:43Z</time>
      </trkpt>
      <trkpt lat="43.32711" lon="2.58326">
        <ele>218.26699829102</ele>
        <time>2017-07-29T06:33:46Z</time>
      </trkpt>
      <trkpt lat="43.32711" lon="2.58318">
        <ele>219.26699829102</ele>
        <time>2017-07-29T06:33:49Z</time>
      </trkpt>
      <trkpt lat="43.32713" lon="2.58311">
        <ele>218.26699829102</ele>
        <time>2017-07-29T06:33:52Z</time>
      </trkpt>
      <trkpt lat="43.32716" lon="2.58305">
        <ele>218.26699829102</ele>
        <time>2017-07-29T06:33:55Z</time>
      </trkpt>
      <trkpt lat="43.32718" lon="2.5831">
        <ele>221.26699829102</ele>
        <time>2017-07-29T06:34:02Z</time>
      </trkpt>
      <trkpt lat="43.32716" lon="2.58304">
        <ele>220.26699829102</ele>
        <time>2017-07-29T06:34:10Z</time>
      </trkpt>
      <trkpt lat="43.3272" lon="2.58301">
        <ele>218.26699829102</ele>
        <time>2017-07-29T06:34:21Z</time>
      </trkpt>
      <trkpt lat="43.32725" lon="2.583">
        <ele>219.26699829102</ele>
        <time>2017-07-29T06:34:23Z</time>
      </trkpt>
      <trkpt lat="43.3273" lon="2.58298">
        <ele>221.26699829102</ele>
        <time>2017-07-29T06:34:25Z</time>
      </trkpt>
      <trkpt lat="43.32736" lon="2.58294">
        <ele>223.26699829102</ele>
        <time>2017-07-29T06:34:28Z</time>
      </trkpt>
      <trkpt lat="43.32741" lon="2.58289">
        <ele>225.26699829102</ele>
        <time>2017-07-29T06:34:31Z</time>
      </trkpt>
      <trkpt lat="43.32745" lon="2.58285">
        <ele>226.26699829102</ele>
        <time>2017-07-29T06:34:33Z</time>
      </trkpt>
      <trkpt lat="43.32749" lon="2.58283">
        <ele>227.26699829102</ele>
        <time>2017-07-29T06:34:35Z</time>
      </trkpt>
      <trkpt lat="43.32755" lon="2.58282">
        <ele>228.26699829102</ele>
        <time>2017-07-29T06:34:38Z</time>
      </trkpt>
      <trkpt lat="43.32761" lon="2.58282">
        <ele>227.26699829102</ele>
        <time>2017-07-29T06:34:40Z</time>
      </trkpt>
      <trkpt lat="43.32767" lon="2.5828">
        <ele>227.26699829102</ele>
        <time>2017-07-29T06:34:42Z</time>
      </trkpt>
      <trkpt lat="43.32773" lon="2.58276">
        <ele>226.26699829102</ele>
        <time>2017-07-29T06:34:44Z</time>
      </trkpt>
      <trkpt lat="43.32778" lon="2.58272">
        <ele>226.26699829102</ele>
        <time>2017-07-29T06:34:46Z</time>
      </trkpt>
      <trkpt lat="43.32784" lon="2.5827">
        <ele>227.26699829102</ele>
        <time>2017-07-29T06:34:48Z</time>
      </trkpt>
      <trkpt lat="43.32786" lon="2.58263">
        <ele>227.26699829102</ele>
        <time>2017-07-29T06:34:51Z</time>
      </trkpt>
      <trkpt lat="43.32787" lon="2.58255">
        <ele>228.26699829102</ele>
        <time>2017-07-29T06:34:54Z</time>
      </trkpt>
      <trkpt lat="43.32788" lon="2.58248">
        <ele>228.26699829102</ele>
        <time>2017-07-29T06:34:56Z</time>
      </trkpt>
      <trkpt lat="43.32788" lon="2.58241">
        <ele>228.26699829102</ele>
        <time>2017-07-29T06:34:58Z</time>
      </trkpt>
      <trkpt lat="43.32786" lon="2.58232">
        <ele>227.26699829102</ele>
        <time>2017-07-29T06:35:00Z</time>
      </trkpt>
      <trkpt lat="43.32786" lon="2.58225">
        <ele>227.26699829102</ele>
        <time>2017-07-29T06:35:02Z</time>
      </trkpt>
      <trkpt lat="43.32786" lon="2.58218">
        <ele>227.26699829102</ele>
        <time>2017-07-29T06:35:04Z</time>
      </trkpt>
      <trkpt lat="43.32786" lon="2.58212">
        <ele>227.26699829102</ele>
        <time>2017-07-29T06:35:06Z</time>
      </trkpt>
      <trkpt lat="43.32786" lon="2.58205">
        <ele>228.26699829102</ele>
        <time>2017-07-29T06:35:08Z</time>
      </trkpt>
      <trkpt lat="43.32786" lon="2.58197">
        <ele>227.26699829102</ele>
        <time>2017-07-29T06:35:10Z</time>
      </trkpt>
      <trkpt lat="43.32786" lon="2.58189">
        <ele>226.26699829102</ele>
        <time>2017-07-29T06:35:13Z</time>
      </trkpt>
      <trkpt lat="43.32785" lon="2.58182">
        <ele>227.26699829102</ele>
        <time>2017-07-29T06:35:15Z</time>
      </trkpt>
      <trkpt lat="43.32785" lon="2.58175">
        <ele>227.26699829102</ele>
        <time>2017-07-29T06:35:17Z</time>
      </trkpt>
      <trkpt lat="43.32787" lon="2.58167">
        <ele>228.26699829102</ele>
        <time>2017-07-29T06:35:20Z</time>
      </trkpt>
      <trkpt lat="43.32788" lon="2.5816">
        <ele>229.26699829102</ele>
        <time>2017-07-29T06:35:22Z</time>
      </trkpt>
      <trkpt lat="43.32788" lon="2.58154">
        <ele>231.26699829102</ele>
        <time>2017-07-29T06:35:24Z</time>
      </trkpt>
      <trkpt lat="43.32789" lon="2.58145">
        <ele>233.26699829102</ele>
        <time>2017-07-29T06:35:27Z</time>
      </trkpt>
      <trkpt lat="43.32794" lon="2.58141">
        <ele>235.26699829102</ele>
        <time>2017-07-29T06:35:30Z</time>
      </trkpt>
      <trkpt lat="43.328" lon="2.58139">
        <ele>236.26699829102</ele>
        <time>2017-07-29T06:35:33Z</time>
      </trkpt>
      <trkpt lat="43.32805" lon="2.58137">
        <ele>236.26699829102</ele>
        <time>2017-07-29T06:35:36Z</time>
      </trkpt>
      <trkpt lat="43.32811" lon="2.58138">
        <ele>237.26699829102</ele>
        <time>2017-07-29T06:35:39Z</time>
      </trkpt>
      <trkpt lat="43.32816" lon="2.58141">
        <ele>238.26699829102</ele>
        <time>2017-07-29T06:35:42Z</time>
      </trkpt>
      <trkpt lat="43.32822" lon="2.58142">
        <ele>238.26699829102</ele>
        <time>2017-07-29T06:35:45Z</time>
      </trkpt>
      <trkpt lat="43.32827" lon="2.58144">
        <ele>239.26699829102</ele>
        <time>2017-07-29T06:35:48Z</time>
      </trkpt>
      <trkpt lat="43.32832" lon="2.58144">
        <ele>240.26699829102</ele>
        <time>2017-07-29T06:35:51Z</time>
      </trkpt>
      <trkpt lat="43.32837" lon="2.58145">
        <ele>241.26699829102</ele>
        <time>2017-07-29T06:35:54Z</time>
      </trkpt>
      <trkpt lat="43.32842" lon="2.58145">
        <ele>241.26699829102</ele>
        <time>2017-07-29T06:35:57Z</time>
      </trkpt>
      <trkpt lat="43.32847" lon="2.58144">
        <ele>242.26699829102</ele>
        <time>2017-07-29T06:36:00Z</time>
      </trkpt>
      <trkpt lat="43.32852" lon="2.58143">
        <ele>242.26699829102</ele>
        <time>2017-07-29T06:36:03Z</time>
      </trkpt>
      <trkpt lat="43.32856" lon="2.5814">
        <ele>243.26699829102</ele>
        <time>2017-07-29T06:36:06Z</time>
      </trkpt>
      <trkpt lat="43.32861" lon="2.58136">
        <ele>244.26699829102</ele>
        <time>2017-07-29T06:36:09Z</time>
      </trkpt>
      <trkpt lat="43.32865" lon="2.58134">
        <ele>245.26699829102</ele>
        <time>2017-07-29T06:36:12Z</time>
      </trkpt>
      <trkpt lat="43.3287" lon="2.58131">
        <ele>247.26699829102</ele>
        <time>2017-07-29T06:36:15Z</time>
      </trkpt>
      <trkpt lat="43.32875" lon="2.58128">
        <ele>248.26699829102</ele>
        <time>2017-07-29T06:36:18Z</time>
      </trkpt>
      <trkpt lat="43.32879" lon="2.58124">
        <ele>248.26699829102</ele>
        <time>2017-07-29T06:36:21Z</time>
      </trkpt>
      <trkpt lat="43.32884" lon="2.5812">
        <ele>248.26699829102</ele>
        <time>2017-07-29T06:36:24Z</time>
      </trkpt>
      <trkpt lat="43.32888" lon="2.58118">
        <ele>250.26699829102</ele>
        <time>2017-07-29T06:36:27Z</time>
      </trkpt>
      <trkpt lat="43.32894" lon="2.58116">
        <ele>251.26699829102</ele>
        <time>2017-07-29T06:36:31Z</time>
      </trkpt>
      <trkpt lat="43.32899" lon="2.58114">
        <ele>251.26699829102</ele>
        <time>2017-07-29T06:36:34Z</time>
      </trkpt>
      <trkpt lat="43.32904" lon="2.58113">
        <ele>252.26699829102</ele>
        <time>2017-07-29T06:36:37Z</time>
      </trkpt>
      <trkpt lat="43.32909" lon="2.58112">
        <ele>253.26699829102</ele>
        <time>2017-07-29T06:36:40Z</time>
      </trkpt>
      <trkpt lat="43.32914" lon="2.5811">
        <ele>252.26699829102</ele>
        <time>2017-07-29T06:36:43Z</time>
      </trkpt>
      <trkpt lat="43.3292" lon="2.58108">
        <ele>251.26699829102</ele>
        <time>2017-07-29T06:36:46Z</time>
      </trkpt>
      <trkpt lat="43.32924" lon="2.58106">
        <ele>251.26699829102</ele>
        <time>2017-07-29T06:36:48Z</time>
      </trkpt>
      <trkpt lat="43.32931" lon="2.58105">
        <ele>250.26699829102</ele>
        <time>2017-07-29T06:36:50Z</time>
      </trkpt>
      <trkpt lat="43.32938" lon="2.58102">
        <ele>251.26699829102</ele>
        <time>2017-07-29T06:36:52Z</time>
      </trkpt>
      <trkpt lat="43.32944" lon="2.58101">
        <ele>249.26699829102</ele>
        <time>2017-07-29T06:36:54Z</time>
      </trkpt>
      <trkpt lat="43.3295" lon="2.581">
        <ele>249.26699829102</ele>
        <time>2017-07-29T06:36:56Z</time>
      </trkpt>
      <trkpt lat="43.32955" lon="2.58097">
        <ele>249.26699829102</ele>
        <time>2017-07-29T06:36:58Z</time>
      </trkpt>
      <trkpt lat="43.3296" lon="2.58095">
        <ele>249.26800537109</ele>
        <time>2017-07-29T06:37:00Z</time>
      </trkpt>
      <trkpt lat="43.32964" lon="2.58092">
        <ele>250.26800537109</ele>
        <time>2017-07-29T06:37:02Z</time>
      </trkpt>
      <trkpt lat="43.32969" lon="2.58089">
        <ele>250.26800537109</ele>
        <time>2017-07-29T06:37:05Z</time>
      </trkpt>
      <trkpt lat="43.32973" lon="2.58086">
        <ele>251.26800537109</ele>
        <time>2017-07-29T06:37:08Z</time>
      </trkpt>
      <trkpt lat="43.32979" lon="2.58083">
        <ele>253.26800537109</ele>
        <time>2017-07-29T06:37:11Z</time>
      </trkpt>
      <trkpt lat="43.32984" lon="2.5808">
        <ele>253.26800537109</ele>
        <time>2017-07-29T06:37:14Z</time>
      </trkpt>
      <trkpt lat="43.32989" lon="2.58077">
        <ele>254.26800537109</ele>
        <time>2017-07-29T06:37:17Z</time>
      </trkpt>
      <trkpt lat="43.32995" lon="2.58076">
        <ele>255.26800537109</ele>
        <time>2017-07-29T06:37:20Z</time>
      </trkpt>
      <trkpt lat="43.33001" lon="2.58075">
        <ele>256.26800537109</ele>
        <time>2017-07-29T06:37:23Z</time>
      </trkpt>
      <trkpt lat="43.33007" lon="2.58072">
        <ele>257.26800537109</ele>
        <time>2017-07-29T06:37:26Z</time>
      </trkpt>
      <trkpt lat="43.33012" lon="2.5807">
        <ele>258.26800537109</ele>
        <time>2017-07-29T06:37:29Z</time>
      </trkpt>
      <trkpt lat="43.33016" lon="2.58067">
        <ele>258.26800537109</ele>
        <time>2017-07-29T06:37:33Z</time>
      </trkpt>
      <trkpt lat="43.33021" lon="2.58064">
        <ele>260.26800537109</ele>
        <time>2017-07-29T06:37:37Z</time>
      </trkpt>
      <trkpt lat="43.33026" lon="2.58061">
        <ele>262.26800537109</ele>
        <time>2017-07-29T06:37:41Z</time>
      </trkpt>
      <trkpt lat="43.3303" lon="2.58059">
        <ele>262.26800537109</ele>
        <time>2017-07-29T06:37:45Z</time>
      </trkpt>
      <trkpt lat="43.33035" lon="2.58056">
        <ele>263.26800537109</ele>
        <time>2017-07-29T06:37:50Z</time>
      </trkpt>
      <trkpt lat="43.3304" lon="2.58056">
        <ele>264.26800537109</ele>
        <time>2017-07-29T06:37:55Z</time>
      </trkpt>
      <trkpt lat="43.33045" lon="2.58053">
        <ele>265.26800537109</ele>
        <time>2017-07-29T06:38:00Z</time>
      </trkpt>
      <trkpt lat="43.3305" lon="2.58053">
        <ele>266.26800537109</ele>
        <time>2017-07-29T06:38:04Z</time>
      </trkpt>
      <trkpt lat="43.33056" lon="2.58052">
        <ele>267.26800537109</ele>
        <time>2017-07-29T06:38:09Z</time>
      </trkpt>
      <trkpt lat="43.33062" lon="2.58052">
        <ele>268.26800537109</ele>
        <time>2017-07-29T06:38:14Z</time>
      </trkpt>
      <trkpt lat="43.33066" lon="2.58053">
        <ele>269.26800537109</ele>
        <time>2017-07-29T06:38:18Z</time>
      </trkpt>
      <trkpt lat="43.33071" lon="2.58053">
        <ele>270.26800537109</ele>
        <time>2017-07-29T06:38:22Z</time>
      </trkpt>
      <trkpt lat="43.33076" lon="2.58053">
        <ele>271.26800537109</ele>
        <time>2017-07-29T06:38:27Z</time>
      </trkpt>
      <trkpt lat="43.33081" lon="2.58053">
        <ele>271.26800537109</ele>
        <time>2017-07-29T06:38:32Z</time>
      </trkpt>
      <trkpt lat="43.33087" lon="2.58053">
        <ele>272.26800537109</ele>
        <time>2017-07-29T06:38:37Z</time>
      </trkpt>
      <trkpt lat="43.33092" lon="2.58054">
        <ele>273.26800537109</ele>
        <time>2017-07-29T06:38:42Z</time>
      </trkpt>
      <trkpt lat="43.33097" lon="2.58054">
        <ele>274.26800537109</ele>
        <time>2017-07-29T06:38:47Z</time>
      </trkpt>
      <trkpt lat="43.33102" lon="2.58055">
        <ele>274.26800537109</ele>
        <time>2017-07-29T06:38:51Z</time>
      </trkpt>
      <trkpt lat="43.33108" lon="2.58056">
        <ele>274.26800537109</ele>
        <time>2017-07-29T06:38:56Z</time>
      </trkpt>
      <trkpt lat="43.33113" lon="2.58057">
        <ele>276.26800537109</ele>
        <time>2017-07-29T06:39:01Z</time>
      </trkpt>
      <trkpt lat="43.33117" lon="2.58059">
        <ele>277.26800537109</ele>
        <time>2017-07-29T06:39:05Z</time>
      </trkpt>
      <trkpt lat="43.33123" lon="2.58062">
        <ele>277.26800537109</ele>
        <time>2017-07-29T06:39:10Z</time>
      </trkpt>
      <trkpt lat="43.33128" lon="2.58063">
        <ele>278.26800537109</ele>
        <time>2017-07-29T06:39:15Z</time>
      </trkpt>
      <trkpt lat="43.33132" lon="2.58063">
        <ele>279.26800537109</ele>
        <time>2017-07-29T06:39:19Z</time>
      </trkpt>
      <trkpt lat="43.33137" lon="2.58063">
        <ele>279.26800537109</ele>
        <time>2017-07-29T06:39:23Z</time>
      </trkpt>
      <trkpt lat="43.33142" lon="2.58065">
        <ele>279.26800537109</ele>
        <time>2017-07-29T06:39:28Z</time>
      </trkpt>
      <trkpt lat="43.33146" lon="2.58067">
        <ele>280.26800537109</ele>
        <time>2017-07-29T06:39:32Z</time>
      </trkpt>
      <trkpt lat="43.33151" lon="2.58069">
        <ele>281.26800537109</ele>
        <time>2017-07-29T06:39:36Z</time>
      </trkpt>
      <trkpt lat="43.33156" lon="2.58069">
        <ele>282.26800537109</ele>
        <time>2017-07-29T06:39:41Z</time>
      </trkpt>
      <trkpt lat="43.3316" lon="2.58066">
        <ele>284.26800537109</ele>
        <time>2017-07-29T06:39:45Z</time>
      </trkpt>
      <trkpt lat="43.33164" lon="2.58062">
        <ele>285.26800537109</ele>
        <time>2017-07-29T06:39:50Z</time>
      </trkpt>
      <trkpt lat="43.33168" lon="2.58059">
        <ele>287.26800537109</ele>
        <time>2017-07-29T06:39:59Z</time>
      </trkpt>
      <trkpt lat="43.33173" lon="2.58057">
        <ele>286.26800537109</ele>
        <time>2017-07-29T06:40:02Z</time>
      </trkpt>
      <trkpt lat="43.33178" lon="2.58054">
        <ele>286.26800537109</ele>
        <time>2017-07-29T06:40:04Z</time>
      </trkpt>
      <trkpt lat="43.33183" lon="2.58048">
        <ele>285.26800537109</ele>
        <time>2017-07-29T06:40:06Z</time>
      </trkpt>
      <trkpt lat="43.33188" lon="2.58046">
        <ele>284.26800537109</ele>
        <time>2017-07-29T06:40:08Z</time>
      </trkpt>
      <trkpt lat="43.33193" lon="2.58049">
        <ele>287.26800537109</ele>
        <time>2017-07-29T06:40:10Z</time>
      </trkpt>
      <trkpt lat="43.33196" lon="2.58054">
        <ele>287.26800537109</ele>
        <time>2017-07-29T06:40:12Z</time>
      </trkpt>
      <trkpt lat="43.332" lon="2.58059">
        <ele>289.26800537109</ele>
        <time>2017-07-29T06:40:15Z</time>
      </trkpt>
      <trkpt lat="43.33205" lon="2.58065">
        <ele>290.26800537109</ele>
        <time>2017-07-29T06:40:18Z</time>
      </trkpt>
      <trkpt lat="43.33209" lon="2.5807">
        <ele>291.26800537109</ele>
        <time>2017-07-29T06:40:21Z</time>
      </trkpt>
      <trkpt lat="43.33213" lon="2.58074">
        <ele>291.26800537109</ele>
        <time>2017-07-29T06:40:23Z</time>
      </trkpt>
      <trkpt lat="43.33218" lon="2.58079">
        <ele>291.26800537109</ele>
        <time>2017-07-29T06:40:26Z</time>
      </trkpt>
      <trkpt lat="43.33223" lon="2.58081">
        <ele>291.26800537109</ele>
        <time>2017-07-29T06:40:29Z</time>
      </trkpt>
      <trkpt lat="43.33229" lon="2.58082">
        <ele>292.26800537109</ele>
        <time>2017-07-29T06:40:32Z</time>
      </trkpt>
      <trkpt lat="43.33234" lon="2.5808">
        <ele>293.26800537109</ele>
        <time>2017-07-29T06:40:36Z</time>
      </trkpt>
      <trkpt lat="43.33239" lon="2.58077">
        <ele>294.26800537109</ele>
        <time>2017-07-29T06:40:41Z</time>
      </trkpt>
      <trkpt lat="43.33245" lon="2.58075">
        <ele>295.26901245117</ele>
        <time>2017-07-29T06:40:45Z</time>
      </trkpt>
      <trkpt lat="43.33249" lon="2.58073">
        <ele>297.26901245117</ele>
        <time>2017-07-29T06:40:49Z</time>
      </trkpt>
      <trkpt lat="43.33254" lon="2.58072">
        <ele>297.26901245117</ele>
        <time>2017-07-29T06:40:53Z</time>
      </trkpt>
      <trkpt lat="43.33258" lon="2.58074">
        <ele>299.26901245117</ele>
        <time>2017-07-29T06:40:57Z</time>
      </trkpt>
      <trkpt lat="43.33263" lon="2.58075">
        <ele>300.26901245117</ele>
        <time>2017-07-29T06:41:01Z</time>
      </trkpt>
      <trkpt lat="43.33268" lon="2.58077">
        <ele>300.26901245117</ele>
        <time>2017-07-29T06:41:05Z</time>
      </trkpt>
      <trkpt lat="43.33274" lon="2.58078">
        <ele>302.26901245117</ele>
        <time>2017-07-29T06:41:10Z</time>
      </trkpt>
      <trkpt lat="43.33278" lon="2.5808">
        <ele>302.26901245117</ele>
        <time>2017-07-29T06:41:14Z</time>
      </trkpt>
      <trkpt lat="43.33283" lon="2.58083">
        <ele>303.26901245117</ele>
        <time>2017-07-29T06:41:18Z</time>
      </trkpt>
      <trkpt lat="43.33287" lon="2.58087">
        <ele>304.26901245117</ele>
        <time>2017-07-29T06:41:23Z</time>
      </trkpt>
      <trkpt lat="43.33292" lon="2.58091">
        <ele>304.26901245117</ele>
        <time>2017-07-29T06:41:27Z</time>
      </trkpt>
      <trkpt lat="43.33297" lon="2.58093">
        <ele>305.26901245117</ele>
        <time>2017-07-29T06:41:31Z</time>
      </trkpt>
      <trkpt lat="43.33301" lon="2.58097">
        <ele>307.26901245117</ele>
        <time>2017-07-29T06:41:35Z</time>
      </trkpt>
      <trkpt lat="43.33306" lon="2.58101">
        <ele>308.26901245117</ele>
        <time>2017-07-29T06:41:39Z</time>
      </trkpt>
      <trkpt lat="43.33309" lon="2.58105">
        <ele>309.26901245117</ele>
        <time>2017-07-29T06:41:43Z</time>
      </trkpt>
      <trkpt lat="43.33314" lon="2.58109">
        <ele>310.26901245117</ele>
        <time>2017-07-29T06:41:47Z</time>
      </trkpt>
      <trkpt lat="43.33318" lon="2.58111">
        <ele>311.26901245117</ele>
        <time>2017-07-29T06:41:51Z</time>
      </trkpt>
      <trkpt lat="43.33323" lon="2.58115">
        <ele>311.26901245117</ele>
        <time>2017-07-29T06:41:56Z</time>
      </trkpt>
      <trkpt lat="43.33327" lon="2.58119">
        <ele>311.26901245117</ele>
        <time>2017-07-29T06:42:00Z</time>
      </trkpt>
      <trkpt lat="43.33332" lon="2.58119">
        <ele>312.26901245117</ele>
        <time>2017-07-29T06:42:04Z</time>
      </trkpt>
      <trkpt lat="43.33336" lon="2.58117">
        <ele>313.26901245117</ele>
        <time>2017-07-29T06:42:08Z</time>
      </trkpt>
      <trkpt lat="43.33342" lon="2.58117">
        <ele>314.26901245117</ele>
        <time>2017-07-29T06:42:13Z</time>
      </trkpt>
      <trkpt lat="43.33347" lon="2.58119">
        <ele>315.26901245117</ele>
        <time>2017-07-29T06:42:17Z</time>
      </trkpt>
      <trkpt lat="43.33352" lon="2.58122">
        <ele>315.26901245117</ele>
        <time>2017-07-29T06:42:21Z</time>
      </trkpt>
      <trkpt lat="43.33357" lon="2.58125">
        <ele>315.26901245117</ele>
        <time>2017-07-29T06:42:25Z</time>
      </trkpt>
      <trkpt lat="43.33361" lon="2.58129">
        <ele>316.26901245117</ele>
        <time>2017-07-29T06:42:29Z</time>
      </trkpt>
      <trkpt lat="43.33366" lon="2.58132">
        <ele>316.26901245117</ele>
        <time>2017-07-29T06:42:33Z</time>
      </trkpt>
      <trkpt lat="43.33371" lon="2.58135">
        <ele>317.26901245117</ele>
        <time>2017-07-29T06:42:37Z</time>
      </trkpt>
      <trkpt lat="43.33375" lon="2.58136">
        <ele>318.26901245117</ele>
        <time>2017-07-29T06:42:41Z</time>
      </trkpt>
      <trkpt lat="43.3338" lon="2.58137">
        <ele>318.26901245117</ele>
        <time>2017-07-29T06:42:44Z</time>
      </trkpt>
      <trkpt lat="43.33385" lon="2.58138">
        <ele>320.26901245117</ele>
        <time>2017-07-29T06:42:46Z</time>
      </trkpt>
      <trkpt lat="43.3339" lon="2.58138">
        <ele>321.26901245117</ele>
        <time>2017-07-29T06:42:48Z</time>
      </trkpt>
      <trkpt lat="43.33395" lon="2.58137">
        <ele>322.26901245117</ele>
        <time>2017-07-29T06:42:50Z</time>
      </trkpt>
      <trkpt lat="43.334" lon="2.58138">
        <ele>322.26901245117</ele>
        <time>2017-07-29T06:42:52Z</time>
      </trkpt>
      <trkpt lat="43.33405" lon="2.58139">
        <ele>324.26901245117</ele>
        <time>2017-07-29T06:42:54Z</time>
      </trkpt>
      <trkpt lat="43.3341" lon="2.58141">
        <ele>324.26901245117</ele>
        <time>2017-07-29T06:42:56Z</time>
      </trkpt>
      <trkpt lat="43.33415" lon="2.58143">
        <ele>324.26901245117</ele>
        <time>2017-07-29T06:42:58Z</time>
      </trkpt>
      <trkpt lat="43.33419" lon="2.58144">
        <ele>325.26901245117</ele>
        <time>2017-07-29T06:43:00Z</time>
      </trkpt>
      <trkpt lat="43.33424" lon="2.58148">
        <ele>325.26901245117</ele>
        <time>2017-07-29T06:43:02Z</time>
      </trkpt>
      <trkpt lat="43.33429" lon="2.58152">
        <ele>326.26901245117</ele>
        <time>2017-07-29T06:43:04Z</time>
      </trkpt>
      <trkpt lat="43.33433" lon="2.58156">
        <ele>326.26901245117</ele>
        <time>2017-07-29T06:43:07Z</time>
      </trkpt>
      <trkpt lat="43.33438" lon="2.5816">
        <ele>326.26901245117</ele>
        <time>2017-07-29T06:43:11Z</time>
      </trkpt>
      <trkpt lat="43.33443" lon="2.58161">
        <ele>327.26901245117</ele>
        <time>2017-07-29T06:43:15Z</time>
      </trkpt>
      <trkpt lat="43.33448" lon="2.5816">
        <ele>327.26901245117</ele>
        <time>2017-07-29T06:43:20Z</time>
      </trkpt>
      <trkpt lat="43.33451" lon="2.58156">
        <ele>327.26901245117</ele>
        <time>2017-07-29T06:43:24Z</time>
      </trkpt>
      <trkpt lat="43.33453" lon="2.58149">
        <ele>328.26901245117</ele>
        <time>2017-07-29T06:43:31Z</time>
      </trkpt>
      <trkpt lat="43.33455" lon="2.58143">
        <ele>330.26901245117</ele>
        <time>2017-07-29T06:43:37Z</time>
      </trkpt>
      <trkpt lat="43.33455" lon="2.58136">
        <ele>330.26901245117</ele>
        <time>2017-07-29T06:43:42Z</time>
      </trkpt>
      <trkpt lat="43.33455" lon="2.58128">
        <ele>330.26901245117</ele>
        <time>2017-07-29T06:43:46Z</time>
      </trkpt>
      <trkpt lat="43.33459" lon="2.58123">
        <ele>330.26901245117</ele>
        <time>2017-07-29T06:43:50Z</time>
      </trkpt>
      <trkpt lat="43.33463" lon="2.5812">
        <ele>330.26901245117</ele>
        <time>2017-07-29T06:43:53Z</time>
      </trkpt>
      <trkpt lat="43.33467" lon="2.58116">
        <ele>328.26901245117</ele>
        <time>2017-07-29T06:44:00Z</time>
      </trkpt>
      <trkpt lat="43.3347" lon="2.58121">
        <ele>326.26901245117</ele>
        <time>2017-07-29T06:44:21Z</time>
      </trkpt>
      <trkpt lat="43.33475" lon="2.58123">
        <ele>325.26901245117</ele>
        <time>2017-07-29T06:44:35Z</time>
      </trkpt>
      <trkpt lat="43.33479" lon="2.58121">
        <ele>325.26901245117</ele>
        <time>2017-07-29T06:44:45Z</time>
      </trkpt>
      <trkpt lat="43.33484" lon="2.58121">
        <ele>325.26998901367</ele>
        <time>2017-07-29T06:44:52Z</time>
      </trkpt>
      <trkpt lat="43.33488" lon="2.5812">
        <ele>323.26998901367</ele>
        <time>2017-07-29T06:45:03Z</time>
      </trkpt>
      <trkpt lat="43.33492" lon="2.58114">
        <ele>320.26998901367</ele>
        <time>2017-07-29T06:45:16Z</time>
      </trkpt>
      <trkpt lat="43.33494" lon="2.58108">
        <ele>319.26998901367</ele>
        <time>2017-07-29T06:45:18Z</time>
      </trkpt>
      <trkpt lat="43.33494" lon="2.58098">
        <ele>317.26901245117</ele>
        <time>2017-07-29T06:45:21Z</time>
      </trkpt>
      <trkpt lat="43.33497" lon="2.58092">
        <ele>317.26901245117</ele>
        <time>2017-07-29T06:45:23Z</time>
      </trkpt>
      <trkpt lat="43.33501" lon="2.58086">
        <ele>316.26901245117</ele>
        <time>2017-07-29T06:45:25Z</time>
      </trkpt>
      <trkpt lat="43.33505" lon="2.58079">
        <ele>316.26901245117</ele>
        <time>2017-07-29T06:45:27Z</time>
      </trkpt>
      <trkpt lat="43.33509" lon="2.58076">
        <ele>317.26901245117</ele>
        <time>2017-07-29T06:45:29Z</time>
      </trkpt>
      <trkpt lat="43.33514" lon="2.58074">
        <ele>317.26998901367</ele>
        <time>2017-07-29T06:45:31Z</time>
      </trkpt>
      <trkpt lat="43.33521" lon="2.58074">
        <ele>316.26998901367</ele>
        <time>2017-07-29T06:45:33Z</time>
      </trkpt>
      <trkpt lat="43.33526" lon="2.58073">
        <ele>316.26998901367</ele>
        <time>2017-07-29T06:45:35Z</time>
      </trkpt>
      <trkpt lat="43.33532" lon="2.58075">
        <ele>316.26998901367</ele>
        <time>2017-07-29T06:45:38Z</time>
      </trkpt>
      <trkpt lat="43.33539" lon="2.58074">
        <ele>315.26998901367</ele>
        <time>2017-07-29T06:45:40Z</time>
      </trkpt>
      <trkpt lat="43.33546" lon="2.58072">
        <ele>314.26998901367</ele>
        <time>2017-07-29T06:45:43Z</time>
      </trkpt>
      <trkpt lat="43.33552" lon="2.58068">
        <ele>314.26998901367</ele>
        <time>2017-07-29T06:45:45Z</time>
      </trkpt>
      <trkpt lat="43.33554" lon="2.58062">
        <ele>314.26998901367</ele>
        <time>2017-07-29T06:45:47Z</time>
      </trkpt>
      <trkpt lat="43.33556" lon="2.58053">
        <ele>313.26998901367</ele>
        <time>2017-07-29T06:45:49Z</time>
      </trkpt>
      <trkpt lat="43.33558" lon="2.58046">
        <ele>313.26998901367</ele>
        <time>2017-07-29T06:45:51Z</time>
      </trkpt>
      <trkpt lat="43.33558" lon="2.58038">
        <ele>312.26998901367</ele>
        <time>2017-07-29T06:45:53Z</time>
      </trkpt>
      <trkpt lat="43.3356" lon="2.58029">
        <ele>312.26998901367</ele>
        <time>2017-07-29T06:45:55Z</time>
      </trkpt>
      <trkpt lat="43.33561" lon="2.5802">
        <ele>313.26998901367</ele>
        <time>2017-07-29T06:45:57Z</time>
      </trkpt>
      <trkpt lat="43.33562" lon="2.58012">
        <ele>312.26998901367</ele>
        <time>2017-07-29T06:45:59Z</time>
      </trkpt>
      <trkpt lat="43.33565" lon="2.58004">
        <ele>312.26998901367</ele>
        <time>2017-07-29T06:46:02Z</time>
      </trkpt>
      <trkpt lat="43.33567" lon="2.57997">
        <ele>312.26998901367</ele>
        <time>2017-07-29T06:46:04Z</time>
      </trkpt>
      <trkpt lat="43.3357" lon="2.57989">
        <ele>312.26998901367</ele>
        <time>2017-07-29T06:46:06Z</time>
      </trkpt>
      <trkpt lat="43.33571" lon="2.57982">
        <ele>312.26998901367</ele>
        <time>2017-07-29T06:46:08Z</time>
      </trkpt>
      <trkpt lat="43.33573" lon="2.57975">
        <ele>311.26901245117</ele>
        <time>2017-07-29T06:46:10Z</time>
      </trkpt>
      <trkpt lat="43.33575" lon="2.57967">
        <ele>309.26901245117</ele>
        <time>2017-07-29T06:46:12Z</time>
      </trkpt>
      <trkpt lat="43.33577" lon="2.5796">
        <ele>308.26901245117</ele>
        <time>2017-07-29T06:46:14Z</time>
      </trkpt>
      <trkpt lat="43.33579" lon="2.57953">
        <ele>307.26901245117</ele>
        <time>2017-07-29T06:46:16Z</time>
      </trkpt>
      <trkpt lat="43.33581" lon="2.57945">
        <ele>307.26901245117</ele>
        <time>2017-07-29T06:46:18Z</time>
      </trkpt>
      <trkpt lat="43.33582" lon="2.57937">
        <ele>306.26901245117</ele>
        <time>2017-07-29T06:46:20Z</time>
      </trkpt>
      <trkpt lat="43.33583" lon="2.57928">
        <ele>306.26901245117</ele>
        <time>2017-07-29T06:46:22Z</time>
      </trkpt>
      <trkpt lat="43.33585" lon="2.57921">
        <ele>305.26901245117</ele>
        <time>2017-07-29T06:46:24Z</time>
      </trkpt>
      <trkpt lat="43.33587" lon="2.57914">
        <ele>305.26901245117</ele>
        <time>2017-07-29T06:46:26Z</time>
      </trkpt>
      <trkpt lat="43.33589" lon="2.57907">
        <ele>305.26901245117</ele>
        <time>2017-07-29T06:46:28Z</time>
      </trkpt>
      <trkpt lat="43.33591" lon="2.57901">
        <ele>306.26901245117</ele>
        <time>2017-07-29T06:46:30Z</time>
      </trkpt>
      <trkpt lat="43.33594" lon="2.57895">
        <ele>305.26901245117</ele>
        <time>2017-07-29T06:46:32Z</time>
      </trkpt>
      <trkpt lat="43.33596" lon="2.57888">
        <ele>305.26901245117</ele>
        <time>2017-07-29T06:46:34Z</time>
      </trkpt>
      <trkpt lat="43.33598" lon="2.57882">
        <ele>306.26901245117</ele>
        <time>2017-07-29T06:46:39Z</time>
      </trkpt>
      <trkpt lat="43.336" lon="2.57875">
        <ele>306.26901245117</ele>
        <time>2017-07-29T06:46:43Z</time>
      </trkpt>
      <trkpt lat="43.33602" lon="2.57868">
        <ele>307.26901245117</ele>
        <time>2017-07-29T06:46:45Z</time>
      </trkpt>
      <trkpt lat="43.33605" lon="2.57863">
        <ele>308.26901245117</ele>
        <time>2017-07-29T06:46:47Z</time>
      </trkpt>
      <trkpt lat="43.33606" lon="2.57856">
        <ele>307.26901245117</ele>
        <time>2017-07-29T06:46:49Z</time>
      </trkpt>
      <trkpt lat="43.33607" lon="2.57848">
        <ele>306.26901245117</ele>
        <time>2017-07-29T06:46:51Z</time>
      </trkpt>
      <trkpt lat="43.33609" lon="2.57841">
        <ele>306.26901245117</ele>
        <time>2017-07-29T06:46:53Z</time>
      </trkpt>
      <trkpt lat="43.33609" lon="2.57833">
        <ele>306.26901245117</ele>
        <time>2017-07-29T06:46:55Z</time>
      </trkpt>
      <trkpt lat="43.33609" lon="2.57827">
        <ele>306.26901245117</ele>
        <time>2017-07-29T06:46:57Z</time>
      </trkpt>
      <trkpt lat="43.3361" lon="2.57819">
        <ele>306.26901245117</ele>
        <time>2017-07-29T06:46:59Z</time>
      </trkpt>
      <trkpt lat="43.33611" lon="2.57811">
        <ele>306.26901245117</ele>
        <time>2017-07-29T06:47:01Z</time>
      </trkpt>
      <trkpt lat="43.33612" lon="2.57803">
        <ele>305.26901245117</ele>
        <time>2017-07-29T06:47:03Z</time>
      </trkpt>
      <trkpt lat="43.33613" lon="2.57795">
        <ele>305.26901245117</ele>
        <time>2017-07-29T06:47:05Z</time>
      </trkpt>
      <trkpt lat="43.33614" lon="2.57787">
        <ele>305.26901245117</ele>
        <time>2017-07-29T06:47:07Z</time>
      </trkpt>
      <trkpt lat="43.33615" lon="2.5778">
        <ele>305.26901245117</ele>
        <time>2017-07-29T06:47:09Z</time>
      </trkpt>
      <trkpt lat="43.33617" lon="2.57772">
        <ele>305.26901245117</ele>
        <time>2017-07-29T06:47:11Z</time>
      </trkpt>
      <trkpt lat="43.33619" lon="2.57766">
        <ele>305.26901245117</ele>
        <time>2017-07-29T06:47:13Z</time>
      </trkpt>
      <trkpt lat="43.33622" lon="2.57757">
        <ele>305.26901245117</ele>
        <time>2017-07-29T06:47:16Z</time>
      </trkpt>
      <trkpt lat="43.33624" lon="2.5775">
        <ele>306.26901245117</ele>
        <time>2017-07-29T06:47:18Z</time>
      </trkpt>
      <trkpt lat="43.33626" lon="2.57745">
        <ele>305.26901245117</ele>
        <time>2017-07-29T06:47:20Z</time>
      </trkpt>
      <trkpt lat="43.33628" lon="2.57737">
        <ele>304.26901245117</ele>
        <time>2017-07-29T06:47:22Z</time>
      </trkpt>
      <trkpt lat="43.33629" lon="2.5773">
        <ele>304.26901245117</ele>
        <time>2017-07-29T06:47:24Z</time>
      </trkpt>
      <trkpt lat="43.33631" lon="2.57721">
        <ele>303.26901245117</ele>
        <time>2017-07-29T06:47:26Z</time>
      </trkpt>
      <trkpt lat="43.3363" lon="2.57713">
        <ele>303.26901245117</ele>
        <time>2017-07-29T06:47:28Z</time>
      </trkpt>
      <trkpt lat="43.3363" lon="2.57703">
        <ele>301.26901245117</ele>
        <time>2017-07-29T06:47:30Z</time>
      </trkpt>
      <trkpt lat="43.33628" lon="2.57695">
        <ele>300.26901245117</ele>
        <time>2017-07-29T06:47:33Z</time>
      </trkpt>
      <trkpt lat="43.33626" lon="2.57687">
        <ele>300.26901245117</ele>
        <time>2017-07-29T06:47:36Z</time>
      </trkpt>
      <trkpt lat="43.33625" lon="2.57681">
        <ele>299.26901245117</ele>
        <time>2017-07-29T06:47:38Z</time>
      </trkpt>
      <trkpt lat="43.33624" lon="2.57673">
        <ele>301.26901245117</ele>
        <time>2017-07-29T06:47:40Z</time>
      </trkpt>
      <trkpt lat="43.33623" lon="2.57667">
        <ele>300.26901245117</ele>
        <time>2017-07-29T06:47:42Z</time>
      </trkpt>
      <trkpt lat="43.33622" lon="2.57659">
        <ele>300.26901245117</ele>
        <time>2017-07-29T06:47:44Z</time>
      </trkpt>
      <trkpt lat="43.33622" lon="2.57651">
        <ele>300.26901245117</ele>
        <time>2017-07-29T06:47:46Z</time>
      </trkpt>
      <trkpt lat="43.33623" lon="2.57643">
        <ele>300.26901245117</ele>
        <time>2017-07-29T06:47:48Z</time>
      </trkpt>
      <trkpt lat="43.33623" lon="2.57634">
        <ele>301.26901245117</ele>
        <time>2017-07-29T06:47:51Z</time>
      </trkpt>
      <trkpt lat="43.33624" lon="2.57626">
        <ele>304.26901245117</ele>
        <time>2017-07-29T06:47:53Z</time>
      </trkpt>
      <trkpt lat="43.33625" lon="2.5762">
        <ele>302.26901245117</ele>
        <time>2017-07-29T06:47:55Z</time>
      </trkpt>
      <trkpt lat="43.33627" lon="2.57613">
        <ele>301.26901245117</ele>
        <time>2017-07-29T06:47:57Z</time>
      </trkpt>
      <trkpt lat="43.3363" lon="2.57608">
        <ele>301.26901245117</ele>
        <time>2017-07-29T06:47:59Z</time>
      </trkpt>
      <trkpt lat="43.33631" lon="2.57601">
        <ele>302.26901245117</ele>
        <time>2017-07-29T06:48:01Z</time>
      </trkpt>
      <trkpt lat="43.33632" lon="2.57594">
        <ele>304.26901245117</ele>
        <time>2017-07-29T06:48:03Z</time>
      </trkpt>
      <trkpt lat="43.33635" lon="2.57588">
        <ele>303.26901245117</ele>
        <time>2017-07-29T06:48:05Z</time>
      </trkpt>
      <trkpt lat="43.33638" lon="2.57581">
        <ele>302.26901245117</ele>
        <time>2017-07-29T06:48:07Z</time>
      </trkpt>
      <trkpt lat="43.33639" lon="2.57575">
        <ele>301.26901245117</ele>
        <time>2017-07-29T06:48:09Z</time>
      </trkpt>
      <trkpt lat="43.33643" lon="2.57565">
        <ele>299.26901245117</ele>
        <time>2017-07-29T06:48:12Z</time>
      </trkpt>
      <trkpt lat="43.33649" lon="2.57559">
        <ele>297.26901245117</ele>
        <time>2017-07-29T06:48:15Z</time>
      </trkpt>
      <trkpt lat="43.33652" lon="2.57552">
        <ele>294.26901245117</ele>
        <time>2017-07-29T06:48:18Z</time>
      </trkpt>
      <trkpt lat="43.3366" lon="2.57542">
        <ele>295.26901245117</ele>
        <time>2017-07-29T06:48:21Z</time>
      </trkpt>
      <trkpt lat="43.33667" lon="2.5754">
        <ele>294.26901245117</ele>
        <time>2017-07-29T06:48:23Z</time>
      </trkpt>
      <trkpt lat="43.33673" lon="2.57537">
        <ele>295.26901245117</ele>
        <time>2017-07-29T06:48:25Z</time>
      </trkpt>
      <trkpt lat="43.33678" lon="2.57534">
        <ele>295.26901245117</ele>
        <time>2017-07-29T06:48:27Z</time>
      </trkpt>
      <trkpt lat="43.33683" lon="2.5753">
        <ele>294.26901245117</ele>
        <time>2017-07-29T06:48:29Z</time>
      </trkpt>
      <trkpt lat="43.33689" lon="2.57528">
        <ele>294.26901245117</ele>
        <time>2017-07-29T06:48:31Z</time>
      </trkpt>
      <trkpt lat="43.33694" lon="2.57527">
        <ele>294.26901245117</ele>
        <time>2017-07-29T06:48:33Z</time>
      </trkpt>
      <trkpt lat="43.337" lon="2.57527">
        <ele>294.26901245117</ele>
        <time>2017-07-29T06:48:35Z</time>
      </trkpt>
      <trkpt lat="43.33706" lon="2.57527">
        <ele>293.26901245117</ele>
        <time>2017-07-29T06:48:37Z</time>
      </trkpt>
      <trkpt lat="43.33712" lon="2.57527">
        <ele>293.26901245117</ele>
        <time>2017-07-29T06:48:39Z</time>
      </trkpt>
      <trkpt lat="43.33717" lon="2.57527">
        <ele>292.26901245117</ele>
        <time>2017-07-29T06:48:41Z</time>
      </trkpt>
      <trkpt lat="43.33723" lon="2.57528">
        <ele>292.26901245117</ele>
        <time>2017-07-29T06:48:43Z</time>
      </trkpt>
      <trkpt lat="43.33728" lon="2.57529">
        <ele>292.26901245117</ele>
        <time>2017-07-29T06:48:45Z</time>
      </trkpt>
      <trkpt lat="43.33733" lon="2.5753">
        <ele>291.26901245117</ele>
        <time>2017-07-29T06:48:47Z</time>
      </trkpt>
      <trkpt lat="43.33738" lon="2.57532">
        <ele>291.26901245117</ele>
        <time>2017-07-29T06:48:49Z</time>
      </trkpt>
      <trkpt lat="43.33743" lon="2.57533">
        <ele>291.26901245117</ele>
        <time>2017-07-29T06:48:51Z</time>
      </trkpt>
      <trkpt lat="43.33747" lon="2.57534">
        <ele>291.26901245117</ele>
        <time>2017-07-29T06:48:53Z</time>
      </trkpt>
      <trkpt lat="43.33753" lon="2.57534">
        <ele>290.26901245117</ele>
        <time>2017-07-29T06:48:55Z</time>
      </trkpt>
      <trkpt lat="43.33758" lon="2.57532">
        <ele>290.26901245117</ele>
        <time>2017-07-29T06:48:57Z</time>
      </trkpt>
      <trkpt lat="43.33764" lon="2.57529">
        <ele>291.26901245117</ele>
        <time>2017-07-29T06:48:59Z</time>
      </trkpt>
      <trkpt lat="43.33768" lon="2.57524">
        <ele>292.26901245117</ele>
        <time>2017-07-29T06:49:01Z</time>
      </trkpt>
      <trkpt lat="43.33772" lon="2.57519">
        <ele>293.26901245117</ele>
        <time>2017-07-29T06:49:03Z</time>
      </trkpt>
      <trkpt lat="43.33775" lon="2.57514">
        <ele>293.26901245117</ele>
        <time>2017-07-29T06:49:05Z</time>
      </trkpt>
      <trkpt lat="43.33779" lon="2.57509">
        <ele>293.26901245117</ele>
        <time>2017-07-29T06:49:07Z</time>
      </trkpt>
      <trkpt lat="43.33784" lon="2.57504">
        <ele>293.26901245117</ele>
        <time>2017-07-29T06:49:09Z</time>
      </trkpt>
      <trkpt lat="43.33789" lon="2.57502">
        <ele>293.26901245117</ele>
        <time>2017-07-29T06:49:11Z</time>
      </trkpt>
      <trkpt lat="43.33794" lon="2.575">
        <ele>292.26901245117</ele>
        <time>2017-07-29T06:49:13Z</time>
      </trkpt>
      <trkpt lat="43.33799" lon="2.575">
        <ele>292.26901245117</ele>
        <time>2017-07-29T06:49:15Z</time>
      </trkpt>
      <trkpt lat="43.33806" lon="2.575">
        <ele>291.26901245117</ele>
        <time>2017-07-29T06:49:18Z</time>
      </trkpt>
      <trkpt lat="43.33812" lon="2.57501">
        <ele>289.26901245117</ele>
        <time>2017-07-29T06:49:20Z</time>
      </trkpt>
      <trkpt lat="43.33817" lon="2.575">
        <ele>289.26901245117</ele>
        <time>2017-07-29T06:49:22Z</time>
      </trkpt>
      <trkpt lat="43.33822" lon="2.57498">
        <ele>289.26901245117</ele>
        <time>2017-07-29T06:49:24Z</time>
      </trkpt>
      <trkpt lat="43.33828" lon="2.57495">
        <ele>287.26901245117</ele>
        <time>2017-07-29T06:49:26Z</time>
      </trkpt>
      <trkpt lat="43.33833" lon="2.57492">
        <ele>288.26901245117</ele>
        <time>2017-07-29T06:49:28Z</time>
      </trkpt>
      <trkpt lat="43.33838" lon="2.5749">
        <ele>289.26901245117</ele>
        <time>2017-07-29T06:49:30Z</time>
      </trkpt>
      <trkpt lat="43.33842" lon="2.57488">
        <ele>289.26901245117</ele>
        <time>2017-07-29T06:49:32Z</time>
      </trkpt>
      <trkpt lat="43.33848" lon="2.57485">
        <ele>290.26901245117</ele>
        <time>2017-07-29T06:49:34Z</time>
      </trkpt>
      <trkpt lat="43.33852" lon="2.57483">
        <ele>290.26901245117</ele>
        <time>2017-07-29T06:49:36Z</time>
      </trkpt>
      <trkpt lat="43.33857" lon="2.57481">
        <ele>290.26901245117</ele>
        <time>2017-07-29T06:49:38Z</time>
      </trkpt>
      <trkpt lat="43.33862" lon="2.5748">
        <ele>290.26901245117</ele>
        <time>2017-07-29T06:49:40Z</time>
      </trkpt>
      <trkpt lat="43.33867" lon="2.57478">
        <ele>291.26901245117</ele>
        <time>2017-07-29T06:49:42Z</time>
      </trkpt>
      <trkpt lat="43.33872" lon="2.57475">
        <ele>291.26901245117</ele>
        <time>2017-07-29T06:49:44Z</time>
      </trkpt>
      <trkpt lat="43.33878" lon="2.57471">
        <ele>291.26901245117</ele>
        <time>2017-07-29T06:49:47Z</time>
      </trkpt>
      <trkpt lat="43.33883" lon="2.5747">
        <ele>291.26901245117</ele>
        <time>2017-07-29T06:49:49Z</time>
      </trkpt>
      <trkpt lat="43.33889" lon="2.57471">
        <ele>289.26901245117</ele>
        <time>2017-07-29T06:49:52Z</time>
      </trkpt>
      <trkpt lat="43.33893" lon="2.57474">
        <ele>289.26998901367</ele>
        <time>2017-07-29T06:49:54Z</time>
      </trkpt>
      <trkpt lat="43.33898" lon="2.57478">
        <ele>288.26998901367</ele>
        <time>2017-07-29T06:49:56Z</time>
      </trkpt>
      <trkpt lat="43.33902" lon="2.57484">
        <ele>288.26998901367</ele>
        <time>2017-07-29T06:49:58Z</time>
      </trkpt>
      <trkpt lat="43.33907" lon="2.57487">
        <ele>288.26998901367</ele>
        <time>2017-07-29T06:50:00Z</time>
      </trkpt>
      <trkpt lat="43.33912" lon="2.57492">
        <ele>287.26998901367</ele>
        <time>2017-07-29T06:50:02Z</time>
      </trkpt>
      <trkpt lat="43.33916" lon="2.57497">
        <ele>286.26998901367</ele>
        <time>2017-07-29T06:50:04Z</time>
      </trkpt>
      <trkpt lat="43.33921" lon="2.57499">
        <ele>285.26998901367</ele>
        <time>2017-07-29T06:50:06Z</time>
      </trkpt>
      <trkpt lat="43.33925" lon="2.57503">
        <ele>283.26998901367</ele>
        <time>2017-07-29T06:50:08Z</time>
      </trkpt>
      <trkpt lat="43.3393" lon="2.57508">
        <ele>282.26998901367</ele>
        <time>2017-07-29T06:50:10Z</time>
      </trkpt>
      <trkpt lat="43.33935" lon="2.57509">
        <ele>281.26998901367</ele>
        <time>2017-07-29T06:50:12Z</time>
      </trkpt>
      <trkpt lat="43.3394" lon="2.57512">
        <ele>280.26998901367</ele>
        <time>2017-07-29T06:50:14Z</time>
      </trkpt>
      <trkpt lat="43.33945" lon="2.57514">
        <ele>279.26998901367</ele>
        <time>2017-07-29T06:50:22Z</time>
      </trkpt>
      <trkpt lat="43.3395" lon="2.57517">
        <ele>278.26998901367</ele>
        <time>2017-07-29T06:50:24Z</time>
      </trkpt>
      <trkpt lat="43.33955" lon="2.5752">
        <ele>279.26998901367</ele>
        <time>2017-07-29T06:50:26Z</time>
      </trkpt>
      <trkpt lat="43.33959" lon="2.57522">
        <ele>279.26998901367</ele>
        <time>2017-07-29T06:50:28Z</time>
      </trkpt>
      <trkpt lat="43.33963" lon="2.57527">
        <ele>279.26998901367</ele>
        <time>2017-07-29T06:50:30Z</time>
      </trkpt>
      <trkpt lat="43.33968" lon="2.57529">
        <ele>279.26998901367</ele>
        <time>2017-07-29T06:50:33Z</time>
      </trkpt>
      <trkpt lat="43.33973" lon="2.57533">
        <ele>279.26998901367</ele>
        <time>2017-07-29T06:50:36Z</time>
      </trkpt>
      <trkpt lat="43.33978" lon="2.57536">
        <ele>278.26998901367</ele>
        <time>2017-07-29T06:50:38Z</time>
      </trkpt>
      <trkpt lat="43.33983" lon="2.57538">
        <ele>278.26998901367</ele>
        <time>2017-07-29T06:50:40Z</time>
      </trkpt>
      <trkpt lat="43.33988" lon="2.5754">
        <ele>278.26998901367</ele>
        <time>2017-07-29T06:50:42Z</time>
      </trkpt>
      <trkpt lat="43.33993" lon="2.57542">
        <ele>278.26998901367</ele>
        <time>2017-07-29T06:50:44Z</time>
      </trkpt>
      <trkpt lat="43.33998" lon="2.57546">
        <ele>277.26998901367</ele>
        <time>2017-07-29T06:50:46Z</time>
      </trkpt>
      <trkpt lat="43.34002" lon="2.5755">
        <ele>276.26998901367</ele>
        <time>2017-07-29T06:50:48Z</time>
      </trkpt>
      <trkpt lat="43.34006" lon="2.57555">
        <ele>275.26998901367</ele>
        <time>2017-07-29T06:50:50Z</time>
      </trkpt>
      <trkpt lat="43.34011" lon="2.5756">
        <ele>273.26998901367</ele>
        <time>2017-07-29T06:50:52Z</time>
      </trkpt>
      <trkpt lat="43.34014" lon="2.57565">
        <ele>274.26998901367</ele>
        <time>2017-07-29T06:50:54Z</time>
      </trkpt>
      <trkpt lat="43.34017" lon="2.5757">
        <ele>272.26998901367</ele>
        <time>2017-07-29T06:50:56Z</time>
      </trkpt>
      <trkpt lat="43.34021" lon="2.57577">
        <ele>272.26998901367</ele>
        <time>2017-07-29T06:50:59Z</time>
      </trkpt>
      <trkpt lat="43.34025" lon="2.57582">
        <ele>272.26998901367</ele>
        <time>2017-07-29T06:51:01Z</time>
      </trkpt>
      <trkpt lat="43.34028" lon="2.57588">
        <ele>271.26998901367</ele>
        <time>2017-07-29T06:51:03Z</time>
      </trkpt>
      <trkpt lat="43.34033" lon="2.57595">
        <ele>273.26998901367</ele>
        <time>2017-07-29T06:51:06Z</time>
      </trkpt>
      <trkpt lat="43.34036" lon="2.57601">
        <ele>271.26998901367</ele>
        <time>2017-07-29T06:51:08Z</time>
      </trkpt>
      <trkpt lat="43.3404" lon="2.57606">
        <ele>271.26998901367</ele>
        <time>2017-07-29T06:51:10Z</time>
      </trkpt>
      <trkpt lat="43.34044" lon="2.5761">
        <ele>269.26998901367</ele>
        <time>2017-07-29T06:51:12Z</time>
      </trkpt>
      <trkpt lat="43.34051" lon="2.57621">
        <ele>269.26998901367</ele>
        <time>2017-07-29T06:51:17Z</time>
      </trkpt>
      <trkpt lat="43.34057" lon="2.5763">
        <ele>270.26998901367</ele>
        <time>2017-07-29T06:51:19Z</time>
      </trkpt>
      <trkpt lat="43.3406" lon="2.57636">
        <ele>269.27099609375</ele>
        <time>2017-07-29T06:51:21Z</time>
      </trkpt>
      <trkpt lat="43.34065" lon="2.57642">
        <ele>269.27099609375</ele>
        <time>2017-07-29T06:51:23Z</time>
      </trkpt>
      <trkpt lat="43.3407" lon="2.57648">
        <ele>267.27099609375</ele>
        <time>2017-07-29T06:51:26Z</time>
      </trkpt>
      <trkpt lat="43.34075" lon="2.57653">
        <ele>267.27099609375</ele>
        <time>2017-07-29T06:51:28Z</time>
      </trkpt>
      <trkpt lat="43.3408" lon="2.57656">
        <ele>266.27099609375</ele>
        <time>2017-07-29T06:51:30Z</time>
      </trkpt>
      <trkpt lat="43.34084" lon="2.57654">
        <ele>266.27099609375</ele>
        <time>2017-07-29T06:51:32Z</time>
      </trkpt>
      <trkpt lat="43.34087" lon="2.57648">
        <ele>265.27099609375</ele>
        <time>2017-07-29T06:51:34Z</time>
      </trkpt>
      <trkpt lat="43.34086" lon="2.57641">
        <ele>264.27099609375</ele>
        <time>2017-07-29T06:51:36Z</time>
      </trkpt>
      <trkpt lat="43.34084" lon="2.57633">
        <ele>262.27099609375</ele>
        <time>2017-07-29T06:51:39Z</time>
      </trkpt>
      <trkpt lat="43.34081" lon="2.57625">
        <ele>262.27099609375</ele>
        <time>2017-07-29T06:51:42Z</time>
      </trkpt>
      <trkpt lat="43.34079" lon="2.57618">
        <ele>262.27099609375</ele>
        <time>2017-07-29T06:51:44Z</time>
      </trkpt>
      <trkpt lat="43.34083" lon="2.57602">
        <ele>259.27099609375</ele>
        <time>2017-07-29T06:51:49Z</time>
      </trkpt>
      <trkpt lat="43.34086" lon="2.57594">
        <ele>260.27099609375</ele>
        <time>2017-07-29T06:51:51Z</time>
      </trkpt>
      <trkpt lat="43.34091" lon="2.57589">
        <ele>260.27099609375</ele>
        <time>2017-07-29T06:51:54Z</time>
      </trkpt>
      <trkpt lat="43.34098" lon="2.57589">
        <ele>259.27099609375</ele>
        <time>2017-07-29T06:51:56Z</time>
      </trkpt>
      <trkpt lat="43.34104" lon="2.57588">
        <ele>259.27099609375</ele>
        <time>2017-07-29T06:51:58Z</time>
      </trkpt>
      <trkpt lat="43.34109" lon="2.57585">
        <ele>259.27099609375</ele>
        <time>2017-07-29T06:52:01Z</time>
      </trkpt>
      <trkpt lat="43.34114" lon="2.57584">
        <ele>256.27099609375</ele>
        <time>2017-07-29T06:52:03Z</time>
      </trkpt>
      <trkpt lat="43.34119" lon="2.57582">
        <ele>255.27099609375</ele>
        <time>2017-07-29T06:52:05Z</time>
      </trkpt>
      <trkpt lat="43.34125" lon="2.5758">
        <ele>255.27099609375</ele>
        <time>2017-07-29T06:52:07Z</time>
      </trkpt>
      <trkpt lat="43.34132" lon="2.57577">
        <ele>255.27099609375</ele>
        <time>2017-07-29T06:52:10Z</time>
      </trkpt>
      <trkpt lat="43.34137" lon="2.57576">
        <ele>254.27099609375</ele>
        <time>2017-07-29T06:52:12Z</time>
      </trkpt>
      <trkpt lat="43.34143" lon="2.57574">
        <ele>251.27099609375</ele>
        <time>2017-07-29T06:52:15Z</time>
      </trkpt>
      <trkpt lat="43.34151" lon="2.57571">
        <ele>251.27099609375</ele>
        <time>2017-07-29T06:52:19Z</time>
      </trkpt>
      <trkpt lat="43.34156" lon="2.5757">
        <ele>250.27099609375</ele>
        <time>2017-07-29T06:52:22Z</time>
      </trkpt>
      <trkpt lat="43.34161" lon="2.57565">
        <ele>250.27099609375</ele>
        <time>2017-07-29T06:52:24Z</time>
      </trkpt>
      <trkpt lat="43.34164" lon="2.5756">
        <ele>248.27099609375</ele>
        <time>2017-07-29T06:52:26Z</time>
      </trkpt>
      <trkpt lat="43.34171" lon="2.57557">
        <ele>247.27099609375</ele>
        <time>2017-07-29T06:52:28Z</time>
      </trkpt>
      <trkpt lat="43.34174" lon="2.57552">
        <ele>245.27099609375</ele>
        <time>2017-07-29T06:52:31Z</time>
      </trkpt>
      <trkpt lat="43.34179" lon="2.57549">
        <ele>243.27099609375</ele>
        <time>2017-07-29T06:52:33Z</time>
      </trkpt>
      <trkpt lat="43.34185" lon="2.57549">
        <ele>242.27099609375</ele>
        <time>2017-07-29T06:52:35Z</time>
      </trkpt>
      <trkpt lat="43.34191" lon="2.57546">
        <ele>241.27099609375</ele>
        <time>2017-07-29T06:52:37Z</time>
      </trkpt>
      <trkpt lat="43.34196" lon="2.5754">
        <ele>239.27099609375</ele>
        <time>2017-07-29T06:52:40Z</time>
      </trkpt>
      <trkpt lat="43.34201" lon="2.57536">
        <ele>240.27099609375</ele>
        <time>2017-07-29T06:52:42Z</time>
      </trkpt>
      <trkpt lat="43.34207" lon="2.57535">
        <ele>240.27099609375</ele>
        <time>2017-07-29T06:52:45Z</time>
      </trkpt>
      <trkpt lat="43.3421" lon="2.57532">
        <ele>240.27099609375</ele>
        <time>2017-07-29T06:52:47Z</time>
      </trkpt>
      <trkpt lat="43.34215" lon="2.57528">
        <ele>238.27099609375</ele>
        <time>2017-07-29T06:52:50Z</time>
      </trkpt>
      <trkpt lat="43.34218" lon="2.5752">
        <ele>238.27099609375</ele>
        <time>2017-07-29T06:52:54Z</time>
      </trkpt>
      <trkpt lat="43.34223" lon="2.57519">
        <ele>239.27099609375</ele>
        <time>2017-07-29T06:52:56Z</time>
      </trkpt>
      <trkpt lat="43.3423" lon="2.57518">
        <ele>237.27099609375</ele>
        <time>2017-07-29T06:52:59Z</time>
      </trkpt>
      <trkpt lat="43.34238" lon="2.57517">
        <ele>236.27099609375</ele>
        <time>2017-07-29T06:53:02Z</time>
      </trkpt>
      <trkpt lat="43.34244" lon="2.57516">
        <ele>236.27099609375</ele>
        <time>2017-07-29T06:53:04Z</time>
      </trkpt>
      <trkpt lat="43.34258" lon="2.57513">
        <ele>237.27099609375</ele>
        <time>2017-07-29T06:53:07Z</time>
      </trkpt>
      <trkpt lat="43.34265" lon="2.57515">
        <ele>237.27099609375</ele>
        <time>2017-07-29T06:53:09Z</time>
      </trkpt>
      <trkpt lat="43.34271" lon="2.57516">
        <ele>237.27099609375</ele>
        <time>2017-07-29T06:53:11Z</time>
      </trkpt>
      <trkpt lat="43.34277" lon="2.57517">
        <ele>236.27099609375</ele>
        <time>2017-07-29T06:53:13Z</time>
      </trkpt>
      <trkpt lat="43.34283" lon="2.57518">
        <ele>236.27099609375</ele>
        <time>2017-07-29T06:53:15Z</time>
      </trkpt>
      <trkpt lat="43.34288" lon="2.5752">
        <ele>237.27099609375</ele>
        <time>2017-07-29T06:53:17Z</time>
      </trkpt>
      <trkpt lat="43.34293" lon="2.57522">
        <ele>237.27099609375</ele>
        <time>2017-07-29T06:53:20Z</time>
      </trkpt>
      <trkpt lat="43.34297" lon="2.57524">
        <ele>234.27099609375</ele>
        <time>2017-07-29T06:53:22Z</time>
      </trkpt>
      <trkpt lat="43.34302" lon="2.57526">
        <ele>234.27099609375</ele>
        <time>2017-07-29T06:53:24Z</time>
      </trkpt>
      <trkpt lat="43.34308" lon="2.57524">
        <ele>233.27099609375</ele>
        <time>2017-07-29T06:53:27Z</time>
      </trkpt>
      <trkpt lat="43.34314" lon="2.57523">
        <ele>232.27099609375</ele>
        <time>2017-07-29T06:53:29Z</time>
      </trkpt>
      <trkpt lat="43.34319" lon="2.57522">
        <ele>231.27099609375</ele>
        <time>2017-07-29T06:53:31Z</time>
      </trkpt>
      <trkpt lat="43.34324" lon="2.57518">
        <ele>230.27099609375</ele>
        <time>2017-07-29T06:53:33Z</time>
      </trkpt>
      <trkpt lat="43.34329" lon="2.57515">
        <ele>227.27099609375</ele>
        <time>2017-07-29T06:53:35Z</time>
      </trkpt>
      <trkpt lat="43.34333" lon="2.57511">
        <ele>227.27099609375</ele>
        <time>2017-07-29T06:53:37Z</time>
      </trkpt>
      <trkpt lat="43.34336" lon="2.57505">
        <ele>224.27099609375</ele>
        <time>2017-07-29T06:53:39Z</time>
      </trkpt>
      <trkpt lat="43.34342" lon="2.57501">
        <ele>223.27099609375</ele>
        <time>2017-07-29T06:53:41Z</time>
      </trkpt>
      <trkpt lat="43.34346" lon="2.57497">
        <ele>222.27099609375</ele>
        <time>2017-07-29T06:53:43Z</time>
      </trkpt>
      <trkpt lat="43.34349" lon="2.57491">
        <ele>221.27099609375</ele>
        <time>2017-07-29T06:53:45Z</time>
      </trkpt>
      <trkpt lat="43.34352" lon="2.57484">
        <ele>222.27099609375</ele>
        <time>2017-07-29T06:53:47Z</time>
      </trkpt>
      <trkpt lat="43.34354" lon="2.57477">
        <ele>223.27099609375</ele>
        <time>2017-07-29T06:53:49Z</time>
      </trkpt>
      <trkpt lat="43.34356" lon="2.57468">
        <ele>224.27099609375</ele>
        <time>2017-07-29T06:53:52Z</time>
      </trkpt>
      <trkpt lat="43.34356" lon="2.5746">
        <ele>224.27099609375</ele>
        <time>2017-07-29T06:53:55Z</time>
      </trkpt>
      <trkpt lat="43.34359" lon="2.57455">
        <ele>224.27099609375</ele>
        <time>2017-07-29T06:53:57Z</time>
      </trkpt>
      <trkpt lat="43.34364" lon="2.57453">
        <ele>223.27099609375</ele>
        <time>2017-07-29T06:53:59Z</time>
      </trkpt>
      <trkpt lat="43.34369" lon="2.57454">
        <ele>222.27099609375</ele>
        <time>2017-07-29T06:54:01Z</time>
      </trkpt>
      <trkpt lat="43.34373" lon="2.57456">
        <ele>224.27099609375</ele>
        <time>2017-07-29T06:54:03Z</time>
      </trkpt>
      <trkpt lat="43.34378" lon="2.57461">
        <ele>224.27099609375</ele>
        <time>2017-07-29T06:54:06Z</time>
      </trkpt>
      <trkpt lat="43.34384" lon="2.57463">
        <ele>222.27099609375</ele>
        <time>2017-07-29T06:54:08Z</time>
      </trkpt>
      <trkpt lat="43.34389" lon="2.57465">
        <ele>221.27099609375</ele>
        <time>2017-07-29T06:54:10Z</time>
      </trkpt>
      <trkpt lat="43.34394" lon="2.57466">
        <ele>222.27099609375</ele>
        <time>2017-07-29T06:54:12Z</time>
      </trkpt>
      <trkpt lat="43.34399" lon="2.57466">
        <ele>224.27099609375</ele>
        <time>2017-07-29T06:54:14Z</time>
      </trkpt>
      <trkpt lat="43.34405" lon="2.57467">
        <ele>225.27099609375</ele>
        <time>2017-07-29T06:54:18Z</time>
      </trkpt>
      <trkpt lat="43.34411" lon="2.57469">
        <ele>225.27099609375</ele>
        <time>2017-07-29T06:54:21Z</time>
      </trkpt>
      <trkpt lat="43.34414" lon="2.57474">
        <ele>227.27099609375</ele>
        <time>2017-07-29T06:54:24Z</time>
      </trkpt>
      <trkpt lat="43.34416" lon="2.5748">
        <ele>229.27099609375</ele>
        <time>2017-07-29T06:54:27Z</time>
      </trkpt>
      <trkpt lat="43.34416" lon="2.57488">
        <ele>228.27099609375</ele>
        <time>2017-07-29T06:54:30Z</time>
      </trkpt>
      <trkpt lat="43.34415" lon="2.57496">
        <ele>227.27200317383</ele>
        <time>2017-07-29T06:54:33Z</time>
      </trkpt>
      <trkpt lat="43.34413" lon="2.57503">
        <ele>226.27200317383</ele>
        <time>2017-07-29T06:54:35Z</time>
      </trkpt>
      <trkpt lat="43.3441" lon="2.57512">
        <ele>225.27200317383</ele>
        <time>2017-07-29T06:54:38Z</time>
      </trkpt>
      <trkpt lat="43.34408" lon="2.57518">
        <ele>225.27200317383</ele>
        <time>2017-07-29T06:54:40Z</time>
      </trkpt>
      <trkpt lat="43.34406" lon="2.57526">
        <ele>227.27200317383</ele>
        <time>2017-07-29T06:54:43Z</time>
      </trkpt>
      <trkpt lat="43.34403" lon="2.57532">
        <ele>228.27200317383</ele>
        <time>2017-07-29T06:54:46Z</time>
      </trkpt>
      <trkpt lat="43.34401" lon="2.57538">
        <ele>229.27200317383</ele>
        <time>2017-07-29T06:54:48Z</time>
      </trkpt>
      <trkpt lat="43.344" lon="2.57546">
        <ele>230.27200317383</ele>
        <time>2017-07-29T06:54:51Z</time>
      </trkpt>
      <trkpt lat="43.344" lon="2.57553">
        <ele>227.27200317383</ele>
        <time>2017-07-29T06:54:54Z</time>
      </trkpt>
      <trkpt lat="43.344" lon="2.57561">
        <ele>226.27200317383</ele>
        <time>2017-07-29T06:54:56Z</time>
      </trkpt>
      <trkpt lat="43.34403" lon="2.57574">
        <ele>225.27200317383</ele>
        <time>2017-07-29T06:55:00Z</time>
      </trkpt>
      <trkpt lat="43.34404" lon="2.57583">
        <ele>224.27200317383</ele>
        <time>2017-07-29T06:55:03Z</time>
      </trkpt>
      <trkpt lat="43.34407" lon="2.5759">
        <ele>225.27200317383</ele>
        <time>2017-07-29T06:55:05Z</time>
      </trkpt>
      <trkpt lat="43.3441" lon="2.57595">
        <ele>225.27200317383</ele>
        <time>2017-07-29T06:55:07Z</time>
      </trkpt>
      <trkpt lat="43.34415" lon="2.576">
        <ele>226.27200317383</ele>
        <time>2017-07-29T06:55:09Z</time>
      </trkpt>
      <trkpt lat="43.34418" lon="2.57605">
        <ele>225.27200317383</ele>
        <time>2017-07-29T06:55:11Z</time>
      </trkpt>
      <trkpt lat="43.34422" lon="2.57612">
        <ele>225.27200317383</ele>
        <time>2017-07-29T06:55:14Z</time>
      </trkpt>
      <trkpt lat="43.34425" lon="2.57621">
        <ele>225.27200317383</ele>
        <time>2017-07-29T06:55:17Z</time>
      </trkpt>
      <trkpt lat="43.34428" lon="2.5763">
        <ele>224.27200317383</ele>
        <time>2017-07-29T06:55:20Z</time>
      </trkpt>
      <trkpt lat="43.3443" lon="2.57636">
        <ele>224.27200317383</ele>
        <time>2017-07-29T06:55:22Z</time>
      </trkpt>
      <trkpt lat="43.34433" lon="2.57642">
        <ele>223.27200317383</ele>
        <time>2017-07-29T06:55:24Z</time>
      </trkpt>
      <trkpt lat="43.34436" lon="2.57647">
        <ele>222.27200317383</ele>
        <time>2017-07-29T06:55:26Z</time>
      </trkpt>
      <trkpt lat="43.34441" lon="2.5765">
        <ele>221.27200317383</ele>
        <time>2017-07-29T06:55:28Z</time>
      </trkpt>
      <trkpt lat="43.34446" lon="2.57653">
        <ele>220.27200317383</ele>
        <time>2017-07-29T06:55:30Z</time>
      </trkpt>
      <trkpt lat="43.3445" lon="2.57659">
        <ele>219.27200317383</ele>
        <time>2017-07-29T06:55:32Z</time>
      </trkpt>
      <trkpt lat="43.34453" lon="2.57667">
        <ele>217.27200317383</ele>
        <time>2017-07-29T06:55:35Z</time>
      </trkpt>
      <trkpt lat="43.34457" lon="2.57676">
        <ele>217.27200317383</ele>
        <time>2017-07-29T06:55:37Z</time>
      </trkpt>
      <trkpt lat="43.34459" lon="2.57684">
        <ele>217.27200317383</ele>
        <time>2017-07-29T06:55:39Z</time>
      </trkpt>
      <trkpt lat="43.34461" lon="2.57692">
        <ele>217.27200317383</ele>
        <time>2017-07-29T06:55:41Z</time>
      </trkpt>
      <trkpt lat="43.34465" lon="2.577">
        <ele>218.27200317383</ele>
        <time>2017-07-29T06:55:43Z</time>
      </trkpt>
      <trkpt lat="43.34469" lon="2.57706">
        <ele>216.27200317383</ele>
        <time>2017-07-29T06:55:45Z</time>
      </trkpt>
      <trkpt lat="43.34472" lon="2.57712">
        <ele>215.27200317383</ele>
        <time>2017-07-29T06:55:47Z</time>
      </trkpt>
      <trkpt lat="43.34474" lon="2.5772">
        <ele>215.27200317383</ele>
        <time>2017-07-29T06:55:49Z</time>
      </trkpt>
      <trkpt lat="43.34477" lon="2.57728">
        <ele>214.27200317383</ele>
        <time>2017-07-29T06:55:51Z</time>
      </trkpt>
      <trkpt lat="43.3448" lon="2.57735">
        <ele>214.27200317383</ele>
        <time>2017-07-29T06:55:53Z</time>
      </trkpt>
      <trkpt lat="43.34483" lon="2.5774">
        <ele>214.27200317383</ele>
        <time>2017-07-29T06:55:55Z</time>
      </trkpt>
      <trkpt lat="43.34484" lon="2.57746">
        <ele>213.27200317383</ele>
        <time>2017-07-29T06:55:57Z</time>
      </trkpt>
      <trkpt lat="43.34485" lon="2.57753">
        <ele>213.27200317383</ele>
        <time>2017-07-29T06:56:00Z</time>
      </trkpt>
      <trkpt lat="43.34485" lon="2.57761">
        <ele>213.27200317383</ele>
        <time>2017-07-29T06:56:03Z</time>
      </trkpt>
      <trkpt lat="43.34484" lon="2.57768">
        <ele>212.27200317383</ele>
        <time>2017-07-29T06:56:06Z</time>
      </trkpt>
      <trkpt lat="43.34482" lon="2.57777">
        <ele>213.27200317383</ele>
        <time>2017-07-29T06:56:09Z</time>
      </trkpt>
      <trkpt lat="43.34478" lon="2.5779">
        <ele>213.27200317383</ele>
        <time>2017-07-29T06:56:13Z</time>
      </trkpt>
      <trkpt lat="43.34478" lon="2.57796">
        <ele>213.27200317383</ele>
        <time>2017-07-29T06:56:15Z</time>
      </trkpt>
      <trkpt lat="43.34478" lon="2.57804">
        <ele>213.27200317383</ele>
        <time>2017-07-29T06:56:17Z</time>
      </trkpt>
      <trkpt lat="43.34481" lon="2.57818">
        <ele>215.27299499512</ele>
        <time>2017-07-29T06:56:21Z</time>
      </trkpt>
      <trkpt lat="43.34483" lon="2.57824">
        <ele>215.27299499512</ele>
        <time>2017-07-29T06:56:23Z</time>
      </trkpt>
      <trkpt lat="43.34484" lon="2.57835">
        <ele>214.27299499512</ele>
        <time>2017-07-29T06:56:26Z</time>
      </trkpt>
      <trkpt lat="43.34486" lon="2.57844">
        <ele>212.27299499512</ele>
        <time>2017-07-29T06:56:29Z</time>
      </trkpt>
      <trkpt lat="43.34485" lon="2.57852">
        <ele>211.27299499512</ele>
        <time>2017-07-29T06:56:32Z</time>
      </trkpt>
      <trkpt lat="43.34482" lon="2.57857">
        <ele>210.27299499512</ele>
        <time>2017-07-29T06:56:35Z</time>
      </trkpt>
      <trkpt lat="43.34478" lon="2.57862">
        <ele>208.27299499512</ele>
        <time>2017-07-29T06:56:40Z</time>
      </trkpt>
      <trkpt lat="43.34474" lon="2.57866">
        <ele>209.27299499512</ele>
        <time>2017-07-29T06:56:42Z</time>
      </trkpt>
      <trkpt lat="43.3447" lon="2.57873">
        <ele>210.27299499512</ele>
        <time>2017-07-29T06:56:44Z</time>
      </trkpt>
      <trkpt lat="43.34466" lon="2.57881">
        <ele>209.27299499512</ele>
        <time>2017-07-29T06:56:46Z</time>
      </trkpt>
      <trkpt lat="43.34464" lon="2.57888">
        <ele>211.27299499512</ele>
        <time>2017-07-29T06:56:48Z</time>
      </trkpt>
      <trkpt lat="43.34462" lon="2.57896">
        <ele>213.27299499512</ele>
        <time>2017-07-29T06:56:50Z</time>
      </trkpt>
      <trkpt lat="43.34461" lon="2.57904">
        <ele>212.27299499512</ele>
        <time>2017-07-29T06:56:52Z</time>
      </trkpt>
      <trkpt lat="43.34459" lon="2.57911">
        <ele>212.27299499512</ele>
        <time>2017-07-29T06:56:54Z</time>
      </trkpt>
      <trkpt lat="43.34458" lon="2.57919">
        <ele>212.27299499512</ele>
        <time>2017-07-29T06:56:56Z</time>
      </trkpt>
      <trkpt lat="43.34455" lon="2.57926">
        <ele>212.27299499512</ele>
        <time>2017-07-29T06:56:58Z</time>
      </trkpt>
      <trkpt lat="43.34453" lon="2.57932">
        <ele>213.27299499512</ele>
        <time>2017-07-29T06:57:00Z</time>
      </trkpt>
      <trkpt lat="43.3445" lon="2.57937">
        <ele>213.27299499512</ele>
        <time>2017-07-29T06:57:02Z</time>
      </trkpt>
      <trkpt lat="43.34446" lon="2.57944">
        <ele>213.27299499512</ele>
        <time>2017-07-29T06:57:05Z</time>
      </trkpt>
      <trkpt lat="43.34443" lon="2.57951">
        <ele>212.27299499512</ele>
        <time>2017-07-29T06:57:08Z</time>
      </trkpt>
      <trkpt lat="43.34438" lon="2.57955">
        <ele>212.27299499512</ele>
        <time>2017-07-29T06:57:10Z</time>
      </trkpt>
      <trkpt lat="43.34435" lon="2.57961">
        <ele>213.27299499512</ele>
        <time>2017-07-29T06:57:12Z</time>
      </trkpt>
      <trkpt lat="43.34431" lon="2.57965">
        <ele>211.27299499512</ele>
        <time>2017-07-29T06:57:14Z</time>
      </trkpt>
      <trkpt lat="43.34427" lon="2.57968">
        <ele>210.27299499512</ele>
        <time>2017-07-29T06:57:16Z</time>
      </trkpt>
      <trkpt lat="43.34417" lon="2.57977">
        <ele>207.27299499512</ele>
        <time>2017-07-29T06:57:21Z</time>
      </trkpt>
      <trkpt lat="43.34412" lon="2.57982">
        <ele>205.27299499512</ele>
        <time>2017-07-29T06:57:23Z</time>
      </trkpt>
      <trkpt lat="43.34408" lon="2.57984">
        <ele>206.27299499512</ele>
        <time>2017-07-29T06:57:25Z</time>
      </trkpt>
      <trkpt lat="43.34403" lon="2.57988">
        <ele>206.27299499512</ele>
        <time>2017-07-29T06:57:27Z</time>
      </trkpt>
      <trkpt lat="43.34399" lon="2.57992">
        <ele>204.27299499512</ele>
        <time>2017-07-29T06:57:29Z</time>
      </trkpt>
      <trkpt lat="43.34396" lon="2.57997">
        <ele>205.27299499512</ele>
        <time>2017-07-29T06:57:31Z</time>
      </trkpt>
      <trkpt lat="43.34393" lon="2.58003">
        <ele>207.27299499512</ele>
        <time>2017-07-29T06:57:33Z</time>
      </trkpt>
      <trkpt lat="43.34389" lon="2.58009">
        <ele>207.27299499512</ele>
        <time>2017-07-29T06:57:35Z</time>
      </trkpt>
      <trkpt lat="43.34388" lon="2.58015">
        <ele>208.27299499512</ele>
        <time>2017-07-29T06:57:37Z</time>
      </trkpt>
      <trkpt lat="43.34385" lon="2.58023">
        <ele>209.27299499512</ele>
        <time>2017-07-29T06:57:39Z</time>
      </trkpt>
      <trkpt lat="43.34383" lon="2.58029">
        <ele>209.27299499512</ele>
        <time>2017-07-29T06:57:41Z</time>
      </trkpt>
      <trkpt lat="43.3438" lon="2.58032">
        <ele>208.27299499512</ele>
        <time>2017-07-29T06:57:43Z</time>
      </trkpt>
      <trkpt lat="43.34378" lon="2.58041">
        <ele>210.27299499512</ele>
        <time>2017-07-29T06:57:45Z</time>
      </trkpt>
      <trkpt lat="43.34376" lon="2.58049">
        <ele>209.27299499512</ele>
        <time>2017-07-29T06:57:48Z</time>
      </trkpt>
      <trkpt lat="43.34375" lon="2.58058">
        <ele>209.27299499512</ele>
        <time>2017-07-29T06:57:50Z</time>
      </trkpt>
      <trkpt lat="43.34373" lon="2.58067">
        <ele>209.27299499512</ele>
        <time>2017-07-29T06:57:53Z</time>
      </trkpt>
      <trkpt lat="43.34373" lon="2.58074">
        <ele>207.27299499512</ele>
        <time>2017-07-29T06:57:55Z</time>
      </trkpt>
      <trkpt lat="43.34372" lon="2.5808">
        <ele>209.27299499512</ele>
        <time>2017-07-29T06:57:57Z</time>
      </trkpt>
      <trkpt lat="43.34371" lon="2.58088">
        <ele>208.27299499512</ele>
        <time>2017-07-29T06:57:59Z</time>
      </trkpt>
      <trkpt lat="43.3437" lon="2.58095">
        <ele>211.27299499512</ele>
        <time>2017-07-29T06:58:01Z</time>
      </trkpt>
      <trkpt lat="43.34369" lon="2.58104">
        <ele>210.27299499512</ele>
        <time>2017-07-29T06:58:03Z</time>
      </trkpt>
      <trkpt lat="43.34369" lon="2.58112">
        <ele>208.27299499512</ele>
        <time>2017-07-29T06:58:05Z</time>
      </trkpt>
      <trkpt lat="43.3437" lon="2.5812">
        <ele>207.27299499512</ele>
        <time>2017-07-29T06:58:07Z</time>
      </trkpt>
      <trkpt lat="43.3437" lon="2.58127">
        <ele>206.27299499512</ele>
        <time>2017-07-29T06:58:09Z</time>
      </trkpt>
      <trkpt lat="43.3437" lon="2.58134">
        <ele>206.27299499512</ele>
        <time>2017-07-29T06:58:11Z</time>
      </trkpt>
      <trkpt lat="43.3437" lon="2.58141">
        <ele>205.27299499512</ele>
        <time>2017-07-29T06:58:13Z</time>
      </trkpt>
      <trkpt lat="43.34371" lon="2.58148">
        <ele>206.27299499512</ele>
        <time>2017-07-29T06:58:15Z</time>
      </trkpt>
      <trkpt lat="43.34369" lon="2.58156">
        <ele>207.27299499512</ele>
        <time>2017-07-29T06:58:17Z</time>
      </trkpt>
      <trkpt lat="43.3437" lon="2.58166">
        <ele>207.27299499512</ele>
        <time>2017-07-29T06:58:20Z</time>
      </trkpt>
      <trkpt lat="43.3437" lon="2.58173">
        <ele>206.27299499512</ele>
        <time>2017-07-29T06:58:22Z</time>
      </trkpt>
      <trkpt lat="43.34371" lon="2.5818">
        <ele>204.27299499512</ele>
        <time>2017-07-29T06:58:24Z</time>
      </trkpt>
      <trkpt lat="43.3437" lon="2.58187">
        <ele>206.27299499512</ele>
        <time>2017-07-29T06:58:26Z</time>
      </trkpt>
      <trkpt lat="43.3437" lon="2.58197">
        <ele>205.27299499512</ele>
        <time>2017-07-29T06:58:29Z</time>
      </trkpt>
      <trkpt lat="43.3437" lon="2.58204">
        <ele>204.27299499512</ele>
        <time>2017-07-29T06:58:31Z</time>
      </trkpt>
      <trkpt lat="43.3437" lon="2.58213">
        <ele>204.27299499512</ele>
        <time>2017-07-29T06:58:33Z</time>
      </trkpt>
      <trkpt lat="43.3437" lon="2.58221">
        <ele>203.27299499512</ele>
        <time>2017-07-29T06:58:35Z</time>
      </trkpt>
      <trkpt lat="43.3437" lon="2.58229">
        <ele>202.27299499512</ele>
        <time>2017-07-29T06:58:37Z</time>
      </trkpt>
      <trkpt lat="43.3437" lon="2.58238">
        <ele>201.27299499512</ele>
        <time>2017-07-29T06:58:39Z</time>
      </trkpt>
      <trkpt lat="43.34369" lon="2.58246">
        <ele>201.27299499512</ele>
        <time>2017-07-29T06:58:41Z</time>
      </trkpt>
      <trkpt lat="43.34368" lon="2.58254">
        <ele>200.27299499512</ele>
        <time>2017-07-29T06:58:43Z</time>
      </trkpt>
      <trkpt lat="43.34368" lon="2.58262">
        <ele>199.27299499512</ele>
        <time>2017-07-29T06:58:45Z</time>
      </trkpt>
      <trkpt lat="43.34368" lon="2.58268">
        <ele>198.27299499512</ele>
        <time>2017-07-29T06:58:48Z</time>
      </trkpt>
      <trkpt lat="43.34367" lon="2.58275">
        <ele>197.27299499512</ele>
        <time>2017-07-29T06:58:53Z</time>
      </trkpt>
      <trkpt lat="43.3437" lon="2.5828">
        <ele>195.27299499512</ele>
        <time>2017-07-29T06:59:03Z</time>
      </trkpt>
      <trkpt lat="43.34369" lon="2.58288">
        <ele>193.27299499512</ele>
        <time>2017-07-29T06:59:08Z</time>
      </trkpt>
      <trkpt lat="43.34369" lon="2.58295">
        <ele>192.27299499512</ele>
        <time>2017-07-29T06:59:11Z</time>
      </trkpt>
      <trkpt lat="43.34368" lon="2.58302">
        <ele>191.27299499512</ele>
        <time>2017-07-29T06:59:14Z</time>
      </trkpt>
      <trkpt lat="43.34366" lon="2.5831">
        <ele>193.27299499512</ele>
        <time>2017-07-29T06:59:17Z</time>
      </trkpt>
      <trkpt lat="43.34366" lon="2.58318">
        <ele>193.27299499512</ele>
        <time>2017-07-29T06:59:19Z</time>
      </trkpt>
      <trkpt lat="43.34365" lon="2.58327">
        <ele>194.27299499512</ele>
        <time>2017-07-29T06:59:21Z</time>
      </trkpt>
      <trkpt lat="43.34365" lon="2.58336">
        <ele>195.27299499512</ele>
        <time>2017-07-29T06:59:23Z</time>
      </trkpt>
      <trkpt lat="43.34365" lon="2.58342">
        <ele>195.27299499512</ele>
        <time>2017-07-29T06:59:25Z</time>
      </trkpt>
      <trkpt lat="43.34366" lon="2.5835">
        <ele>195.27299499512</ele>
        <time>2017-07-29T06:59:27Z</time>
      </trkpt>
      <trkpt lat="43.34367" lon="2.58356">
        <ele>194.27299499512</ele>
        <time>2017-07-29T06:59:29Z</time>
      </trkpt>
      <trkpt lat="43.34368" lon="2.58365">
        <ele>197.27299499512</ele>
        <time>2017-07-29T06:59:31Z</time>
      </trkpt>
      <trkpt lat="43.34371" lon="2.58372">
        <ele>198.27299499512</ele>
        <time>2017-07-29T06:59:33Z</time>
      </trkpt>
      <trkpt lat="43.34372" lon="2.58379">
        <ele>198.27299499512</ele>
        <time>2017-07-29T06:59:35Z</time>
      </trkpt>
      <trkpt lat="43.34374" lon="2.58386">
        <ele>198.27299499512</ele>
        <time>2017-07-29T06:59:37Z</time>
      </trkpt>
      <trkpt lat="43.34377" lon="2.58394">
        <ele>199.27299499512</ele>
        <time>2017-07-29T06:59:39Z</time>
      </trkpt>
      <trkpt lat="43.34377" lon="2.58401">
        <ele>200.27299499512</ele>
        <time>2017-07-29T06:59:41Z</time>
      </trkpt>
      <trkpt lat="43.34376" lon="2.58408">
        <ele>200.27299499512</ele>
        <time>2017-07-29T06:59:43Z</time>
      </trkpt>
      <trkpt lat="43.34375" lon="2.58415">
        <ele>201.27400207519</ele>
        <time>2017-07-29T06:59:45Z</time>
      </trkpt>
      <trkpt lat="43.34372" lon="2.58423">
        <ele>201.27400207519</ele>
        <time>2017-07-29T06:59:47Z</time>
      </trkpt>
      <trkpt lat="43.3437" lon="2.5843">
        <ele>202.27400207519</ele>
        <time>2017-07-29T06:59:49Z</time>
      </trkpt>
      <trkpt lat="43.34368" lon="2.58436">
        <ele>203.27400207519</ele>
        <time>2017-07-29T06:59:51Z</time>
      </trkpt>
      <trkpt lat="43.34367" lon="2.58442">
        <ele>202.27400207519</ele>
        <time>2017-07-29T06:59:53Z</time>
      </trkpt>
      <trkpt lat="43.34367" lon="2.58449">
        <ele>202.27400207519</ele>
        <time>2017-07-29T06:59:55Z</time>
      </trkpt>
      <trkpt lat="43.34365" lon="2.58457">
        <ele>200.27400207519</ele>
        <time>2017-07-29T06:59:57Z</time>
      </trkpt>
      <trkpt lat="43.34364" lon="2.58464">
        <ele>201.27400207519</ele>
        <time>2017-07-29T06:59:59Z</time>
      </trkpt>
      <trkpt lat="43.34363" lon="2.58471">
        <ele>200.27400207519</ele>
        <time>2017-07-29T07:00:01Z</time>
      </trkpt>
      <trkpt lat="43.34363" lon="2.58478">
        <ele>201.27400207519</ele>
        <time>2017-07-29T07:00:03Z</time>
      </trkpt>
      <trkpt lat="43.34363" lon="2.58485">
        <ele>202.27400207519</ele>
        <time>2017-07-29T07:00:05Z</time>
      </trkpt>
      <trkpt lat="43.34362" lon="2.58492">
        <ele>202.27400207519</ele>
        <time>2017-07-29T07:00:07Z</time>
      </trkpt>
      <trkpt lat="43.34362" lon="2.585">
        <ele>202.27400207519</ele>
        <time>2017-07-29T07:00:09Z</time>
      </trkpt>
      <trkpt lat="43.34361" lon="2.58507">
        <ele>201.27400207519</ele>
        <time>2017-07-29T07:00:11Z</time>
      </trkpt>
      <trkpt lat="43.34361" lon="2.58514">
        <ele>200.27400207519</ele>
        <time>2017-07-29T07:00:13Z</time>
      </trkpt>
      <trkpt lat="43.3436" lon="2.58521">
        <ele>200.27400207519</ele>
        <time>2017-07-29T07:00:15Z</time>
      </trkpt>
      <trkpt lat="43.34358" lon="2.58528">
        <ele>201.27400207519</ele>
        <time>2017-07-29T07:00:17Z</time>
      </trkpt>
      <trkpt lat="43.34356" lon="2.58538">
        <ele>199.27400207519</ele>
        <time>2017-07-29T07:00:20Z</time>
      </trkpt>
      <trkpt lat="43.34353" lon="2.58547">
        <ele>197.27400207519</ele>
        <time>2017-07-29T07:00:23Z</time>
      </trkpt>
      <trkpt lat="43.34351" lon="2.58554">
        <ele>197.27400207519</ele>
        <time>2017-07-29T07:00:25Z</time>
      </trkpt>
      <trkpt lat="43.34349" lon="2.58562">
        <ele>197.27400207519</ele>
        <time>2017-07-29T07:00:27Z</time>
      </trkpt>
      <trkpt lat="43.34346" lon="2.58569">
        <ele>198.27400207519</ele>
        <time>2017-07-29T07:00:29Z</time>
      </trkpt>
      <trkpt lat="43.34344" lon="2.58575">
        <ele>198.27400207519</ele>
        <time>2017-07-29T07:00:31Z</time>
      </trkpt>
      <trkpt lat="43.34342" lon="2.58582">
        <ele>197.27400207519</ele>
        <time>2017-07-29T07:00:33Z</time>
      </trkpt>
      <trkpt lat="43.34341" lon="2.58587">
        <ele>197.27400207519</ele>
        <time>2017-07-29T07:00:35Z</time>
      </trkpt>
      <trkpt lat="43.34338" lon="2.58594">
        <ele>196.27400207519</ele>
        <time>2017-07-29T07:00:37Z</time>
      </trkpt>
      <trkpt lat="43.34336" lon="2.586">
        <ele>195.27400207519</ele>
        <time>2017-07-29T07:00:39Z</time>
      </trkpt>
      <trkpt lat="43.34332" lon="2.58608">
        <ele>195.27400207519</ele>
        <time>2017-07-29T07:00:41Z</time>
      </trkpt>
      <trkpt lat="43.3433" lon="2.58614">
        <ele>195.27400207519</ele>
        <time>2017-07-29T07:00:43Z</time>
      </trkpt>
      <trkpt lat="43.34326" lon="2.58622">
        <ele>194.27400207519</ele>
        <time>2017-07-29T07:00:45Z</time>
      </trkpt>
      <trkpt lat="43.34324" lon="2.5863">
        <ele>196.27400207519</ele>
        <time>2017-07-29T07:00:47Z</time>
      </trkpt>
      <trkpt lat="43.34322" lon="2.58636">
        <ele>195.27400207519</ele>
        <time>2017-07-29T07:00:49Z</time>
      </trkpt>
      <trkpt lat="43.3432" lon="2.58645">
        <ele>193.27400207519</ele>
        <time>2017-07-29T07:00:51Z</time>
      </trkpt>
      <trkpt lat="43.34317" lon="2.58651">
        <ele>193.27400207519</ele>
        <time>2017-07-29T07:00:53Z</time>
      </trkpt>
      <trkpt lat="43.34314" lon="2.58658">
        <ele>194.27400207519</ele>
        <time>2017-07-29T07:00:55Z</time>
      </trkpt>
      <trkpt lat="43.34312" lon="2.58665">
        <ele>193.27400207519</ele>
        <time>2017-07-29T07:00:57Z</time>
      </trkpt>
      <trkpt lat="43.34309" lon="2.58671">
        <ele>191.27400207519</ele>
        <time>2017-07-29T07:00:59Z</time>
      </trkpt>
      <trkpt lat="43.34306" lon="2.58677">
        <ele>192.27400207519</ele>
        <time>2017-07-29T07:01:01Z</time>
      </trkpt>
      <trkpt lat="43.34303" lon="2.58684">
        <ele>191.27400207519</ele>
        <time>2017-07-29T07:01:03Z</time>
      </trkpt>
      <trkpt lat="43.34301" lon="2.58691">
        <ele>191.27400207519</ele>
        <time>2017-07-29T07:01:05Z</time>
      </trkpt>
      <trkpt lat="43.34299" lon="2.58699">
        <ele>192.27400207519</ele>
        <time>2017-07-29T07:01:07Z</time>
      </trkpt>
      <trkpt lat="43.34297" lon="2.58707">
        <ele>191.27400207519</ele>
        <time>2017-07-29T07:01:09Z</time>
      </trkpt>
      <trkpt lat="43.34296" lon="2.58715">
        <ele>192.27400207519</ele>
        <time>2017-07-29T07:01:11Z</time>
      </trkpt>
      <trkpt lat="43.34293" lon="2.5873">
        <ele>190.27400207519</ele>
        <time>2017-07-29T07:01:15Z</time>
      </trkpt>
      <trkpt lat="43.3429" lon="2.58737">
        <ele>189.27400207519</ele>
        <time>2017-07-29T07:01:17Z</time>
      </trkpt>
      <trkpt lat="43.34288" lon="2.58743">
        <ele>189.27400207519</ele>
        <time>2017-07-29T07:01:19Z</time>
      </trkpt>
      <trkpt lat="43.34285" lon="2.58752">
        <ele>189.27400207519</ele>
        <time>2017-07-29T07:01:22Z</time>
      </trkpt>
      <trkpt lat="43.34284" lon="2.58759">
        <ele>188.27400207519</ele>
        <time>2017-07-29T07:01:24Z</time>
      </trkpt>
      <trkpt lat="43.34283" lon="2.58767">
        <ele>189.27400207519</ele>
        <time>2017-07-29T07:01:26Z</time>
      </trkpt>
      <trkpt lat="43.34282" lon="2.58774">
        <ele>188.27400207519</ele>
        <time>2017-07-29T07:01:28Z</time>
      </trkpt>
      <trkpt lat="43.34281" lon="2.58782">
        <ele>187.27400207519</ele>
        <time>2017-07-29T07:01:30Z</time>
      </trkpt>
      <trkpt lat="43.34279" lon="2.58789">
        <ele>187.27400207519</ele>
        <time>2017-07-29T07:01:32Z</time>
      </trkpt>
      <trkpt lat="43.34276" lon="2.58795">
        <ele>186.27400207519</ele>
        <time>2017-07-29T07:01:34Z</time>
      </trkpt>
      <trkpt lat="43.34272" lon="2.58801">
        <ele>188.27400207519</ele>
        <time>2017-07-29T07:01:36Z</time>
      </trkpt>
      <trkpt lat="43.34267" lon="2.58804">
        <ele>190.27400207519</ele>
        <time>2017-07-29T07:01:38Z</time>
      </trkpt>
      <trkpt lat="43.34264" lon="2.58808">
        <ele>191.27400207519</ele>
        <time>2017-07-29T07:01:40Z</time>
      </trkpt>
      <trkpt lat="43.34259" lon="2.58811">
        <ele>192.27400207519</ele>
        <time>2017-07-29T07:01:42Z</time>
      </trkpt>
      <trkpt lat="43.34254" lon="2.58813">
        <ele>192.27400207519</ele>
        <time>2017-07-29T07:01:44Z</time>
      </trkpt>
      <trkpt lat="43.34247" lon="2.58821">
        <ele>191.27400207519</ele>
        <time>2017-07-29T07:01:48Z</time>
      </trkpt>
      <trkpt lat="43.34243" lon="2.58826">
        <ele>189.27400207519</ele>
        <time>2017-07-29T07:01:50Z</time>
      </trkpt>
      <trkpt lat="43.3424" lon="2.5883">
        <ele>190.27400207519</ele>
        <time>2017-07-29T07:01:52Z</time>
      </trkpt>
      <trkpt lat="43.34236" lon="2.58834">
        <ele>191.27400207519</ele>
        <time>2017-07-29T07:01:54Z</time>
      </trkpt>
      <trkpt lat="43.34233" lon="2.58839">
        <ele>190.27400207519</ele>
        <time>2017-07-29T07:01:56Z</time>
      </trkpt>
      <trkpt lat="43.3423" lon="2.58844">
        <ele>190.27400207519</ele>
        <time>2017-07-29T07:01:58Z</time>
      </trkpt>
      <trkpt lat="43.34227" lon="2.5885">
        <ele>189.27400207519</ele>
        <time>2017-07-29T07:02:00Z</time>
      </trkpt>
      <trkpt lat="43.34223" lon="2.58857">
        <ele>190.27400207519</ele>
        <time>2017-07-29T07:02:03Z</time>
      </trkpt>
      <trkpt lat="43.3422" lon="2.58862">
        <ele>191.27400207519</ele>
        <time>2017-07-29T07:02:05Z</time>
      </trkpt>
      <trkpt lat="43.34216" lon="2.58866">
        <ele>191.27400207519</ele>
        <time>2017-07-29T07:02:07Z</time>
      </trkpt>
      <trkpt lat="43.34213" lon="2.58872">
        <ele>192.27400207519</ele>
        <time>2017-07-29T07:02:09Z</time>
      </trkpt>
      <trkpt lat="43.34209" lon="2.58876">
        <ele>191.27400207519</ele>
        <time>2017-07-29T07:02:11Z</time>
      </trkpt>
      <trkpt lat="43.34206" lon="2.5888">
        <ele>190.27400207519</ele>
        <time>2017-07-29T07:02:13Z</time>
      </trkpt>
      <trkpt lat="43.34202" lon="2.58885">
        <ele>190.27400207519</ele>
        <time>2017-07-29T07:02:15Z</time>
      </trkpt>
      <trkpt lat="43.34199" lon="2.58891">
        <ele>188.27400207519</ele>
        <time>2017-07-29T07:02:17Z</time>
      </trkpt>
      <trkpt lat="43.34194" lon="2.58896">
        <ele>188.27400207519</ele>
        <time>2017-07-29T07:02:19Z</time>
      </trkpt>
      <trkpt lat="43.3419" lon="2.589">
        <ele>188.27400207519</ele>
        <time>2017-07-29T07:02:21Z</time>
      </trkpt>
      <trkpt lat="43.34186" lon="2.58906">
        <ele>187.27400207519</ele>
        <time>2017-07-29T07:02:23Z</time>
      </trkpt>
      <trkpt lat="43.34183" lon="2.58911">
        <ele>185.27400207519</ele>
        <time>2017-07-29T07:02:25Z</time>
      </trkpt>
      <trkpt lat="43.34178" lon="2.58914">
        <ele>182.27400207519</ele>
        <time>2017-07-29T07:02:27Z</time>
      </trkpt>
      <trkpt lat="43.34173" lon="2.5892">
        <ele>184.27400207519</ele>
        <time>2017-07-29T07:02:29Z</time>
      </trkpt>
      <trkpt lat="43.34162" lon="2.58931">
        <ele>185.27400207519</ele>
        <time>2017-07-29T07:02:32Z</time>
      </trkpt>
      <trkpt lat="43.34156" lon="2.58937">
        <ele>183.27400207519</ele>
        <time>2017-07-29T07:02:34Z</time>
      </trkpt>
      <trkpt lat="43.3415" lon="2.58944">
        <ele>184.27400207519</ele>
        <time>2017-07-29T07:02:36Z</time>
      </trkpt>
      <trkpt lat="43.34144" lon="2.58952">
        <ele>185.27400207519</ele>
        <time>2017-07-29T07:02:38Z</time>
      </trkpt>
      <trkpt lat="43.34139" lon="2.5896">
        <ele>187.27400207519</ele>
        <time>2017-07-29T07:02:40Z</time>
      </trkpt>
      <trkpt lat="43.3413" lon="2.58972">
        <ele>187.27400207519</ele>
        <time>2017-07-29T07:02:43Z</time>
      </trkpt>
      <trkpt lat="43.34123" lon="2.58977">
        <ele>187.27400207519</ele>
        <time>2017-07-29T07:02:45Z</time>
      </trkpt>
      <trkpt lat="43.34116" lon="2.58985">
        <ele>187.27400207519</ele>
        <time>2017-07-29T07:02:47Z</time>
      </trkpt>
      <trkpt lat="43.3411" lon="2.58992">
        <ele>186.27400207519</ele>
        <time>2017-07-29T07:02:49Z</time>
      </trkpt>
      <trkpt lat="43.34104" lon="2.58998">
        <ele>186.27400207519</ele>
        <time>2017-07-29T07:02:51Z</time>
      </trkpt>
      <trkpt lat="43.34098" lon="2.59005">
        <ele>185.27400207519</ele>
        <time>2017-07-29T07:02:53Z</time>
      </trkpt>
      <trkpt lat="43.34091" lon="2.59011">
        <ele>188.27400207519</ele>
        <time>2017-07-29T07:02:55Z</time>
      </trkpt>
      <trkpt lat="43.34085" lon="2.59016">
        <ele>188.27400207519</ele>
        <time>2017-07-29T07:02:57Z</time>
      </trkpt>
      <trkpt lat="43.34078" lon="2.5902">
        <ele>188.27400207519</ele>
        <time>2017-07-29T07:02:59Z</time>
      </trkpt>
      <trkpt lat="43.34071" lon="2.59024">
        <ele>188.27400207519</ele>
        <time>2017-07-29T07:03:01Z</time>
      </trkpt>
      <trkpt lat="43.34065" lon="2.59028">
        <ele>186.27400207519</ele>
        <time>2017-07-29T07:03:03Z</time>
      </trkpt>
      <trkpt lat="43.34058" lon="2.59032">
        <ele>186.27400207519</ele>
        <time>2017-07-29T07:03:05Z</time>
      </trkpt>
      <trkpt lat="43.34052" lon="2.59036">
        <ele>186.27400207519</ele>
        <time>2017-07-29T07:03:07Z</time>
      </trkpt>
      <trkpt lat="43.34048" lon="2.59039">
        <ele>188.27400207519</ele>
        <time>2017-07-29T07:03:09Z</time>
      </trkpt>
      <trkpt lat="43.34042" lon="2.5904">
        <ele>187.27400207519</ele>
        <time>2017-07-29T07:03:11Z</time>
      </trkpt>
      <trkpt lat="43.34037" lon="2.59038">
        <ele>186.27400207519</ele>
        <time>2017-07-29T07:03:13Z</time>
      </trkpt>
      <trkpt lat="43.34033" lon="2.59037">
        <ele>185.27400207519</ele>
        <time>2017-07-29T07:03:15Z</time>
      </trkpt>
      <trkpt lat="43.34028" lon="2.59032">
        <ele>185.27400207519</ele>
        <time>2017-07-29T07:03:17Z</time>
      </trkpt>
      <trkpt lat="43.34024" lon="2.59028">
        <ele>185.27400207519</ele>
        <time>2017-07-29T07:03:19Z</time>
      </trkpt>
      <trkpt lat="43.34021" lon="2.59023">
        <ele>186.27400207519</ele>
        <time>2017-07-29T07:03:21Z</time>
      </trkpt>
      <trkpt lat="43.34016" lon="2.59019">
        <ele>188.27400207519</ele>
        <time>2017-07-29T07:03:23Z</time>
      </trkpt>
      <trkpt lat="43.34011" lon="2.59016">
        <ele>186.27400207519</ele>
        <time>2017-07-29T07:03:26Z</time>
      </trkpt>
      <trkpt lat="43.34007" lon="2.59013">
        <ele>186.27400207519</ele>
        <time>2017-07-29T07:03:28Z</time>
      </trkpt>
      <trkpt lat="43.34001" lon="2.59013">
        <ele>186.27400207519</ele>
        <time>2017-07-29T07:03:31Z</time>
      </trkpt>
      <trkpt lat="43.33995" lon="2.59015">
        <ele>186.27299499512</ele>
        <time>2017-07-29T07:03:34Z</time>
      </trkpt>
      <trkpt lat="43.3399" lon="2.59018">
        <ele>187.27299499512</ele>
        <time>2017-07-29T07:03:37Z</time>
      </trkpt>
      <trkpt lat="43.33984" lon="2.59021">
        <ele>186.27299499512</ele>
        <time>2017-07-29T07:03:40Z</time>
      </trkpt>
      <trkpt lat="43.3398" lon="2.59024">
        <ele>187.27299499512</ele>
        <time>2017-07-29T07:03:42Z</time>
      </trkpt>
      <trkpt lat="43.33975" lon="2.59029">
        <ele>187.27299499512</ele>
        <time>2017-07-29T07:03:45Z</time>
      </trkpt>
      <trkpt lat="43.3397" lon="2.59035">
        <ele>187.27299499512</ele>
        <time>2017-07-29T07:03:48Z</time>
      </trkpt>
      <trkpt lat="43.33965" lon="2.5904">
        <ele>186.27299499512</ele>
        <time>2017-07-29T07:03:51Z</time>
      </trkpt>
      <trkpt lat="43.33963" lon="2.59046">
        <ele>186.27299499512</ele>
        <time>2017-07-29T07:03:53Z</time>
      </trkpt>
      <trkpt lat="43.33958" lon="2.59053">
        <ele>187.27299499512</ele>
        <time>2017-07-29T07:03:56Z</time>
      </trkpt>
      <trkpt lat="43.33955" lon="2.59057">
        <ele>186.27299499512</ele>
        <time>2017-07-29T07:03:58Z</time>
      </trkpt>
      <trkpt lat="43.33952" lon="2.59063">
        <ele>185.27299499512</ele>
        <time>2017-07-29T07:04:00Z</time>
      </trkpt>
      <trkpt lat="43.3395" lon="2.59068">
        <ele>185.27299499512</ele>
        <time>2017-07-29T07:04:02Z</time>
      </trkpt>
      <trkpt lat="43.33946" lon="2.59074">
        <ele>185.27299499512</ele>
        <time>2017-07-29T07:04:05Z</time>
      </trkpt>
      <trkpt lat="43.33941" lon="2.5908">
        <ele>184.27299499512</ele>
        <time>2017-07-29T07:04:08Z</time>
      </trkpt>
      <trkpt lat="43.33939" lon="2.59088">
        <ele>184.27299499512</ele>
        <time>2017-07-29T07:04:11Z</time>
      </trkpt>
      <trkpt lat="43.33936" lon="2.59097">
        <ele>183.27299499512</ele>
        <time>2017-07-29T07:04:14Z</time>
      </trkpt>
      <trkpt lat="43.33934" lon="2.59104">
        <ele>184.27299499512</ele>
        <time>2017-07-29T07:04:16Z</time>
      </trkpt>
      <trkpt lat="43.33932" lon="2.59111">
        <ele>183.27299499512</ele>
        <time>2017-07-29T07:04:18Z</time>
      </trkpt>
      <trkpt lat="43.3393" lon="2.59118">
        <ele>186.27299499512</ele>
        <time>2017-07-29T07:04:20Z</time>
      </trkpt>
      <trkpt lat="43.33928" lon="2.59124">
        <ele>186.27299499512</ele>
        <time>2017-07-29T07:04:22Z</time>
      </trkpt>
      <trkpt lat="43.33926" lon="2.59131">
        <ele>185.27400207519</ele>
        <time>2017-07-29T07:04:24Z</time>
      </trkpt>
      <trkpt lat="43.33923" lon="2.59138">
        <ele>185.27400207519</ele>
        <time>2017-07-29T07:04:26Z</time>
      </trkpt>
      <trkpt lat="43.33922" lon="2.59145">
        <ele>186.27400207519</ele>
        <time>2017-07-29T07:04:28Z</time>
      </trkpt>
      <trkpt lat="43.3392" lon="2.59153">
        <ele>187.27400207519</ele>
        <time>2017-07-29T07:04:30Z</time>
      </trkpt>
      <trkpt lat="43.33917" lon="2.59161">
        <ele>187.27400207519</ele>
        <time>2017-07-29T07:04:33Z</time>
      </trkpt>
      <trkpt lat="43.33914" lon="2.59167">
        <ele>188.27400207519</ele>
        <time>2017-07-29T07:04:35Z</time>
      </trkpt>
      <trkpt lat="43.33911" lon="2.59174">
        <ele>190.27400207519</ele>
        <time>2017-07-29T07:04:38Z</time>
      </trkpt>
      <trkpt lat="43.33906" lon="2.59182">
        <ele>190.27400207519</ele>
        <time>2017-07-29T07:04:41Z</time>
      </trkpt>
      <trkpt lat="43.33903" lon="2.59187">
        <ele>189.27400207519</ele>
        <time>2017-07-29T07:04:43Z</time>
      </trkpt>
      <trkpt lat="43.339" lon="2.59194">
        <ele>189.27400207519</ele>
        <time>2017-07-29T07:04:45Z</time>
      </trkpt>
      <trkpt lat="43.33897" lon="2.592">
        <ele>188.27400207519</ele>
        <time>2017-07-29T07:04:47Z</time>
      </trkpt>
      <trkpt lat="43.33895" lon="2.59206">
        <ele>188.27400207519</ele>
        <time>2017-07-29T07:04:49Z</time>
      </trkpt>
      <trkpt lat="43.33892" lon="2.59212">
        <ele>189.27400207519</ele>
        <time>2017-07-29T07:04:51Z</time>
      </trkpt>
      <trkpt lat="43.33888" lon="2.59218">
        <ele>189.27400207519</ele>
        <time>2017-07-29T07:04:53Z</time>
      </trkpt>
      <trkpt lat="43.33885" lon="2.59223">
        <ele>189.27400207519</ele>
        <time>2017-07-29T07:04:55Z</time>
      </trkpt>
      <trkpt lat="43.33881" lon="2.59228">
        <ele>189.27400207519</ele>
        <time>2017-07-29T07:04:57Z</time>
      </trkpt>
      <trkpt lat="43.33876" lon="2.59234">
        <ele>190.27400207519</ele>
        <time>2017-07-29T07:05:00Z</time>
      </trkpt>
      <trkpt lat="43.33872" lon="2.59239">
        <ele>190.27400207519</ele>
        <time>2017-07-29T07:05:03Z</time>
      </trkpt>
      <trkpt lat="43.33867" lon="2.59242">
        <ele>190.27400207519</ele>
        <time>2017-07-29T07:05:05Z</time>
      </trkpt>
      <trkpt lat="43.33862" lon="2.59247">
        <ele>190.27400207519</ele>
        <time>2017-07-29T07:05:07Z</time>
      </trkpt>
      <trkpt lat="43.33857" lon="2.59252">
        <ele>190.27400207519</ele>
        <time>2017-07-29T07:05:09Z</time>
      </trkpt>
      <trkpt lat="43.33853" lon="2.59255">
        <ele>189.27400207519</ele>
        <time>2017-07-29T07:05:11Z</time>
      </trkpt>
      <trkpt lat="43.33849" lon="2.59262">
        <ele>190.27400207519</ele>
        <time>2017-07-29T07:05:13Z</time>
      </trkpt>
      <trkpt lat="43.33843" lon="2.59267">
        <ele>189.27400207519</ele>
        <time>2017-07-29T07:05:15Z</time>
      </trkpt>
      <trkpt lat="43.33839" lon="2.59273">
        <ele>189.27400207519</ele>
        <time>2017-07-29T07:05:18Z</time>
      </trkpt>
      <trkpt lat="43.33835" lon="2.59279">
        <ele>188.27400207519</ele>
        <time>2017-07-29T07:05:20Z</time>
      </trkpt>
      <trkpt lat="43.33831" lon="2.59283">
        <ele>188.27400207519</ele>
        <time>2017-07-29T07:05:22Z</time>
      </trkpt>
      <trkpt lat="43.33827" lon="2.59289">
        <ele>187.27400207519</ele>
        <time>2017-07-29T07:05:24Z</time>
      </trkpt>
      <trkpt lat="43.33822" lon="2.59294">
        <ele>186.27299499512</ele>
        <time>2017-07-29T07:05:26Z</time>
      </trkpt>
      <trkpt lat="43.33818" lon="2.593">
        <ele>186.27299499512</ele>
        <time>2017-07-29T07:05:28Z</time>
      </trkpt>
      <trkpt lat="43.33815" lon="2.59306">
        <ele>186.27400207519</ele>
        <time>2017-07-29T07:05:30Z</time>
      </trkpt>
      <trkpt lat="43.3381" lon="2.59311">
        <ele>185.27299499512</ele>
        <time>2017-07-29T07:05:32Z</time>
      </trkpt>
      <trkpt lat="43.33807" lon="2.59318">
        <ele>186.27400207519</ele>
        <time>2017-07-29T07:05:34Z</time>
      </trkpt>
      <trkpt lat="43.33805" lon="2.59326">
        <ele>187.27400207519</ele>
        <time>2017-07-29T07:05:36Z</time>
      </trkpt>
      <trkpt lat="43.33801" lon="2.59331">
        <ele>187.27400207519</ele>
        <time>2017-07-29T07:05:38Z</time>
      </trkpt>
      <trkpt lat="43.33797" lon="2.59337">
        <ele>187.27400207519</ele>
        <time>2017-07-29T07:05:40Z</time>
      </trkpt>
      <trkpt lat="43.33793" lon="2.59343">
        <ele>186.27400207519</ele>
        <time>2017-07-29T07:05:42Z</time>
      </trkpt>
      <trkpt lat="43.3379" lon="2.59349">
        <ele>184.27400207519</ele>
        <time>2017-07-29T07:05:44Z</time>
      </trkpt>
      <trkpt lat="43.33787" lon="2.59355">
        <ele>182.27400207519</ele>
        <time>2017-07-29T07:05:46Z</time>
      </trkpt>
      <trkpt lat="43.33784" lon="2.59362">
        <ele>181.27400207519</ele>
        <time>2017-07-29T07:05:48Z</time>
      </trkpt>
      <trkpt lat="43.33783" lon="2.59369">
        <ele>181.27400207519</ele>
        <time>2017-07-29T07:05:50Z</time>
      </trkpt>
      <trkpt lat="43.33782" lon="2.59376">
        <ele>183.27400207519</ele>
        <time>2017-07-29T07:05:52Z</time>
      </trkpt>
      <trkpt lat="43.33781" lon="2.59382">
        <ele>181.27400207519</ele>
        <time>2017-07-29T07:05:54Z</time>
      </trkpt>
      <trkpt lat="43.33778" lon="2.59389">
        <ele>180.27400207519</ele>
        <time>2017-07-29T07:05:56Z</time>
      </trkpt>
      <trkpt lat="43.33777" lon="2.59395">
        <ele>179.27400207519</ele>
        <time>2017-07-29T07:05:58Z</time>
      </trkpt>
      <trkpt lat="43.33775" lon="2.59403">
        <ele>180.27400207519</ele>
        <time>2017-07-29T07:06:01Z</time>
      </trkpt>
      <trkpt lat="43.33773" lon="2.5941">
        <ele>180.27400207519</ele>
        <time>2017-07-29T07:06:03Z</time>
      </trkpt>
      <trkpt lat="43.33771" lon="2.59415">
        <ele>180.27400207519</ele>
        <time>2017-07-29T07:06:05Z</time>
      </trkpt>
      <trkpt lat="43.33767" lon="2.59422">
        <ele>181.27400207519</ele>
        <time>2017-07-29T07:06:07Z</time>
      </trkpt>
      <trkpt lat="43.33763" lon="2.59429">
        <ele>179.27400207519</ele>
        <time>2017-07-29T07:06:09Z</time>
      </trkpt>
      <trkpt lat="43.33759" lon="2.59434">
        <ele>176.27400207519</ele>
        <time>2017-07-29T07:06:11Z</time>
      </trkpt>
      <trkpt lat="43.33754" lon="2.59439">
        <ele>175.27400207519</ele>
        <time>2017-07-29T07:06:13Z</time>
      </trkpt>
      <trkpt lat="43.3375" lon="2.59446">
        <ele>176.27400207519</ele>
        <time>2017-07-29T07:06:15Z</time>
      </trkpt>
      <trkpt lat="43.33745" lon="2.5945">
        <ele>177.27400207519</ele>
        <time>2017-07-29T07:06:17Z</time>
      </trkpt>
      <trkpt lat="43.33741" lon="2.59455">
        <ele>177.27400207519</ele>
        <time>2017-07-29T07:06:19Z</time>
      </trkpt>
      <trkpt lat="43.33738" lon="2.59462">
        <ele>178.27400207519</ele>
        <time>2017-07-29T07:06:21Z</time>
      </trkpt>
      <trkpt lat="43.33734" lon="2.59468">
        <ele>178.27400207519</ele>
        <time>2017-07-29T07:06:23Z</time>
      </trkpt>
      <trkpt lat="43.3373" lon="2.59474">
        <ele>177.27400207519</ele>
        <time>2017-07-29T07:06:25Z</time>
      </trkpt>
      <trkpt lat="43.33727" lon="2.5948">
        <ele>178.27400207519</ele>
        <time>2017-07-29T07:06:27Z</time>
      </trkpt>
      <trkpt lat="43.33724" lon="2.59486">
        <ele>179.27400207519</ele>
        <time>2017-07-29T07:06:29Z</time>
      </trkpt>
      <trkpt lat="43.33719" lon="2.59491">
        <ele>178.27400207519</ele>
        <time>2017-07-29T07:06:31Z</time>
      </trkpt>
      <trkpt lat="43.33714" lon="2.59498">
        <ele>176.27400207519</ele>
        <time>2017-07-29T07:06:34Z</time>
      </trkpt>
      <trkpt lat="43.3371" lon="2.59503">
        <ele>176.27400207519</ele>
        <time>2017-07-29T07:06:36Z</time>
      </trkpt>
      <trkpt lat="43.33706" lon="2.59509">
        <ele>175.27400207519</ele>
        <time>2017-07-29T07:06:38Z</time>
      </trkpt>
      <trkpt lat="43.33701" lon="2.59515">
        <ele>178.27400207519</ele>
        <time>2017-07-29T07:06:40Z</time>
      </trkpt>
      <trkpt lat="43.33698" lon="2.5952">
        <ele>176.27400207519</ele>
        <time>2017-07-29T07:06:42Z</time>
      </trkpt>
      <trkpt lat="43.33695" lon="2.59525">
        <ele>174.27400207519</ele>
        <time>2017-07-29T07:06:44Z</time>
      </trkpt>
      <trkpt lat="43.33691" lon="2.59531">
        <ele>176.27400207519</ele>
        <time>2017-07-29T07:06:46Z</time>
      </trkpt>
      <trkpt lat="43.33688" lon="2.59536">
        <ele>176.27400207519</ele>
        <time>2017-07-29T07:06:48Z</time>
      </trkpt>
      <trkpt lat="43.33684" lon="2.59543">
        <ele>174.27400207519</ele>
        <time>2017-07-29T07:06:50Z</time>
      </trkpt>
      <trkpt lat="43.3368" lon="2.59551">
        <ele>173.27400207519</ele>
        <time>2017-07-29T07:06:53Z</time>
      </trkpt>
      <trkpt lat="43.33677" lon="2.59557">
        <ele>174.27400207519</ele>
        <time>2017-07-29T07:06:55Z</time>
      </trkpt>
      <trkpt lat="43.33674" lon="2.59566">
        <ele>173.27400207519</ele>
        <time>2017-07-29T07:06:58Z</time>
      </trkpt>
      <trkpt lat="43.3367" lon="2.59572">
        <ele>173.27400207519</ele>
        <time>2017-07-29T07:07:00Z</time>
      </trkpt>
      <trkpt lat="43.33669" lon="2.5958">
        <ele>173.27400207519</ele>
        <time>2017-07-29T07:07:02Z</time>
      </trkpt>
      <trkpt lat="43.33666" lon="2.59587">
        <ele>172.27400207519</ele>
        <time>2017-07-29T07:07:04Z</time>
      </trkpt>
      <trkpt lat="43.33664" lon="2.59594">
        <ele>172.27400207519</ele>
        <time>2017-07-29T07:07:06Z</time>
      </trkpt>
      <trkpt lat="43.33661" lon="2.59602">
        <ele>170.27400207519</ele>
        <time>2017-07-29T07:07:09Z</time>
      </trkpt>
      <trkpt lat="43.33658" lon="2.59609">
        <ele>169.27400207519</ele>
        <time>2017-07-29T07:07:11Z</time>
      </trkpt>
      <trkpt lat="43.33654" lon="2.59614">
        <ele>167.27400207519</ele>
        <time>2017-07-29T07:07:13Z</time>
      </trkpt>
      <trkpt lat="43.3365" lon="2.59619">
        <ele>170.27400207519</ele>
        <time>2017-07-29T07:07:15Z</time>
      </trkpt>
      <trkpt lat="43.33644" lon="2.59622">
        <ele>168.27400207519</ele>
        <time>2017-07-29T07:07:17Z</time>
      </trkpt>
      <trkpt lat="43.33637" lon="2.59624">
        <ele>170.27400207519</ele>
        <time>2017-07-29T07:07:19Z</time>
      </trkpt>
      <trkpt lat="43.33632" lon="2.59624">
        <ele>172.27400207519</ele>
        <time>2017-07-29T07:07:21Z</time>
      </trkpt>
      <trkpt lat="43.33627" lon="2.59627">
        <ele>170.27400207519</ele>
        <time>2017-07-29T07:07:23Z</time>
      </trkpt>
      <trkpt lat="43.33634" lon="2.59626">
        <ele>175.27400207519</ele>
        <time>2017-07-29T07:07:32Z</time>
      </trkpt>
      <trkpt lat="43.33638" lon="2.5963">
        <ele>175.27400207519</ele>
        <time>2017-07-29T07:07:34Z</time>
      </trkpt>
      <trkpt lat="43.33637" lon="2.59638">
        <ele>173.27400207519</ele>
        <time>2017-07-29T07:07:36Z</time>
      </trkpt>
      <trkpt lat="43.33635" lon="2.59645">
        <ele>172.27400207519</ele>
        <time>2017-07-29T07:07:38Z</time>
      </trkpt>
      <trkpt lat="43.33632" lon="2.59652">
        <ele>172.27400207519</ele>
        <time>2017-07-29T07:07:40Z</time>
      </trkpt>
      <trkpt lat="43.33628" lon="2.59657">
        <ele>171.27400207519</ele>
        <time>2017-07-29T07:07:42Z</time>
      </trkpt>
      <trkpt lat="43.33624" lon="2.59662">
        <ele>170.27400207519</ele>
        <time>2017-07-29T07:07:44Z</time>
      </trkpt>
      <trkpt lat="43.3362" lon="2.59668">
        <ele>169.27400207519</ele>
        <time>2017-07-29T07:07:46Z</time>
      </trkpt>
      <trkpt lat="43.33619" lon="2.59675">
        <ele>170.27400207519</ele>
        <time>2017-07-29T07:07:48Z</time>
      </trkpt>
      <trkpt lat="43.33623" lon="2.59678">
        <ele>170.27400207519</ele>
        <time>2017-07-29T07:07:50Z</time>
      </trkpt>
      <trkpt lat="43.33627" lon="2.59682">
        <ele>170.27400207519</ele>
        <time>2017-07-29T07:07:53Z</time>
      </trkpt>
      <trkpt lat="43.33631" lon="2.59688">
        <ele>171.27400207519</ele>
        <time>2017-07-29T07:07:56Z</time>
      </trkpt>
      <trkpt lat="43.33632" lon="2.59694">
        <ele>171.27400207519</ele>
        <time>2017-07-29T07:07:58Z</time>
      </trkpt>
      <trkpt lat="43.33635" lon="2.59702">
        <ele>171.27400207519</ele>
        <time>2017-07-29T07:08:01Z</time>
      </trkpt>
      <trkpt lat="43.33639" lon="2.59707">
        <ele>172.27400207519</ele>
        <time>2017-07-29T07:08:04Z</time>
      </trkpt>
      <trkpt lat="43.33643" lon="2.59715">
        <ele>172.27400207519</ele>
        <time>2017-07-29T07:08:07Z</time>
      </trkpt>
      <trkpt lat="43.33646" lon="2.5972">
        <ele>173.27400207519</ele>
        <time>2017-07-29T07:08:10Z</time>
      </trkpt>
      <trkpt lat="43.33649" lon="2.59726">
        <ele>173.27400207519</ele>
        <time>2017-07-29T07:08:12Z</time>
      </trkpt>
      <trkpt lat="43.33653" lon="2.5973">
        <ele>172.27400207519</ele>
        <time>2017-07-29T07:08:14Z</time>
      </trkpt>
      <trkpt lat="43.33657" lon="2.59737">
        <ele>172.27400207519</ele>
        <time>2017-07-29T07:08:17Z</time>
      </trkpt>
      <trkpt lat="43.3366" lon="2.59745">
        <ele>171.27400207519</ele>
        <time>2017-07-29T07:08:20Z</time>
      </trkpt>
      <trkpt lat="43.33662" lon="2.59751">
        <ele>171.27400207519</ele>
        <time>2017-07-29T07:08:22Z</time>
      </trkpt>
      <trkpt lat="43.33664" lon="2.59756">
        <ele>171.27400207519</ele>
        <time>2017-07-29T07:08:24Z</time>
      </trkpt>
      <trkpt lat="43.33667" lon="2.59763">
        <ele>170.27400207519</ele>
        <time>2017-07-29T07:08:26Z</time>
      </trkpt>
      <trkpt lat="43.33667" lon="2.59773">
        <ele>170.27400207519</ele>
        <time>2017-07-29T07:08:29Z</time>
      </trkpt>
      <trkpt lat="43.33669" lon="2.59781">
        <ele>170.27400207519</ele>
        <time>2017-07-29T07:08:33Z</time>
      </trkpt>
      <trkpt lat="43.3367" lon="2.59788">
        <ele>170.27400207519</ele>
        <time>2017-07-29T07:08:35Z</time>
      </trkpt>
      <trkpt lat="43.33672" lon="2.59795">
        <ele>170.27400207519</ele>
        <time>2017-07-29T07:08:37Z</time>
      </trkpt>
      <trkpt lat="43.33675" lon="2.59801">
        <ele>170.27400207519</ele>
        <time>2017-07-29T07:08:39Z</time>
      </trkpt>
      <trkpt lat="43.33677" lon="2.59809">
        <ele>171.27400207519</ele>
        <time>2017-07-29T07:08:41Z</time>
      </trkpt>
      <trkpt lat="43.33678" lon="2.59818">
        <ele>170.27400207519</ele>
        <time>2017-07-29T07:08:44Z</time>
      </trkpt>
      <trkpt lat="43.3368" lon="2.59825">
        <ele>169.27400207519</ele>
        <time>2017-07-29T07:08:46Z</time>
      </trkpt>
      <trkpt lat="43.33682" lon="2.59832">
        <ele>167.27400207519</ele>
        <time>2017-07-29T07:08:48Z</time>
      </trkpt>
      <trkpt lat="43.33684" lon="2.59838">
        <ele>167.27400207519</ele>
        <time>2017-07-29T07:08:50Z</time>
      </trkpt>
      <trkpt lat="43.33686" lon="2.59844">
        <ele>168.27400207519</ele>
        <time>2017-07-29T07:08:52Z</time>
      </trkpt>
      <trkpt lat="43.33688" lon="2.5985">
        <ele>168.27400207519</ele>
        <time>2017-07-29T07:08:54Z</time>
      </trkpt>
      <trkpt lat="43.3369" lon="2.59857">
        <ele>168.27400207519</ele>
        <time>2017-07-29T07:08:56Z</time>
      </trkpt>
      <trkpt lat="43.33691" lon="2.59862">
        <ele>169.27400207519</ele>
        <time>2017-07-29T07:08:58Z</time>
      </trkpt>
      <trkpt lat="43.33694" lon="2.59867">
        <ele>169.27400207519</ele>
        <time>2017-07-29T07:09:00Z</time>
      </trkpt>
      <trkpt lat="43.33697" lon="2.59873">
        <ele>169.27400207519</ele>
        <time>2017-07-29T07:09:02Z</time>
      </trkpt>
      <trkpt lat="43.33699" lon="2.59879">
        <ele>170.27400207519</ele>
        <time>2017-07-29T07:09:04Z</time>
      </trkpt>
      <trkpt lat="43.33701" lon="2.59886">
        <ele>169.27400207519</ele>
        <time>2017-07-29T07:09:06Z</time>
      </trkpt>
      <trkpt lat="43.33703" lon="2.59891">
        <ele>168.27400207519</ele>
        <time>2017-07-29T07:09:08Z</time>
      </trkpt>
      <trkpt lat="43.33706" lon="2.59896">
        <ele>168.27400207519</ele>
        <time>2017-07-29T07:09:10Z</time>
      </trkpt>
      <trkpt lat="43.33709" lon="2.59902">
        <ele>168.27400207519</ele>
        <time>2017-07-29T07:09:12Z</time>
      </trkpt>
      <trkpt lat="43.33714" lon="2.59907">
        <ele>168.27499389648</ele>
        <time>2017-07-29T07:09:15Z</time>
      </trkpt>
      <trkpt lat="43.33717" lon="2.59912">
        <ele>169.27499389648</ele>
        <time>2017-07-29T07:09:17Z</time>
      </trkpt>
      <trkpt lat="43.33721" lon="2.59917">
        <ele>170.27499389648</ele>
        <time>2017-07-29T07:09:19Z</time>
      </trkpt>
      <trkpt lat="43.33723" lon="2.59922">
        <ele>171.27499389648</ele>
        <time>2017-07-29T07:09:21Z</time>
      </trkpt>
      <trkpt lat="43.33727" lon="2.59929">
        <ele>170.27499389648</ele>
        <time>2017-07-29T07:09:24Z</time>
      </trkpt>
      <trkpt lat="43.3373" lon="2.59934">
        <ele>171.27499389648</ele>
        <time>2017-07-29T07:09:26Z</time>
      </trkpt>
      <trkpt lat="43.33733" lon="2.59939">
        <ele>172.27499389648</ele>
        <time>2017-07-29T07:09:28Z</time>
      </trkpt>
      <trkpt lat="43.33736" lon="2.59944">
        <ele>172.27499389648</ele>
        <time>2017-07-29T07:09:30Z</time>
      </trkpt>
      <trkpt lat="43.33741" lon="2.5995">
        <ele>174.27499389648</ele>
        <time>2017-07-29T07:09:33Z</time>
      </trkpt>
      <trkpt lat="43.33744" lon="2.59955">
        <ele>174.27499389648</ele>
        <time>2017-07-29T07:09:35Z</time>
      </trkpt>
      <trkpt lat="43.33747" lon="2.59962">
        <ele>175.27499389648</ele>
        <time>2017-07-29T07:09:38Z</time>
      </trkpt>
      <trkpt lat="43.3375" lon="2.59967">
        <ele>175.27499389648</ele>
        <time>2017-07-29T07:09:40Z</time>
      </trkpt>
      <trkpt lat="43.33753" lon="2.59972">
        <ele>175.27499389648</ele>
        <time>2017-07-29T07:09:42Z</time>
      </trkpt>
      <trkpt lat="43.33756" lon="2.59977">
        <ele>175.27499389648</ele>
        <time>2017-07-29T07:09:44Z</time>
      </trkpt>
      <trkpt lat="43.33759" lon="2.59983">
        <ele>175.27499389648</ele>
        <time>2017-07-29T07:09:46Z</time>
      </trkpt>
      <trkpt lat="43.33762" lon="2.59988">
        <ele>176.27499389648</ele>
        <time>2017-07-29T07:09:48Z</time>
      </trkpt>
      <trkpt lat="43.33764" lon="2.59994">
        <ele>177.27499389648</ele>
        <time>2017-07-29T07:09:50Z</time>
      </trkpt>
      <trkpt lat="43.33766" lon="2.6">
        <ele>177.27499389648</ele>
        <time>2017-07-29T07:09:52Z</time>
      </trkpt>
      <trkpt lat="43.3377" lon="2.60009">
        <ele>178.27499389648</ele>
        <time>2017-07-29T07:09:55Z</time>
      </trkpt>
      <trkpt lat="43.3377" lon="2.60016">
        <ele>177.27499389648</ele>
        <time>2017-07-29T07:09:57Z</time>
      </trkpt>
      <trkpt lat="43.3377" lon="2.60024">
        <ele>178.27499389648</ele>
        <time>2017-07-29T07:09:59Z</time>
      </trkpt>
      <trkpt lat="43.33771" lon="2.60032">
        <ele>178.27499389648</ele>
        <time>2017-07-29T07:10:01Z</time>
      </trkpt>
      <trkpt lat="43.33771" lon="2.60042">
        <ele>180.27499389648</ele>
        <time>2017-07-29T07:10:04Z</time>
      </trkpt>
      <trkpt lat="43.33771" lon="2.60051">
        <ele>179.27499389648</ele>
        <time>2017-07-29T07:10:07Z</time>
      </trkpt>
      <trkpt lat="43.33769" lon="2.60057">
        <ele>179.27499389648</ele>
        <time>2017-07-29T07:10:09Z</time>
      </trkpt>
      <trkpt lat="43.33768" lon="2.60065">
        <ele>179.27499389648</ele>
        <time>2017-07-29T07:10:11Z</time>
      </trkpt>
      <trkpt lat="43.33766" lon="2.60071">
        <ele>178.27499389648</ele>
        <time>2017-07-29T07:10:13Z</time>
      </trkpt>
      <trkpt lat="43.33763" lon="2.60077">
        <ele>176.27499389648</ele>
        <time>2017-07-29T07:10:15Z</time>
      </trkpt>
      <trkpt lat="43.3376" lon="2.60084">
        <ele>175.27499389648</ele>
        <time>2017-07-29T07:10:17Z</time>
      </trkpt>
      <trkpt lat="43.33758" lon="2.60093">
        <ele>174.27499389648</ele>
        <time>2017-07-29T07:10:20Z</time>
      </trkpt>
      <trkpt lat="43.33755" lon="2.60099">
        <ele>172.27499389648</ele>
        <time>2017-07-29T07:10:22Z</time>
      </trkpt>
      <trkpt lat="43.33753" lon="2.60106">
        <ele>172.27499389648</ele>
        <time>2017-07-29T07:10:24Z</time>
      </trkpt>
      <trkpt lat="43.33749" lon="2.60111">
        <ele>171.27499389648</ele>
        <time>2017-07-29T07:10:26Z</time>
      </trkpt>
      <trkpt lat="43.33745" lon="2.60114">
        <ele>173.27499389648</ele>
        <time>2017-07-29T07:10:28Z</time>
      </trkpt>
      <trkpt lat="43.33741" lon="2.60117">
        <ele>175.27499389648</ele>
        <time>2017-07-29T07:10:30Z</time>
      </trkpt>
      <trkpt lat="43.33736" lon="2.60121">
        <ele>175.27499389648</ele>
        <time>2017-07-29T07:10:32Z</time>
      </trkpt>
      <trkpt lat="43.33732" lon="2.60123">
        <ele>175.27499389648</ele>
        <time>2017-07-29T07:10:36Z</time>
      </trkpt>
      <trkpt lat="43.33727" lon="2.60128">
        <ele>175.27499389648</ele>
        <time>2017-07-29T07:10:40Z</time>
      </trkpt>
      <trkpt lat="43.33721" lon="2.60134">
        <ele>174.27499389648</ele>
        <time>2017-07-29T07:10:43Z</time>
      </trkpt>
      <trkpt lat="43.33717" lon="2.60139">
        <ele>173.27499389648</ele>
        <time>2017-07-29T07:10:45Z</time>
      </trkpt>
      <trkpt lat="43.33713" lon="2.60143">
        <ele>173.27499389648</ele>
        <time>2017-07-29T07:10:47Z</time>
      </trkpt>
      <trkpt lat="43.3371" lon="2.60148">
        <ele>175.27499389648</ele>
        <time>2017-07-29T07:10:49Z</time>
      </trkpt>
      <trkpt lat="43.33705" lon="2.6015">
        <ele>175.27499389648</ele>
        <time>2017-07-29T07:10:51Z</time>
      </trkpt>
      <trkpt lat="43.337" lon="2.60154">
        <ele>176.27499389648</ele>
        <time>2017-07-29T07:10:53Z</time>
      </trkpt>
      <trkpt lat="43.33695" lon="2.60157">
        <ele>176.27499389648</ele>
        <time>2017-07-29T07:10:55Z</time>
      </trkpt>
      <trkpt lat="43.3369" lon="2.60159">
        <ele>175.27499389648</ele>
        <time>2017-07-29T07:10:57Z</time>
      </trkpt>
      <trkpt lat="43.33686" lon="2.60161">
        <ele>173.27499389648</ele>
        <time>2017-07-29T07:10:59Z</time>
      </trkpt>
      <trkpt lat="43.33681" lon="2.60162">
        <ele>173.27499389648</ele>
        <time>2017-07-29T07:11:01Z</time>
      </trkpt>
      <trkpt lat="43.33674" lon="2.60164">
        <ele>174.27499389648</ele>
        <time>2017-07-29T07:11:04Z</time>
      </trkpt>
      <trkpt lat="43.33668" lon="2.60165">
        <ele>174.27499389648</ele>
        <time>2017-07-29T07:11:06Z</time>
      </trkpt>
      <trkpt lat="43.33663" lon="2.60165">
        <ele>175.27499389648</ele>
        <time>2017-07-29T07:11:08Z</time>
      </trkpt>
      <trkpt lat="43.33658" lon="2.60167">
        <ele>178.27499389648</ele>
        <time>2017-07-29T07:11:10Z</time>
      </trkpt>
      <trkpt lat="43.33652" lon="2.60167">
        <ele>177.27499389648</ele>
        <time>2017-07-29T07:11:12Z</time>
      </trkpt>
      <trkpt lat="43.33646" lon="2.60168">
        <ele>175.27499389648</ele>
        <time>2017-07-29T07:11:14Z</time>
      </trkpt>
      <trkpt lat="43.3364" lon="2.60169">
        <ele>175.27499389648</ele>
        <time>2017-07-29T07:11:16Z</time>
      </trkpt>
      <trkpt lat="43.33634" lon="2.60168">
        <ele>175.27499389648</ele>
        <time>2017-07-29T07:11:18Z</time>
      </trkpt>
      <trkpt lat="43.33628" lon="2.60168">
        <ele>174.27499389648</ele>
        <time>2017-07-29T07:11:20Z</time>
      </trkpt>
      <trkpt lat="43.33623" lon="2.60168">
        <ele>174.27499389648</ele>
        <time>2017-07-29T07:11:22Z</time>
      </trkpt>
      <trkpt lat="43.33618" lon="2.60168">
        <ele>173.27499389648</ele>
        <time>2017-07-29T07:11:24Z</time>
      </trkpt>
      <trkpt lat="43.33613" lon="2.60169">
        <ele>173.27499389648</ele>
        <time>2017-07-29T07:11:26Z</time>
      </trkpt>
      <trkpt lat="43.33607" lon="2.60169">
        <ele>175.27499389648</ele>
        <time>2017-07-29T07:11:28Z</time>
      </trkpt>
      <trkpt lat="43.33601" lon="2.60168">
        <ele>175.27499389648</ele>
        <time>2017-07-29T07:11:30Z</time>
      </trkpt>
      <trkpt lat="43.33591" lon="2.60169">
        <ele>172.27499389648</ele>
        <time>2017-07-29T07:11:34Z</time>
      </trkpt>
      <trkpt lat="43.33586" lon="2.6017">
        <ele>171.27499389648</ele>
        <time>2017-07-29T07:11:36Z</time>
      </trkpt>
      <trkpt lat="43.33581" lon="2.6017">
        <ele>172.27499389648</ele>
        <time>2017-07-29T07:11:38Z</time>
      </trkpt>
      <trkpt lat="43.33576" lon="2.6017">
        <ele>173.27499389648</ele>
        <time>2017-07-29T07:11:40Z</time>
      </trkpt>
      <trkpt lat="43.3357" lon="2.6017">
        <ele>173.27499389648</ele>
        <time>2017-07-29T07:11:42Z</time>
      </trkpt>
      <trkpt lat="43.33565" lon="2.60171">
        <ele>171.27499389648</ele>
        <time>2017-07-29T07:11:44Z</time>
      </trkpt>
      <trkpt lat="43.3356" lon="2.60171">
        <ele>169.27499389648</ele>
        <time>2017-07-29T07:11:46Z</time>
      </trkpt>
      <trkpt lat="43.33554" lon="2.6017">
        <ele>170.27499389648</ele>
        <time>2017-07-29T07:11:48Z</time>
      </trkpt>
      <trkpt lat="43.33549" lon="2.6017">
        <ele>170.27499389648</ele>
        <time>2017-07-29T07:11:50Z</time>
      </trkpt>
      <trkpt lat="43.33543" lon="2.60169">
        <ele>169.27499389648</ele>
        <time>2017-07-29T07:11:52Z</time>
      </trkpt>
      <trkpt lat="43.33539" lon="2.60171">
        <ele>171.27400207519</ele>
        <time>2017-07-29T07:11:54Z</time>
      </trkpt>
      <trkpt lat="43.33533" lon="2.60171">
        <ele>172.27400207519</ele>
        <time>2017-07-29T07:11:56Z</time>
      </trkpt>
      <trkpt lat="43.33523" lon="2.60171">
        <ele>174.27400207519</ele>
        <time>2017-07-29T07:12:00Z</time>
      </trkpt>
      <trkpt lat="43.33517" lon="2.60171">
        <ele>176.27400207519</ele>
        <time>2017-07-29T07:12:02Z</time>
      </trkpt>
      <trkpt lat="43.33511" lon="2.6017">
        <ele>176.27400207519</ele>
        <time>2017-07-29T07:12:04Z</time>
      </trkpt>
      <trkpt lat="43.33505" lon="2.6017">
        <ele>173.27400207519</ele>
        <time>2017-07-29T07:12:06Z</time>
      </trkpt>
      <trkpt lat="43.33499" lon="2.6017">
        <ele>173.27400207519</ele>
        <time>2017-07-29T07:12:08Z</time>
      </trkpt>
      <trkpt lat="43.33494" lon="2.60169">
        <ele>173.27400207519</ele>
        <time>2017-07-29T07:12:10Z</time>
      </trkpt>
      <trkpt lat="43.33489" lon="2.60171">
        <ele>172.27400207519</ele>
        <time>2017-07-29T07:12:12Z</time>
      </trkpt>
      <trkpt lat="43.33484" lon="2.60173">
        <ele>173.27400207519</ele>
        <time>2017-07-29T07:12:14Z</time>
      </trkpt>
      <trkpt lat="43.33479" lon="2.60174">
        <ele>174.27400207519</ele>
        <time>2017-07-29T07:12:16Z</time>
      </trkpt>
      <trkpt lat="43.33473" lon="2.60176">
        <ele>174.27400207519</ele>
        <time>2017-07-29T07:12:18Z</time>
      </trkpt>
      <trkpt lat="43.33469" lon="2.60179">
        <ele>172.27400207519</ele>
        <time>2017-07-29T07:12:20Z</time>
      </trkpt>
      <trkpt lat="43.33463" lon="2.60182">
        <ele>172.27400207519</ele>
        <time>2017-07-29T07:12:23Z</time>
      </trkpt>
      <trkpt lat="43.33457" lon="2.60183">
        <ele>170.27400207519</ele>
        <time>2017-07-29T07:12:25Z</time>
      </trkpt>
      <trkpt lat="43.33452" lon="2.60186">
        <ele>172.27400207519</ele>
        <time>2017-07-29T07:12:27Z</time>
      </trkpt>
      <trkpt lat="43.33447" lon="2.60189">
        <ele>171.27400207519</ele>
        <time>2017-07-29T07:12:29Z</time>
      </trkpt>
      <trkpt lat="43.33441" lon="2.6019">
        <ele>169.27400207519</ele>
        <time>2017-07-29T07:12:31Z</time>
      </trkpt>
      <trkpt lat="43.33434" lon="2.60194">
        <ele>171.27400207519</ele>
        <time>2017-07-29T07:12:34Z</time>
      </trkpt>
      <trkpt lat="43.33429" lon="2.60198">
        <ele>175.27400207519</ele>
        <time>2017-07-29T07:12:36Z</time>
      </trkpt>
      <trkpt lat="43.33424" lon="2.602">
        <ele>175.27400207519</ele>
        <time>2017-07-29T07:12:38Z</time>
      </trkpt>
      <trkpt lat="43.33419" lon="2.60203">
        <ele>175.27400207519</ele>
        <time>2017-07-29T07:12:40Z</time>
      </trkpt>
      <trkpt lat="43.33413" lon="2.60208">
        <ele>174.27400207519</ele>
        <time>2017-07-29T07:12:43Z</time>
      </trkpt>
      <trkpt lat="43.33409" lon="2.60208">
        <ele>173.27400207519</ele>
        <time>2017-07-29T07:12:45Z</time>
      </trkpt>
      <trkpt lat="43.33402" lon="2.60211">
        <ele>174.27400207519</ele>
        <time>2017-07-29T07:12:47Z</time>
      </trkpt>
      <trkpt lat="43.33397" lon="2.60214">
        <ele>175.27400207519</ele>
        <time>2017-07-29T07:12:49Z</time>
      </trkpt>
      <trkpt lat="43.33392" lon="2.60216">
        <ele>176.27400207519</ele>
        <time>2017-07-29T07:12:51Z</time>
      </trkpt>
      <trkpt lat="43.33387" lon="2.6022">
        <ele>177.27400207519</ele>
        <time>2017-07-29T07:12:53Z</time>
      </trkpt>
      <trkpt lat="43.33381" lon="2.60223">
        <ele>177.27400207519</ele>
        <time>2017-07-29T07:12:55Z</time>
      </trkpt>
      <trkpt lat="43.33376" lon="2.60226">
        <ele>177.27400207519</ele>
        <time>2017-07-29T07:12:57Z</time>
      </trkpt>
      <trkpt lat="43.3337" lon="2.60228">
        <ele>177.27400207519</ele>
        <time>2017-07-29T07:12:59Z</time>
      </trkpt>
      <trkpt lat="43.33363" lon="2.60227">
        <ele>177.27400207519</ele>
        <time>2017-07-29T07:13:02Z</time>
      </trkpt>
      <trkpt lat="43.33351" lon="2.60227">
        <ele>176.27400207519</ele>
        <time>2017-07-29T07:13:06Z</time>
      </trkpt>
      <trkpt lat="43.33345" lon="2.60227">
        <ele>174.27400207519</ele>
        <time>2017-07-29T07:13:10Z</time>
      </trkpt>
      <trkpt lat="43.3334" lon="2.60225">
        <ele>173.27400207519</ele>
        <time>2017-07-29T07:13:13Z</time>
      </trkpt>
      <trkpt lat="43.33336" lon="2.60223">
        <ele>172.27400207519</ele>
        <time>2017-07-29T07:13:16Z</time>
      </trkpt>
      <trkpt lat="43.33331" lon="2.60224">
        <ele>169.27400207519</ele>
        <time>2017-07-29T07:13:21Z</time>
      </trkpt>
      <trkpt lat="43.33325" lon="2.60222">
        <ele>169.27400207519</ele>
        <time>2017-07-29T07:13:25Z</time>
      </trkpt>
      <trkpt lat="43.3332" lon="2.60219">
        <ele>168.27400207519</ele>
        <time>2017-07-29T07:13:29Z</time>
      </trkpt>
      <trkpt lat="43.33316" lon="2.60217">
        <ele>166.27400207519</ele>
        <time>2017-07-29T07:13:32Z</time>
      </trkpt>
      <trkpt lat="43.3331" lon="2.60214">
        <ele>163.27400207519</ele>
        <time>2017-07-29T07:13:36Z</time>
      </trkpt>
      <trkpt lat="43.33305" lon="2.6021">
        <ele>165.27400207519</ele>
        <time>2017-07-29T07:13:39Z</time>
      </trkpt>
      <trkpt lat="43.33299" lon="2.60208">
        <ele>167.27400207519</ele>
        <time>2017-07-29T07:13:42Z</time>
      </trkpt>
      <trkpt lat="43.33294" lon="2.60207">
        <ele>168.27400207519</ele>
        <time>2017-07-29T07:13:45Z</time>
      </trkpt>
      <trkpt lat="43.3329" lon="2.6021">
        <ele>169.27400207519</ele>
        <time>2017-07-29T07:13:49Z</time>
      </trkpt>
      <trkpt lat="43.33288" lon="2.60216">
        <ele>167.27400207519</ele>
        <time>2017-07-29T07:13:52Z</time>
      </trkpt>
      <trkpt lat="43.33288" lon="2.60223">
        <ele>166.27400207519</ele>
        <time>2017-07-29T07:13:55Z</time>
      </trkpt>
      <trkpt lat="43.33287" lon="2.6023">
        <ele>166.27400207519</ele>
        <time>2017-07-29T07:14:03Z</time>
      </trkpt>
      <trkpt lat="43.33287" lon="2.60238">
        <ele>166.27400207519</ele>
        <time>2017-07-29T07:14:07Z</time>
      </trkpt>
      <trkpt lat="43.33286" lon="2.60245">
        <ele>164.27400207519</ele>
        <time>2017-07-29T07:14:10Z</time>
      </trkpt>
      <trkpt lat="43.33286" lon="2.60252">
        <ele>164.27400207519</ele>
        <time>2017-07-29T07:14:13Z</time>
      </trkpt>
      <trkpt lat="43.33285" lon="2.6026">
        <ele>165.27400207519</ele>
        <time>2017-07-29T07:14:17Z</time>
      </trkpt>
      <trkpt lat="43.33282" lon="2.60267">
        <ele>167.27400207519</ele>
        <time>2017-07-29T07:14:21Z</time>
      </trkpt>
      <trkpt lat="43.33284" lon="2.60273">
        <ele>169.27400207519</ele>
        <time>2017-07-29T07:14:26Z</time>
      </trkpt>
      <trkpt lat="43.33284" lon="2.6028">
        <ele>167.27400207519</ele>
        <time>2017-07-29T07:14:38Z</time>
      </trkpt>
      <trkpt lat="43.33284" lon="2.60287">
        <ele>164.27400207519</ele>
        <time>2017-07-29T07:14:44Z</time>
      </trkpt>
      <trkpt lat="43.33286" lon="2.60295">
        <ele>162.27400207519</ele>
        <time>2017-07-29T07:14:48Z</time>
      </trkpt>
    </trkseg>
  </trk>
</gpx>